Ticket #9228: 1643708.gpx

File 1643708.gpx, 167.5 KB (added by jward101, 8 years ago)
Line 
1<?xml version="1.0" encoding="UTF-8" ?><gpx version="1.0" creator="GPSLogger - http://gpslogger.mendhak.com/" xmlns:xsi="http://www.w3.org/2001/XMLSchema-instance" xmlns="http://www.topografix.com/GPX/1/0" xsi:schemaLocation="http://www.topografix.com/GPX/1/0 http://www.topografix.com/GPX/1/0/gpx.xsd"><time>2014-01-18T21:55:34Z</time><trk><trkseg><trkpt lat="-27.49111834" lon="153.1236607"><ele>29.100000381469727</ele><time>2014-01-18T21:55:34Z</time><course>328.3</course><speed>27.0</speed><src>gps</src><sat>22</sat><hdop>1.0</hdop></trkpt>
2<trkpt lat="-27.4903577" lon="153.12312643"><ele>34.099998474121094</ele><time>2014-01-18T21:55:38Z</time><course>332.2</course><speed>27.25</speed><src>gps</src><sat>21</sat><hdop>1.0</hdop></trkpt>
3<trkpt lat="-27.49013198" lon="153.12299148"><ele>35.70000076293945</ele><time>2014-01-18T21:55:39Z</time><course>332.8</course><speed>27.0</speed><src>gps</src><sat>22</sat><hdop>0.8</hdop></trkpt>
4<trkpt lat="-27.48990831" lon="153.12286181"><ele>36.5</ele><time>2014-01-18T21:55:40Z</time><course>333.6</course><speed>27.0</speed><src>gps</src><sat>22</sat><hdop>0.8</hdop></trkpt>
5<trkpt lat="-27.48968975" lon="153.12273768"><ele>38.099998474121094</ele><time>2014-01-18T21:55:41Z</time><course>333.7</course><speed>26.75</speed><src>gps</src><sat>22</sat><hdop>0.8</hdop></trkpt>
6<trkpt lat="-27.48923283" lon="153.12250283"><ele>44.29999923706055</ele><time>2014-01-18T21:55:43Z</time><course>334.8</course><speed>26.75</speed><src>gps</src><sat>23</sat><hdop>0.6</hdop></trkpt>
7<trkpt lat="-27.48901004" lon="153.12238804"><ele>45.099998474121094</ele><time>2014-01-18T21:55:44Z</time><course>335.5</course><speed>27.0</speed><src>gps</src><sat>23</sat><hdop>0.8</hdop></trkpt>
8<trkpt lat="-27.48856312" lon="153.12216269"><ele>45.29999923706055</ele><time>2014-01-18T21:55:46Z</time><course>336.7</course><speed>27.0</speed><src>gps</src><sat>23</sat><hdop>0.6</hdop></trkpt>
9<trkpt lat="-27.4881136" lon="153.12195559"><ele>47.79999923706055</ele><time>2014-01-18T21:55:48Z</time><course>337.7</course><speed>27.0</speed><src>gps</src><sat>23</sat><hdop>0.6</hdop></trkpt>
10<trkpt lat="-27.48788686" lon="153.12185241"><ele>48.0</ele><time>2014-01-18T21:55:49Z</time><course>338.3</course><speed>27.0</speed><src>gps</src><sat>23</sat><hdop>0.6</hdop></trkpt>
11<trkpt lat="-27.48766381" lon="153.12174831"><ele>48.5</ele><time>2014-01-18T21:55:50Z</time><course>338.6</course><speed>27.25</speed><src>gps</src><sat>24</sat><hdop>0.6</hdop></trkpt>
12<trkpt lat="-27.48719156" lon="153.12154653"><ele>50.0</ele><time>2014-01-18T21:55:52Z</time><course>339.6</course><speed>27.5</speed><src>gps</src><sat>24</sat><hdop>0.6</hdop></trkpt>
13<trkpt lat="-27.48696273" lon="153.12145389"><ele>49.900001525878906</ele><time>2014-01-18T21:55:53Z</time><course>340.1</course><speed>27.5</speed><src>gps</src><sat>23</sat><hdop>0.6</hdop></trkpt>
14<trkpt lat="-27.48651054" lon="153.12127417"><ele>51.0</ele><time>2014-01-18T21:55:55Z</time><course>340.9</course><speed>27.5</speed><src>gps</src><sat>22</sat><hdop>0.6</hdop></trkpt>
15<trkpt lat="-27.48603567" lon="153.12107931"><ele>50.400001525878906</ele><time>2014-01-18T21:55:57Z</time><course>339.8</course><speed>27.5</speed><src>gps</src><sat>23</sat><hdop>0.6</hdop></trkpt>
16<trkpt lat="-27.48557261" lon="153.12087954"><ele>50.599998474121094</ele><time>2014-01-18T21:55:59Z</time><course>338.8</course><speed>27.5</speed><src>gps</src><sat>23</sat><hdop>0.6</hdop></trkpt>
17<trkpt lat="-27.48511377" lon="153.12067246"><ele>49.5</ele><time>2014-01-18T21:56:01Z</time><course>338.3</course><speed>27.5</speed><src>gps</src><sat>23</sat><hdop>0.8</hdop></trkpt>
18<trkpt lat="-27.48465678" lon="153.12044492"><ele>48.400001525878906</ele><time>2014-01-18T21:56:03Z</time><course>336.1</course><speed>27.5</speed><src>gps</src><sat>24</sat><hdop>0.6</hdop></trkpt>
19<trkpt lat="-27.48443311" lon="153.12032783"><ele>47.599998474121094</ele><time>2014-01-18T21:56:04Z</time><course>335.3</course><speed>27.5</speed><src>gps</src><sat>24</sat><hdop>0.6</hdop></trkpt>
20<trkpt lat="-27.48420844" lon="153.1202118"><ele>46.900001525878906</ele><time>2014-01-18T21:56:05Z</time><course>335.3</course><speed>27.5</speed><src>gps</src><sat>24</sat><hdop>0.8</hdop></trkpt>
21<trkpt lat="-27.48398749" lon="153.12008599"><ele>46.20000076293945</ele><time>2014-01-18T21:56:06Z</time><course>334.1</course><speed>27.25</speed><src>gps</src><sat>24</sat><hdop>0.6</hdop></trkpt>
22<trkpt lat="-27.48354956" lon="153.11983869"><ele>44.900001525878906</ele><time>2014-01-18T21:56:08Z</time><course>332.7</course><speed>27.25</speed><src>gps</src><sat>24</sat><hdop>0.6</hdop></trkpt>
23<trkpt lat="-27.48311949" lon="153.11957997"><ele>43.900001525878906</ele><time>2014-01-18T21:56:10Z</time><course>331.8</course><speed>27.25</speed><src>gps</src><sat>24</sat><hdop>0.8</hdop></trkpt>
24<trkpt lat="-27.48290512" lon="153.11944144"><ele>43.400001525878906</ele><time>2014-01-18T21:56:11Z</time><course>330.6</course><speed>27.0</speed><src>gps</src><sat>23</sat><hdop>0.6</hdop></trkpt>
25<trkpt lat="-27.48248169" lon="153.11916742"><ele>42.70000076293945</ele><time>2014-01-18T21:56:13Z</time><course>329.6</course><speed>27.0</speed><src>gps</src><sat>23</sat><hdop>0.6</hdop></trkpt>
26<trkpt lat="-27.48206298" lon="153.11888196"><ele>41.79999923706055</ele><time>2014-01-18T21:56:15Z</time><course>328.9</course><speed>27.0</speed><src>gps</src><sat>23</sat><hdop>0.6</hdop></trkpt>
27<trkpt lat="-27.48185614" lon="153.11873977"><ele>41.400001525878906</ele><time>2014-01-18T21:56:16Z</time><course>328.8</course><speed>27.0</speed><src>gps</src><sat>22</sat><hdop>0.6</hdop></trkpt>
28<trkpt lat="-27.48164907" lon="153.11860277"><ele>41.400001525878906</ele><time>2014-01-18T21:56:17Z</time><course>328.9</course><speed>27.0</speed><src>gps</src><sat>22</sat><hdop>0.6</hdop></trkpt>
29<trkpt lat="-27.48123326" lon="153.11831836"><ele>41.5</ele><time>2014-01-18T21:56:19Z</time><course>328.9</course><speed>27.0</speed><src>gps</src><sat>22</sat><hdop>0.6</hdop></trkpt>
30<trkpt lat="-27.48102152" lon="153.11817772"><ele>41.70000076293945</ele><time>2014-01-18T21:56:20Z</time><course>328.9</course><speed>26.75</speed><src>gps</src><sat>23</sat><hdop>0.6</hdop></trkpt>
31<trkpt lat="-27.48060074" lon="153.11789928"><ele>41.5</ele><time>2014-01-18T21:56:22Z</time><course>329.5</course><speed>27.0</speed><src>gps</src><sat>23</sat><hdop>0.6</hdop></trkpt>
32<trkpt lat="-27.48016769" lon="153.11763794"><ele>41.29999923706055</ele><time>2014-01-18T21:56:24Z</time><course>332.5</course><speed>27.25</speed><src>gps</src><sat>22</sat><hdop>0.6</hdop></trkpt>
33<trkpt lat="-27.47972632" lon="153.11739789"><ele>41.400001525878906</ele><time>2014-01-18T21:56:26Z</time><course>334.3</course><speed>27.5</speed><src>gps</src><sat>24</sat><hdop>0.8</hdop></trkpt>
34<trkpt lat="-27.47950047" lon="153.11730155"><ele>41.900001525878906</ele><time>2014-01-18T21:56:27Z</time><course>337.4</course><speed>27.25</speed><src>gps</src><sat>23</sat><hdop>0.6</hdop></trkpt>
35<trkpt lat="-27.47903793" lon="153.11711538"><ele>42.0</ele><time>2014-01-18T21:56:29Z</time><course>341.1</course><speed>27.25</speed><src>gps</src><sat>22</sat><hdop>0.6</hdop></trkpt>
36<trkpt lat="-27.47856871" lon="153.11695915"><ele>41.900001525878906</ele><time>2014-01-18T21:56:31Z</time><course>344.1</course><speed>27.0</speed><src>gps</src><sat>23</sat><hdop>0.6</hdop></trkpt>
37<trkpt lat="-27.47809602" lon="153.11682201"><ele>42.29999923706055</ele><time>2014-01-18T21:56:33Z</time><course>345.8</course><speed>27.0</speed><src>gps</src><sat>23</sat><hdop>0.8</hdop></trkpt>
38<trkpt lat="-27.47761359" lon="153.11672109"><ele>42.5</ele><time>2014-01-18T21:56:35Z</time><course>348.6</course><speed>27.0</speed><src>gps</src><sat>23</sat><hdop>1.0</hdop></trkpt>
39<trkpt lat="-27.47736696" lon="153.11668913"><ele>42.79999923706055</ele><time>2014-01-18T21:56:36Z</time><course>351.7</course><speed>27.25</speed><src>gps</src><sat>23</sat><hdop>0.6</hdop></trkpt>
40<trkpt lat="-27.47687571" lon="153.11663783"><ele>43.099998474121094</ele><time>2014-01-18T21:56:38Z</time><course>355.1</course><speed>27.25</speed><src>gps</src><sat>23</sat><hdop>0.6</hdop></trkpt>
41<trkpt lat="-27.47638584" lon="153.11662141"><ele>44.70000076293945</ele><time>2014-01-18T21:56:40Z</time><course>358.3</course><speed>27.0</speed><src>gps</src><sat>24</sat><hdop>0.6</hdop></trkpt>
42<trkpt lat="-27.47590171" lon="153.11662319"><ele>46.400001525878906</ele><time>2014-01-18T21:56:42Z</time><course>0.0</course><speed>26.75</speed><src>gps</src><sat>23</sat><hdop>1.0</hdop></trkpt>
43<trkpt lat="-27.47566286" lon="153.11664839"><ele>47.29999923706055</ele><time>2014-01-18T21:56:43Z</time><course>3.5</course><speed>26.5</speed><src>gps</src><sat>23</sat><hdop>0.6</hdop></trkpt>
44<trkpt lat="-27.4751931" lon="153.11667935"><ele>48.70000076293945</ele><time>2014-01-18T21:56:45Z</time><course>2.4</course><speed>26.25</speed><src>gps</src><sat>23</sat><hdop>0.8</hdop></trkpt>
45<trkpt lat="-27.47496644" lon="153.11672017"><ele>48.599998474121094</ele><time>2014-01-18T21:56:46Z</time><course>6.1</course><speed>26.0</speed><src>gps</src><sat>23</sat><hdop>0.6</hdop></trkpt>
46<trkpt lat="-27.474731" lon="153.1167544"><ele>48.79999923706055</ele><time>2014-01-18T21:56:47Z</time><course>6.1</course><speed>26.0</speed><src>gps</src><sat>23</sat><hdop>0.6</hdop></trkpt>
47<trkpt lat="-27.47426787" lon="153.11679246"><ele>48.70000076293945</ele><time>2014-01-18T21:56:49Z</time><course>3.9</course><speed>26.0</speed><src>gps</src><sat>22</sat><hdop>0.8</hdop></trkpt>
48<trkpt lat="-27.47403209" lon="153.11681879"><ele>49.400001525878906</ele><time>2014-01-18T21:56:50Z</time><course>4.6</course><speed>26.0</speed><src>gps</src><sat>22</sat><hdop>0.6</hdop></trkpt>
49<trkpt lat="-27.47379813" lon="153.1168412"><ele>49.29999923706055</ele><time>2014-01-18T21:56:51Z</time><course>4.6</course><speed>26.0</speed><src>gps</src><sat>22</sat><hdop>0.6</hdop></trkpt>
50<trkpt lat="-27.47332452" lon="153.11688627"><ele>49.0</ele><time>2014-01-18T21:56:53Z</time><course>4.8</course><speed>26.25</speed><src>gps</src><sat>22</sat><hdop>1.0</hdop></trkpt>
51<trkpt lat="-27.47285101" lon="153.11692377"><ele>48.29999923706055</ele><time>2014-01-18T21:56:55Z</time><course>4.4</course><speed>26.25</speed><src>gps</src><sat>23</sat><hdop>1.0</hdop></trkpt>
52<trkpt lat="-27.47260884" lon="153.11693799"><ele>47.29999923706055</ele><time>2014-01-18T21:56:56Z</time><course>4.0</course><speed>26.5</speed><src>gps</src><sat>23</sat><hdop>0.6</hdop></trkpt>
53<trkpt lat="-27.4721279" lon="153.11697583"><ele>45.900001525878906</ele><time>2014-01-18T21:56:58Z</time><course>3.9</course><speed>26.5</speed><src>gps</src><sat>23</sat><hdop>0.6</hdop></trkpt>
54<trkpt lat="-27.47164455" lon="153.11700669"><ele>44.400001525878906</ele><time>2014-01-18T21:57:00Z</time><course>3.8</course><speed>27.0</speed><src>gps</src><sat>23</sat><hdop>0.6</hdop></trkpt>
55<trkpt lat="-27.47115203" lon="153.11703847"><ele>43.099998474121094</ele><time>2014-01-18T21:57:02Z</time><course>3.0</course><speed>27.25</speed><src>gps</src><sat>23</sat><hdop>0.6</hdop></trkpt>
56<trkpt lat="-27.47065574" lon="153.11706222"><ele>41.599998474121094</ele><time>2014-01-18T21:57:04Z</time><course>1.9</course><speed>27.25</speed><src>gps</src><sat>23</sat><hdop>0.6</hdop></trkpt>
57<trkpt lat="-27.47016759" lon="153.11704951"><ele>41.400001525878906</ele><time>2014-01-18T21:57:06Z</time><course>357.7</course><speed>27.0</speed><src>gps</src><sat>24</sat><hdop>0.6</hdop></trkpt>
58<trkpt lat="-27.46968603" lon="153.11699893"><ele>41.099998474121094</ele><time>2014-01-18T21:57:08Z</time><course>353.6</course><speed>27.0</speed><src>gps</src><sat>23</sat><hdop>0.6</hdop></trkpt>
59<trkpt lat="-27.46921168" lon="153.11689991"><ele>40.900001525878906</ele><time>2014-01-18T21:57:10Z</time><course>348.3</course><speed>26.75</speed><src>gps</src><sat>22</sat><hdop>0.6</hdop></trkpt>
60<trkpt lat="-27.46897611" lon="153.11684504"><ele>40.900001525878906</ele><time>2014-01-18T21:57:11Z</time><course>348.3</course><speed>26.75</speed><src>gps</src><sat>22</sat><hdop>1.0</hdop></trkpt>
61<trkpt lat="-27.46875363" lon="153.11675454"><ele>41.29999923706055</ele><time>2014-01-18T21:57:12Z</time><course>343.6</course><speed>26.25</speed><src>gps</src><sat>22</sat><hdop>0.6</hdop></trkpt>
62<trkpt lat="-27.46831952" lon="153.11657098"><ele>41.099998474121094</ele><time>2014-01-18T21:57:14Z</time><course>339.0</course><speed>25.75</speed><src>gps</src><sat>23</sat><hdop>0.6</hdop></trkpt>
63<trkpt lat="-27.4678976" lon="153.11635364"><ele>41.400001525878906</ele><time>2014-01-18T21:57:16Z</time><course>334.7</course><speed>25.75</speed><src>gps</src><sat>23</sat><hdop>0.6</hdop></trkpt>
64<trkpt lat="-27.46769346" lon="153.11623512"><ele>41.599998474121094</ele><time>2014-01-18T21:57:17Z</time><course>332.2</course><speed>26.0</speed><src>gps</src><sat>23</sat><hdop>0.6</hdop></trkpt>
65<trkpt lat="-27.46749054" lon="153.11610116"><ele>41.599998474121094</ele><time>2014-01-18T21:57:18Z</time><course>329.7</course><speed>26.0</speed><src>gps</src><sat>23</sat><hdop>0.6</hdop></trkpt>
66<trkpt lat="-27.46729394" lon="153.11595763"><ele>41.29999923706055</ele><time>2014-01-18T21:57:19Z</time><course>327.4</course><speed>26.0</speed><src>gps</src><sat>22</sat><hdop>0.6</hdop></trkpt>
67<trkpt lat="-27.46690994" lon="153.11564571"><ele>41.29999923706055</ele><time>2014-01-18T21:57:21Z</time><course>323.1</course><speed>26.25</speed><src>gps</src><sat>21</sat><hdop>0.6</hdop></trkpt>
68<trkpt lat="-27.46654769" lon="153.11529616"><ele>41.20000076293945</ele><time>2014-01-18T21:57:23Z</time><course>318.8</course><speed>26.25</speed><src>gps</src><sat>20</sat><hdop>0.6</hdop></trkpt>
69<trkpt lat="-27.46620588" lon="153.11493158"><ele>41.0</ele><time>2014-01-18T21:57:25Z</time><course>316.7</course><speed>26.25</speed><src>gps</src><sat>21</sat><hdop>0.6</hdop></trkpt>
70<trkpt lat="-27.46603304" lon="153.11474755"><ele>41.20000076293945</ele><time>2014-01-18T21:57:26Z</time><course>316.6</course><speed>26.25</speed><src>gps</src><sat>22</sat><hdop>0.6</hdop></trkpt>
71<trkpt lat="-27.46586242" lon="153.11456556"><ele>40.900001525878906</ele><time>2014-01-18T21:57:27Z</time><course>316.8</course><speed>26.25</speed><src>gps</src><sat>22</sat><hdop>0.6</hdop></trkpt>
72<trkpt lat="-27.46551306" lon="153.11420727"><ele>40.900001525878906</ele><time>2014-01-18T21:57:29Z</time><course>317.4</course><speed>26.25</speed><src>gps</src><sat>21</sat><hdop>0.6</hdop></trkpt>
73<trkpt lat="-27.4653368" lon="153.11402418"><ele>40.79999923706055</ele><time>2014-01-18T21:57:30Z</time><course>317.5</course><speed>26.25</speed><src>gps</src><sat>22</sat><hdop>0.6</hdop></trkpt>
74<trkpt lat="-27.46516332" lon="153.11384122"><ele>41.20000076293945</ele><time>2014-01-18T21:57:31Z</time><course>317.3</course><speed>26.25</speed><src>gps</src><sat>23</sat><hdop>0.6</hdop></trkpt>
75<trkpt lat="-27.4649866" lon="153.11365917"><ele>41.70000076293945</ele><time>2014-01-18T21:57:32Z</time><course>317.4</course><speed>26.5</speed><src>gps</src><sat>23</sat><hdop>0.6</hdop></trkpt>
76<trkpt lat="-27.46463576" lon="153.11329658"><ele>43.20000076293945</ele><time>2014-01-18T21:57:34Z</time><course>317.3</course><speed>26.75</speed><src>gps</src><sat>24</sat><hdop>0.6</hdop></trkpt>
77<trkpt lat="-27.4642768" lon="153.11293707"><ele>44.900001525878906</ele><time>2014-01-18T21:57:36Z</time><course>318.6</course><speed>26.5</speed><src>gps</src><sat>23</sat><hdop>0.6</hdop></trkpt>
78<trkpt lat="-27.46391592" lon="153.11258721"><ele>46.70000076293945</ele><time>2014-01-18T21:57:38Z</time><course>319.6</course><speed>26.25</speed><src>gps</src><sat>22</sat><hdop>0.6</hdop></trkpt>
79<trkpt lat="-27.46355628" lon="153.11225508"><ele>48.099998474121094</ele><time>2014-01-18T21:57:40Z</time><course>320.6</course><speed>26.0</speed><src>gps</src><sat>22</sat><hdop>0.6</hdop></trkpt>
80<trkpt lat="-27.46337428" lon="153.11208764"><ele>48.79999923706055</ele><time>2014-01-18T21:57:41Z</time><course>320.6</course><speed>26.0</speed><src>gps</src><sat>22</sat><hdop>0.8</hdop></trkpt>
81<trkpt lat="-27.46319047" lon="153.11192958"><ele>48.79999923706055</ele><time>2014-01-18T21:57:42Z</time><course>321.6</course><speed>26.0</speed><src>gps</src><sat>22</sat><hdop>0.6</hdop></trkpt>
82<trkpt lat="-27.46282066" lon="153.11161106"><ele>50.70000076293945</ele><time>2014-01-18T21:57:44Z</time><course>322.7</course><speed>26.0</speed><src>gps</src><sat>21</sat><hdop>0.6</hdop></trkpt>
83<trkpt lat="-27.46244967" lon="153.11129975"><ele>52.5</ele><time>2014-01-18T21:57:46Z</time><course>322.8</course><speed>25.5</speed><src>gps</src><sat>21</sat><hdop>0.8</hdop></trkpt>
84<trkpt lat="-27.46206767" lon="153.11100629"><ele>53.099998474121094</ele><time>2014-01-18T21:57:48Z</time><course>324.6</course><speed>25.75</speed><src>gps</src><sat>22</sat><hdop>0.6</hdop></trkpt>
85<trkpt lat="-27.46168153" lon="153.11070481"><ele>54.20000076293945</ele><time>2014-01-18T21:57:50Z</time><course>325.6</course><speed>26.0</speed><src>gps</src><sat>21</sat><hdop>0.6</hdop></trkpt>
86<trkpt lat="-27.46148733" lon="153.11055875"><ele>54.400001525878906</ele><time>2014-01-18T21:57:51Z</time><course>326.0</course><speed>25.75</speed><src>gps</src><sat>21</sat><hdop>0.6</hdop></trkpt>
87<trkpt lat="-27.46129324" lon="153.11041109"><ele>54.5</ele><time>2014-01-18T21:57:52Z</time><course>326.5</course><speed>25.75</speed><src>gps</src><sat>21</sat><hdop>0.6</hdop></trkpt>
88<trkpt lat="-27.4608981" lon="153.11012512"><ele>54.5</ele><time>2014-01-18T21:57:54Z</time><course>327.2</course><speed>26.0</speed><src>gps</src><sat>22</sat><hdop>0.6</hdop></trkpt>
89<trkpt lat="-27.46050021" lon="153.10984302"><ele>53.900001525878906</ele><time>2014-01-18T21:57:56Z</time><course>328.2</course><speed>25.75</speed><src>gps</src><sat>14</sat><hdop>0.8</hdop></trkpt>
90<trkpt lat="-27.46029919" lon="153.10971254"><ele>53.900001525878906</ele><time>2014-01-18T21:57:57Z</time><course>329.3</course><speed>26.25</speed><src>gps</src><sat>13</sat><hdop>0.6</hdop></trkpt>
91<trkpt lat="-27.4600975" lon="153.10957587"><ele>53.900001525878906</ele><time>2014-01-18T21:57:58Z</time><course>329.5</course><speed>26.25</speed><src>gps</src><sat>15</sat><hdop>0.6</hdop></trkpt>
92<trkpt lat="-27.45967631" lon="153.10930637"><ele>54.5</ele><time>2014-01-18T21:58:00Z</time><course>330.2</course><speed>26.0</speed><src>gps</src><sat>15</sat><hdop>0.6</hdop></trkpt>
93<trkpt lat="-27.45947422" lon="153.10917293"><ele>54.29999923706055</ele><time>2014-01-18T21:58:01Z</time><course>330.3</course><speed>26.25</speed><src>gps</src><sat>15</sat><hdop>0.6</hdop></trkpt>
94<trkpt lat="-27.4592715" lon="153.10903957"><ele>53.29999923706055</ele><time>2014-01-18T21:58:02Z</time><course>330.5</course><speed>26.25</speed><src>gps</src><sat>14</sat><hdop>0.6</hdop></trkpt>
95<trkpt lat="-27.45885647" lon="153.10878394"><ele>52.20000076293945</ele><time>2014-01-18T21:58:04Z</time><course>330.2</course><speed>26.5</speed><src>gps</src><sat>14</sat><hdop>0.8</hdop></trkpt>
96<trkpt lat="-27.45843799" lon="153.10851746"><ele>51.599998474121094</ele><time>2014-01-18T21:58:06Z</time><course>331.2</course><speed>26.75</speed><src>gps</src><sat>23</sat><hdop>0.8</hdop></trkpt>
97<trkpt lat="-27.45821069" lon="153.10838062"><ele>52.5</ele><time>2014-01-18T21:58:07Z</time><course>330.2</course><speed>27.25</speed><src>gps</src><sat>13</sat><hdop>0.6</hdop></trkpt>
98<trkpt lat="-27.45799121" lon="153.10823636"><ele>51.599998474121094</ele><time>2014-01-18T21:58:08Z</time><course>329.7</course><speed>27.0</speed><src>gps</src><sat>14</sat><hdop>0.6</hdop></trkpt>
99<trkpt lat="-27.45778193" lon="153.10810387"><ele>51.900001525878906</ele><time>2014-01-18T21:58:09Z</time><course>329.6</course><speed>27.0</speed><src>gps</src><sat>13</sat><hdop>0.6</hdop></trkpt>
100<trkpt lat="-27.45736133" lon="153.10783045"><ele>51.79999923706055</ele><time>2014-01-18T21:58:11Z</time><course>330.0</course><speed>26.75</speed><src>gps</src><sat>12</sat><hdop>0.6</hdop></trkpt>
101<trkpt lat="-27.45715192" lon="153.10769353"><ele>51.900001525878906</ele><time>2014-01-18T21:58:12Z</time><course>329.6</course><speed>26.5</speed><src>gps</src><sat>11</sat><hdop>0.6</hdop></trkpt>
102<trkpt lat="-27.45673698" lon="153.10741389"><ele>52.70000076293945</ele><time>2014-01-18T21:58:14Z</time><course>328.9</course><speed>26.75</speed><src>gps</src><sat>14</sat><hdop>0.6</hdop></trkpt>
103<trkpt lat="-27.45653205" lon="153.10726685"><ele>52.400001525878906</ele><time>2014-01-18T21:58:15Z</time><course>328.1</course><speed>26.75</speed><src>gps</src><sat>15</sat><hdop>0.6</hdop></trkpt>
104<trkpt lat="-27.45632336" lon="153.10712635"><ele>53.599998474121094</ele><time>2014-01-18T21:58:16Z</time><course>327.5</course><speed>26.75</speed><src>gps</src><sat>14</sat><hdop>0.6</hdop></trkpt>
105<trkpt lat="-27.45591793" lon="153.10683378"><ele>55.400001525878906</ele><time>2014-01-18T21:58:18Z</time><course>327.0</course><speed>26.75</speed><src>gps</src><sat>13</sat><hdop>0.6</hdop></trkpt>
106<trkpt lat="-27.45532378" lon="153.10640528"><ele>56.599998474121094</ele><time>2014-01-18T21:58:21Z</time><course>327.7</course><speed>26.5</speed><src>gps</src><sat>21</sat><hdop>0.8</hdop></trkpt>
107<trkpt lat="-27.4551228" lon="153.1062702"><ele>57.29999923706055</ele><time>2014-01-18T21:58:22Z</time><course>328.9</course><speed>26.5</speed><src>gps</src><sat>24</sat><hdop>0.6</hdop></trkpt>
108<trkpt lat="-27.45471219" lon="153.10600104"><ele>59.0</ele><time>2014-01-18T21:58:24Z</time><course>331.0</course><speed>26.75</speed><src>gps</src><sat>13</sat><hdop>0.6</hdop></trkpt>
109<trkpt lat="-27.45428976" lon="153.10574415"><ele>58.79999923706055</ele><time>2014-01-18T21:58:26Z</time><course>333.1</course><speed>26.75</speed><src>gps</src><sat>15</sat><hdop>0.6</hdop></trkpt>
110<trkpt lat="-27.45384956" lon="153.10550597"><ele>59.29999923706055</ele><time>2014-01-18T21:58:28Z</time><course>334.9</course><speed>26.75</speed><src>gps</src><sat>14</sat><hdop>0.6</hdop></trkpt>
111<trkpt lat="-27.4536212" lon="153.10540488"><ele>59.900001525878906</ele><time>2014-01-18T21:58:29Z</time><course>336.4</course><speed>27.0</speed><src>gps</src><sat>14</sat><hdop>0.6</hdop></trkpt>
112<trkpt lat="-27.45316978" lon="153.10518661"><ele>60.599998474121094</ele><time>2014-01-18T21:58:31Z</time><course>337.5</course><speed>27.25</speed><src>gps</src><sat>15</sat><hdop>0.6</hdop></trkpt>
113<trkpt lat="-27.45294295" lon="153.10508399"><ele>60.900001525878906</ele><time>2014-01-18T21:58:32Z</time><course>338.1</course><speed>27.0</speed><src>gps</src><sat>24</sat><hdop>0.8</hdop></trkpt>
114<trkpt lat="-27.45271779" lon="153.10498747"><ele>61.599998474121094</ele><time>2014-01-18T21:58:33Z</time><course>338.5</course><speed>27.0</speed><src>gps</src><sat>24</sat><hdop>0.6</hdop></trkpt>
115<trkpt lat="-27.45227751" lon="153.10478062"><ele>62.900001525878906</ele><time>2014-01-18T21:58:35Z</time><course>337.4</course><speed>26.75</speed><src>gps</src><sat>24</sat><hdop>0.6</hdop></trkpt>
116<trkpt lat="-27.45206052" lon="153.10467256"><ele>63.70000076293945</ele><time>2014-01-18T21:58:36Z</time><course>337.0</course><speed>26.5</speed><src>gps</src><sat>25</sat><hdop>0.6</hdop></trkpt>
117<trkpt lat="-27.45163294" lon="153.10445387"><ele>65.4000015258789</ele><time>2014-01-18T21:58:38Z</time><course>335.9</course><speed>26.0</speed><src>gps</src><sat>24</sat><hdop>0.6</hdop></trkpt>
118<trkpt lat="-27.45142355" lon="153.1043474"><ele>66.5</ele><time>2014-01-18T21:58:39Z</time><course>335.5</course><speed>25.5</speed><src>gps</src><sat>25</sat><hdop>0.6</hdop></trkpt>
119<trkpt lat="-27.4510189" lon="153.10412991"><ele>69.0</ele><time>2014-01-18T21:58:41Z</time><course>334.3</course><speed>25.0</speed><src>gps</src><sat>25</sat><hdop>0.6</hdop></trkpt>
120<trkpt lat="-27.45062799" lon="153.10391833"><ele>71.0</ele><time>2014-01-18T21:58:43Z</time><course>333.7</course><speed>24.25</speed><src>gps</src><sat>25</sat><hdop>0.6</hdop></trkpt>
121<trkpt lat="-27.4502439" lon="153.10370532"><ele>73.69999694824219</ele><time>2014-01-18T21:58:45Z</time><course>333.6</course><speed>23.5</speed><src>gps</src><sat>24</sat><hdop>0.6</hdop></trkpt>
122<trkpt lat="-27.44987154" lon="153.10350007"><ele>75.69999694824219</ele><time>2014-01-18T21:58:47Z</time><course>333.6</course><speed>23.0</speed><src>gps</src><sat>24</sat><hdop>0.6</hdop></trkpt>
123<trkpt lat="-27.44968493" lon="153.10339552"><ele>76.9000015258789</ele><time>2014-01-18T21:58:48Z</time><course>333.5</course><speed>22.75</speed><src>gps</src><sat>24</sat><hdop>0.6</hdop></trkpt>
124<trkpt lat="-27.44932089" lon="153.10318864"><ele>79.4000015258789</ele><time>2014-01-18T21:58:50Z</time><course>333.2</course><speed>22.75</speed><src>gps</src><sat>24</sat><hdop>0.6</hdop></trkpt>
125<trkpt lat="-27.44894881" lon="153.10298194"><ele>82.30000305175781</ele><time>2014-01-18T21:58:52Z</time><course>332.5</course><speed>23.0</speed><src>gps</src><sat>24</sat><hdop>0.6</hdop></trkpt>
126<trkpt lat="-27.44876956" lon="153.10287224"><ele>83.19999694824219</ele><time>2014-01-18T21:58:53Z</time><course>331.7</course><speed>23.0</speed><src>gps</src><sat>24</sat><hdop>0.6</hdop></trkpt>
127<trkpt lat="-27.44840689" lon="153.10265142"><ele>85.69999694824219</ele><time>2014-01-18T21:58:55Z</time><course>331.3</course><speed>23.0</speed><src>gps</src><sat>24</sat><hdop>0.8</hdop></trkpt>
128<trkpt lat="-27.44822327" lon="153.10254637"><ele>87.19999694824219</ele><time>2014-01-18T21:58:56Z</time><course>331.9</course><speed>23.0</speed><src>gps</src><sat>24</sat><hdop>0.8</hdop></trkpt>
129<trkpt lat="-27.44785116" lon="153.10233728"><ele>90.5</ele><time>2014-01-18T21:58:58Z</time><course>333.4</course><speed>23.0</speed><src>gps</src><sat>24</sat><hdop>0.6</hdop></trkpt>
130<trkpt lat="-27.44748449" lon="153.10212675"><ele>93.0</ele><time>2014-01-18T21:59:00Z</time><course>333.5</course><speed>23.0</speed><src>gps</src><sat>24</sat><hdop>0.8</hdop></trkpt>
131<trkpt lat="-27.4473042" lon="153.10202539"><ele>94.4000015258789</ele><time>2014-01-18T21:59:01Z</time><course>333.6</course><speed>22.75</speed><src>gps</src><sat>24</sat><hdop>0.6</hdop></trkpt>
132<trkpt lat="-27.44693243" lon="153.10181698"><ele>96.80000305175781</ele><time>2014-01-18T21:59:03Z</time><course>333.5</course><speed>22.75</speed><src>gps</src><sat>24</sat><hdop>1.0</hdop></trkpt>
133<trkpt lat="-27.4467475" lon="153.10171313"><ele>98.5</ele><time>2014-01-18T21:59:04Z</time><course>333.4</course><speed>22.75</speed><src>gps</src><sat>24</sat><hdop>0.8</hdop></trkpt>
134<trkpt lat="-27.44637918" lon="153.10150308"><ele>100.80000305175781</ele><time>2014-01-18T21:59:06Z</time><course>333.6</course><speed>22.75</speed><src>gps</src><sat>24</sat><hdop>0.6</hdop></trkpt>
135<trkpt lat="-27.4460111" lon="153.1013052"><ele>102.4000015258789</ele><time>2014-01-18T21:59:08Z</time><course>333.7</course><speed>23.0</speed><src>gps</src><sat>24</sat><hdop>0.6</hdop></trkpt>
136<trkpt lat="-27.44563759" lon="153.10108976"><ele>103.19999694824219</ele><time>2014-01-18T21:59:10Z</time><course>333.3</course><speed>23.5</speed><src>gps</src><sat>24</sat><hdop>0.6</hdop></trkpt>
137<trkpt lat="-27.44525337" lon="153.10086966"><ele>103.9000015258789</ele><time>2014-01-18T21:59:12Z</time><course>333.5</course><speed>24.0</speed><src>gps</src><sat>24</sat><hdop>0.6</hdop></trkpt>
138<trkpt lat="-27.44486158" lon="153.10065025"><ele>103.30000305175781</ele><time>2014-01-18T21:59:14Z</time><course>333.6</course><speed>24.25</speed><src>gps</src><sat>24</sat><hdop>0.6</hdop></trkpt>
139<trkpt lat="-27.44446367" lon="153.1004266"><ele>101.9000015258789</ele><time>2014-01-18T21:59:16Z</time><course>333.5</course><speed>24.5</speed><src>gps</src><sat>24</sat><hdop>0.8</hdop></trkpt>
140<trkpt lat="-27.44425651" lon="153.10030986"><ele>100.0999984741211</ele><time>2014-01-18T21:59:17Z</time><course>333.3</course><speed>25.25</speed><src>gps</src><sat>25</sat><hdop>0.6</hdop></trkpt>
141<trkpt lat="-27.44384661" lon="153.10008102"><ele>97.0999984741211</ele><time>2014-01-18T21:59:19Z</time><course>333.4</course><speed>25.5</speed><src>gps</src><sat>25</sat><hdop>0.6</hdop></trkpt>
142<trkpt lat="-27.44343576" lon="153.09984865"><ele>94.4000015258789</ele><time>2014-01-18T21:59:21Z</time><course>333.4</course><speed>25.5</speed><src>gps</src><sat>25</sat><hdop>0.8</hdop></trkpt>
143<trkpt lat="-27.44323005" lon="153.0997352"><ele>94.19999694824219</ele><time>2014-01-18T21:59:22Z</time><course>333.4</course><speed>25.75</speed><src>gps</src><sat>25</sat><hdop>0.6</hdop></trkpt>
144<trkpt lat="-27.44280198" lon="153.09949796"><ele>90.9000015258789</ele><time>2014-01-18T21:59:24Z</time><course>333.5</course><speed>25.5</speed><src>gps</src><sat>25</sat><hdop>0.6</hdop></trkpt>
145<trkpt lat="-27.44259526" lon="153.09938265"><ele>89.5</ele><time>2014-01-18T21:59:25Z</time><course>333.5</course><speed>25.5</speed><src>gps</src><sat>25</sat><hdop>1.0</hdop></trkpt>
146<trkpt lat="-27.44238985" lon="153.09927213"><ele>88.19999694824219</ele><time>2014-01-18T21:59:26Z</time><course>333.5</course><speed>25.5</speed><src>gps</src><sat>25</sat><hdop>0.6</hdop></trkpt>
147<trkpt lat="-27.441974" lon="153.09903909"><ele>85.69999694824219</ele><time>2014-01-18T21:59:28Z</time><course>333.3</course><speed>25.25</speed><src>gps</src><sat>25</sat><hdop>0.6</hdop></trkpt>
148<trkpt lat="-27.44156799" lon="153.09881085"><ele>83.4000015258789</ele><time>2014-01-18T21:59:30Z</time><course>333.5</course><speed>25.25</speed><src>gps</src><sat>25</sat><hdop>0.6</hdop></trkpt>
149<trkpt lat="-27.44116433" lon="153.09858372"><ele>80.9000015258789</ele><time>2014-01-18T21:59:32Z</time><course>333.5</course><speed>25.0</speed><src>gps</src><sat>24</sat><hdop>0.8</hdop></trkpt>
150<trkpt lat="-27.44096078" lon="153.09847538"><ele>79.69999694824219</ele><time>2014-01-18T21:59:33Z</time><course>333.6</course><speed>25.0</speed><src>gps</src><sat>24</sat><hdop>0.6</hdop></trkpt>
151<trkpt lat="-27.44056311" lon="153.09825247"><ele>77.0</ele><time>2014-01-18T21:59:35Z</time><course>333.6</course><speed>24.75</speed><src>gps</src><sat>24</sat><hdop>0.8</hdop></trkpt>
152<trkpt lat="-27.44016733" lon="153.09802856"><ele>74.4000015258789</ele><time>2014-01-18T21:59:37Z</time><course>333.5</course><speed>24.75</speed><src>gps</src><sat>24</sat><hdop>0.8</hdop></trkpt>
153<trkpt lat="-27.43996823" lon="153.09791975"><ele>73.4000015258789</ele><time>2014-01-18T21:59:38Z</time><course>333.5</course><speed>24.75</speed><src>gps</src><sat>23</sat><hdop>0.6</hdop></trkpt>
154<trkpt lat="-27.43957361" lon="153.09769361"><ele>70.80000305175781</ele><time>2014-01-18T21:59:40Z</time><course>333.4</course><speed>24.75</speed><src>gps</src><sat>23</sat><hdop>0.6</hdop></trkpt>
155<trkpt lat="-27.439174649999998" lon="153.09746516"><ele>68.0999984741211</ele><time>2014-01-18T21:59:42Z</time><course>333.5</course><speed>24.5</speed><src>gps</src><sat>23</sat><hdop>0.6</hdop></trkpt>
156<trkpt lat="-27.43877738" lon="153.09724721"><ele>64.80000305175781</ele><time>2014-01-18T21:59:44Z</time><course>333.6</course><speed>24.5</speed><src>gps</src><sat>24</sat><hdop>0.6</hdop></trkpt>
157<trkpt lat="-27.43858214" lon="153.09715751"><ele>63.900001525878906</ele><time>2014-01-18T21:59:45Z</time><course>336.9</course><speed>23.75</speed><src>gps</src><sat>24</sat><hdop>0.8</hdop></trkpt>
158<trkpt lat="-27.43818064" lon="153.09694228"><ele>62.099998474121094</ele><time>2014-01-18T21:59:47Z</time><course>333.4</course><speed>24.5</speed><src>gps</src><sat>24</sat><hdop>0.6</hdop></trkpt>
159<trkpt lat="-27.4379849" lon="153.09682583"><ele>60.79999923706055</ele><time>2014-01-18T21:59:48Z</time><course>333.2</course><speed>24.5</speed><src>gps</src><sat>23</sat><hdop>0.6</hdop></trkpt>
160<trkpt lat="-27.43759532" lon="153.096597"><ele>58.29999923706055</ele><time>2014-01-18T21:59:50Z</time><course>333.2</course><speed>24.25</speed><src>gps</src><sat>23</sat><hdop>0.6</hdop></trkpt>
161<trkpt lat="-27.43739803" lon="153.09648293"><ele>57.099998474121094</ele><time>2014-01-18T21:59:51Z</time><course>333.7</course><speed>24.75</speed><src>gps</src><sat>23</sat><hdop>0.8</hdop></trkpt>
162<trkpt lat="-27.43720356" lon="153.09634659"><ele>56.0</ele><time>2014-01-18T21:59:52Z</time><course>329.7</course><speed>25.25</speed><src>gps</src><sat>23</sat><hdop>0.8</hdop></trkpt>
163<trkpt lat="-27.4369989" lon="153.09622201"><ele>55.70000076293945</ele><time>2014-01-18T21:59:53Z</time><course>329.9</course><speed>26.25</speed><src>gps</src><sat>23</sat><hdop>1.0</hdop></trkpt>
164<trkpt lat="-27.43660851" lon="153.09601492"><ele>53.5</ele><time>2014-01-18T21:59:55Z</time><course>333.3</course><speed>24.5</speed><src>gps</src><sat>23</sat><hdop>0.6</hdop></trkpt>
165<trkpt lat="-27.43620653" lon="153.09579092"><ele>52.5</ele><time>2014-01-18T21:59:57Z</time><course>333.7</course><speed>24.75</speed><src>gps</src><sat>24</sat><hdop>0.6</hdop></trkpt>
166<trkpt lat="-27.43600588" lon="153.0956798"><ele>52.099998474121094</ele><time>2014-01-18T21:59:58Z</time><course>333.7</course><speed>24.75</speed><src>gps</src><sat>24</sat><hdop>0.8</hdop></trkpt>
167<trkpt lat="-27.43561524" lon="153.09546354"><ele>53.400001525878906</ele><time>2014-01-18T22:00:00Z</time><course>333.4</course><speed>24.75</speed><src>gps</src><sat>24</sat><hdop>0.6</hdop></trkpt>
168<trkpt lat="-27.43523137" lon="153.09525742"><ele>54.400001525878906</ele><time>2014-01-18T22:00:02Z</time><course>334.6</course><speed>23.5</speed><src>gps</src><sat>24</sat><hdop>0.8</hdop></trkpt>
169<trkpt lat="-27.43502055" lon="153.09514002"><ele>54.400001525878906</ele><time>2014-01-18T22:00:03Z</time><course>334.4</course><speed>25.0</speed><src>gps</src><sat>24</sat><hdop>0.6</hdop></trkpt>
170<trkpt lat="-27.43461516" lon="153.09492198"><ele>54.900001525878906</ele><time>2014-01-18T22:00:05Z</time><course>335.6</course><speed>25.0</speed><src>gps</src><sat>24</sat><hdop>0.6</hdop></trkpt>
171<trkpt lat="-27.43440305" lon="153.09482029"><ele>55.20000076293945</ele><time>2014-01-18T22:00:06Z</time><course>335.7</course><speed>25.0</speed><src>gps</src><sat>24</sat><hdop>0.6</hdop></trkpt>
172<trkpt lat="-27.43399234" lon="153.09461089"><ele>55.5</ele><time>2014-01-18T22:00:08Z</time><course>336.2</course><speed>25.0</speed><src>gps</src><sat>24</sat><hdop>0.6</hdop></trkpt>
173<trkpt lat="-27.43357957" lon="153.09441181"><ele>55.599998474121094</ele><time>2014-01-18T22:00:10Z</time><course>337.0</course><speed>25.0</speed><src>gps</src><sat>24</sat><hdop>0.6</hdop></trkpt>
174<trkpt lat="-27.43337054" lon="153.09431736"><ele>55.599998474121094</ele><time>2014-01-18T22:00:11Z</time><course>337.6</course><speed>25.0</speed><src>gps</src><sat>24</sat><hdop>0.6</hdop></trkpt>
175<trkpt lat="-27.43316301" lon="153.0942214"><ele>55.79999923706055</ele><time>2014-01-18T22:00:12Z</time><course>337.6</course><speed>25.0</speed><src>gps</src><sat>24</sat><hdop>0.8</hdop></trkpt>
176<trkpt lat="-27.43294876" lon="153.09413363"><ele>55.20000076293945</ele><time>2014-01-18T22:00:13Z</time><course>338.2</course><speed>25.0</speed><src>gps</src><sat>24</sat><hdop>0.6</hdop></trkpt>
177<trkpt lat="-27.43252465" lon="153.09394759"><ele>55.20000076293945</ele><time>2014-01-18T22:00:15Z</time><course>338.7</course><speed>25.0</speed><src>gps</src><sat>24</sat><hdop>0.8</hdop></trkpt>
178<trkpt lat="-27.43210005" lon="153.0937746"><ele>55.0</ele><time>2014-01-18T22:00:17Z</time><course>339.4</course><speed>25.0</speed><src>gps</src><sat>24</sat><hdop>0.8</hdop></trkpt>
179<trkpt lat="-27.431885779999998" lon="153.0936995"><ele>54.70000076293945</ele><time>2014-01-18T22:00:18Z</time><course>340.9</course><speed>25.25</speed><src>gps</src><sat>24</sat><hdop>0.6</hdop></trkpt>
180<trkpt lat="-27.43145237" lon="153.09354907"><ele>54.0</ele><time>2014-01-18T22:00:20Z</time><course>342.9</course><speed>25.25</speed><src>gps</src><sat>24</sat><hdop>0.6</hdop></trkpt>
181<trkpt lat="-27.43101292" lon="153.09339388"><ele>53.900001525878906</ele><time>2014-01-18T22:00:22Z</time><course>341.9</course><speed>25.75</speed><src>gps</src><sat>24</sat><hdop>0.6</hdop></trkpt>
182<trkpt lat="-27.43056768" lon="153.09323237"><ele>54.599998474121094</ele><time>2014-01-18T22:00:24Z</time><course>341.9</course><speed>26.0</speed><src>gps</src><sat>24</sat><hdop>1.0</hdop></trkpt>
183<trkpt lat="-27.43034527" lon="153.09315519"><ele>54.400001525878906</ele><time>2014-01-18T22:00:25Z</time><course>342.2</course><speed>26.0</speed><src>gps</src><sat>24</sat><hdop>0.6</hdop></trkpt>
184<trkpt lat="-27.4299025" lon="153.0929881"><ele>55.20000076293945</ele><time>2014-01-18T22:00:27Z</time><course>341.7</course><speed>26.0</speed><src>gps</src><sat>24</sat><hdop>0.6</hdop></trkpt>
185<trkpt lat="-27.42945552" lon="153.09282404"><ele>55.79999923706055</ele><time>2014-01-18T22:00:29Z</time><course>342.0</course><speed>26.0</speed><src>gps</src><sat>24</sat><hdop>0.6</hdop></trkpt>
186<trkpt lat="-27.42900748" lon="153.09265588"><ele>55.900001525878906</ele><time>2014-01-18T22:00:31Z</time><course>341.9</course><speed>26.25</speed><src>gps</src><sat>24</sat><hdop>0.6</hdop></trkpt>
187<trkpt lat="-27.42855487" lon="153.09248594"><ele>55.099998474121094</ele><time>2014-01-18T22:00:33Z</time><course>341.2</course><speed>26.5</speed><src>gps</src><sat>24</sat><hdop>0.6</hdop></trkpt>
188<trkpt lat="-27.4281026" lon="153.09230687"><ele>54.29999923706055</ele><time>2014-01-18T22:00:35Z</time><course>340.6</course><speed>26.75</speed><src>gps</src><sat>25</sat><hdop>0.6</hdop></trkpt>
189<trkpt lat="-27.42787537" lon="153.09221739"><ele>53.79999923706055</ele><time>2014-01-18T22:00:36Z</time><course>340.6</course><speed>26.75</speed><src>gps</src><sat>25</sat><hdop>0.6</hdop></trkpt>
190<trkpt lat="-27.42742091" lon="153.09203273"><ele>52.099998474121094</ele><time>2014-01-18T22:00:38Z</time><course>339.6</course><speed>27.0</speed><src>gps</src><sat>25</sat><hdop>0.6</hdop></trkpt>
191<trkpt lat="-27.42718979" lon="153.09193583"><ele>51.400001525878906</ele><time>2014-01-18T22:00:39Z</time><course>339.3</course><speed>27.25</speed><src>gps</src><sat>25</sat><hdop>0.6</hdop></trkpt>
192<trkpt lat="-27.42695956" lon="153.09184057"><ele>50.599998474121094</ele><time>2014-01-18T22:00:40Z</time><course>339.2</course><speed>27.25</speed><src>gps</src><sat>25</sat><hdop>0.6</hdop></trkpt>
193<trkpt lat="-27.42650535" lon="153.09164518"><ele>48.70000076293945</ele><time>2014-01-18T22:00:42Z</time><course>338.7</course><speed>27.0</speed><src>gps</src><sat>24</sat><hdop>0.6</hdop></trkpt>
194<trkpt lat="-27.42605446" lon="153.091443"><ele>47.20000076293945</ele><time>2014-01-18T22:00:44Z</time><course>338.5</course><speed>26.75</speed><src>gps</src><sat>25</sat><hdop>0.6</hdop></trkpt>
195<trkpt lat="-27.42582922" lon="153.09134415"><ele>46.400001525878906</ele><time>2014-01-18T22:00:45Z</time><course>338.2</course><speed>26.75</speed><src>gps</src><sat>25</sat><hdop>0.6</hdop></trkpt>
196<trkpt lat="-27.42538593" lon="153.09113625"><ele>45.79999923706055</ele><time>2014-01-18T22:00:47Z</time><course>337.1</course><speed>26.5</speed><src>gps</src><sat>25</sat><hdop>0.6</hdop></trkpt>
197<trkpt lat="-27.42516537" lon="153.09103082"><ele>45.79999923706055</ele><time>2014-01-18T22:00:48Z</time><course>337.0</course><speed>26.5</speed><src>gps</src><sat>24</sat><hdop>0.6</hdop></trkpt>
198<trkpt lat="-27.42472997" lon="153.09081485"><ele>45.79999923706055</ele><time>2014-01-18T22:00:50Z</time><course>336.7</course><speed>26.25</speed><src>gps</src><sat>25</sat><hdop>0.6</hdop></trkpt>
199<trkpt lat="-27.42451266" lon="153.09070747"><ele>45.400001525878906</ele><time>2014-01-18T22:00:51Z</time><course>336.4</course><speed>26.0</speed><src>gps</src><sat>25</sat><hdop>0.6</hdop></trkpt>
200<trkpt lat="-27.42408343" lon="153.09049619"><ele>45.70000076293945</ele><time>2014-01-18T22:00:53Z</time><course>336.0</course><speed>26.0</speed><src>gps</src><sat>25</sat><hdop>0.6</hdop></trkpt>
201<trkpt lat="-27.42365524" lon="153.09027578"><ele>45.79999923706055</ele><time>2014-01-18T22:00:55Z</time><course>335.3</course><speed>26.0</speed><src>gps</src><sat>24</sat><hdop>0.6</hdop></trkpt>
202<trkpt lat="-27.42344045" lon="153.09016212"><ele>45.79999923706055</ele><time>2014-01-18T22:00:56Z</time><course>335.0</course><speed>26.25</speed><src>gps</src><sat>24</sat><hdop>0.6</hdop></trkpt>
203<trkpt lat="-27.42323228" lon="153.09004528"><ele>46.29999923706055</ele><time>2014-01-18T22:00:57Z</time><course>334.4</course><speed>25.75</speed><src>gps</src><sat>24</sat><hdop>0.8</hdop></trkpt>
204<trkpt lat="-27.4230078" lon="153.08992599"><ele>46.400001525878906</ele><time>2014-01-18T22:00:58Z</time><course>334.7</course><speed>26.75</speed><src>gps</src><sat>24</sat><hdop>0.6</hdop></trkpt>
205<trkpt lat="-27.42257015" lon="153.08969737"><ele>46.70000076293945</ele><time>2014-01-18T22:01:00Z</time><course>334.5</course><speed>27.0</speed><src>gps</src><sat>24</sat><hdop>0.6</hdop></trkpt>
206<trkpt lat="-27.42235772" lon="153.08958121"><ele>46.400001525878906</ele><time>2014-01-18T22:01:01Z</time><course>334.0</course><speed>26.5</speed><src>gps</src><sat>25</sat><hdop>0.6</hdop></trkpt>
207<trkpt lat="-27.42193082" lon="153.08934415"><ele>46.599998474121094</ele><time>2014-01-18T22:01:03Z</time><course>333.7</course><speed>26.25</speed><src>gps</src><sat>25</sat><hdop>0.6</hdop></trkpt>
208<trkpt lat="-27.42171952" lon="153.08922654"><ele>46.5</ele><time>2014-01-18T22:01:04Z</time><course>333.5</course><speed>26.5</speed><src>gps</src><sat>25</sat><hdop>0.6</hdop></trkpt>
209<trkpt lat="-27.42151097" lon="153.0891109"><ele>46.20000076293945</ele><time>2014-01-18T22:01:05Z</time><course>333.4</course><speed>26.5</speed><src>gps</src><sat>25</sat><hdop>0.6</hdop></trkpt>
210<trkpt lat="-27.42129714" lon="153.0889927"><ele>46.79999923706055</ele><time>2014-01-18T22:01:06Z</time><course>333.8</course><speed>26.5</speed><src>gps</src><sat>25</sat><hdop>0.6</hdop></trkpt>
211<trkpt lat="-27.42086399" lon="153.08876052"><ele>46.79999923706055</ele><time>2014-01-18T22:01:08Z</time><course>334.0</course><speed>26.75</speed><src>gps</src><sat>25</sat><hdop>0.6</hdop></trkpt>
212<trkpt lat="-27.42064722" lon="153.08864041"><ele>46.900001525878906</ele><time>2014-01-18T22:01:09Z</time><course>334.0</course><speed>26.75</speed><src>gps</src><sat>25</sat><hdop>0.6</hdop></trkpt>
213<trkpt lat="-27.4202157" lon="153.08839761"><ele>47.400001525878906</ele><time>2014-01-18T22:01:11Z</time><course>333.7</course><speed>26.5</speed><src>gps</src><sat>25</sat><hdop>0.6</hdop></trkpt>
214<trkpt lat="-27.41999914" lon="153.08827693"><ele>47.599998474121094</ele><time>2014-01-18T22:01:12Z</time><course>333.7</course><speed>26.5</speed><src>gps</src><sat>25</sat><hdop>0.6</hdop></trkpt>
215<trkpt lat="-27.41979073" lon="153.08816027"><ele>47.79999923706055</ele><time>2014-01-18T22:01:13Z</time><course>333.5</course><speed>26.5</speed><src>gps</src><sat>25</sat><hdop>0.6</hdop></trkpt>
216<trkpt lat="-27.41936945" lon="153.08791733"><ele>48.29999923706055</ele><time>2014-01-18T22:01:15Z</time><course>333.5</course><speed>26.5</speed><src>gps</src><sat>25</sat><hdop>0.6</hdop></trkpt>
217<trkpt lat="-27.41915492" lon="153.08779717"><ele>48.70000076293945</ele><time>2014-01-18T22:01:16Z</time><course>333.9</course><speed>26.5</speed><src>gps</src><sat>25</sat><hdop>0.6</hdop></trkpt>
218<trkpt lat="-27.41894113" lon="153.08768389"><ele>49.0</ele><time>2014-01-18T22:01:17Z</time><course>334.6</course><speed>26.25</speed><src>gps</src><sat>25</sat><hdop>0.6</hdop></trkpt>
219<trkpt lat="-27.41873009" lon="153.08757837"><ele>48.79999923706055</ele><time>2014-01-18T22:01:18Z</time><course>335.8</course><speed>26.0</speed><src>gps</src><sat>25</sat><hdop>0.6</hdop></trkpt>
220<trkpt lat="-27.41829786" lon="153.08738445"><ele>48.79999923706055</ele><time>2014-01-18T22:01:20Z</time><course>338.6</course><speed>25.5</speed><src>gps</src><sat>25</sat><hdop>0.6</hdop></trkpt>
221<trkpt lat="-27.41808691" lon="153.08729755"><ele>48.900001525878906</ele><time>2014-01-18T22:01:21Z</time><course>339.9</course><speed>25.5</speed><src>gps</src><sat>25</sat><hdop>0.6</hdop></trkpt>
222<trkpt lat="-27.41787001" lon="153.08721301"><ele>49.0</ele><time>2014-01-18T22:01:22Z</time><course>340.9</course><speed>25.5</speed><src>gps</src><sat>25</sat><hdop>0.6</hdop></trkpt>
223<trkpt lat="-27.41742942" lon="153.0870565"><ele>48.79999923706055</ele><time>2014-01-18T22:01:24Z</time><course>343.1</course><speed>25.5</speed><src>gps</src><sat>25</sat><hdop>0.6</hdop></trkpt>
224<trkpt lat="-27.41720551" lon="153.08698943"><ele>48.70000076293945</ele><time>2014-01-18T22:01:25Z</time><course>344.4</course><speed>25.5</speed><src>gps</src><sat>25</sat><hdop>0.6</hdop></trkpt>
225<trkpt lat="-27.41675906" lon="153.08686777"><ele>47.5</ele><time>2014-01-18T22:01:27Z</time><course>346.6</course><speed>25.5</speed><src>gps</src><sat>25</sat><hdop>0.6</hdop></trkpt>
226<trkpt lat="-27.41653286" lon="153.08681192"><ele>46.70000076293945</ele><time>2014-01-18T22:01:28Z</time><course>347.8</course><speed>25.5</speed><src>gps</src><sat>25</sat><hdop>0.6</hdop></trkpt>
227<trkpt lat="-27.41630617" lon="153.08676602"><ele>46.20000076293945</ele><time>2014-01-18T22:01:29Z</time><course>349.1</course><speed>25.5</speed><src>gps</src><sat>25</sat><hdop>0.6</hdop></trkpt>
228<trkpt lat="-27.41584968" lon="153.0866874"><ele>45.70000076293945</ele><time>2014-01-18T22:01:31Z</time><course>351.8</course><speed>25.5</speed><src>gps</src><sat>25</sat><hdop>0.6</hdop></trkpt>
229<trkpt lat="-27.41538887" lon="153.08662812"><ele>45.900001525878906</ele><time>2014-01-18T22:01:33Z</time><course>353.8</course><speed>25.5</speed><src>gps</src><sat>25</sat><hdop>0.6</hdop></trkpt>
230<trkpt lat="-27.41515455" lon="153.08660863"><ele>45.900001525878906</ele><time>2014-01-18T22:01:34Z</time><course>355.7</course><speed>25.5</speed><src>gps</src><sat>25</sat><hdop>0.8</hdop></trkpt>
231<trkpt lat="-27.41492959" lon="153.08659577"><ele>46.900001525878906</ele><time>2014-01-18T22:01:35Z</time><course>356.5</course><speed>25.0</speed><src>gps</src><sat>25</sat><hdop>0.6</hdop></trkpt>
232<trkpt lat="-27.41449637" lon="153.08658409"><ele>48.599998474121094</ele><time>2014-01-18T22:01:37Z</time><course>359.1</course><speed>24.0</speed><src>gps</src><sat>25</sat><hdop>0.6</hdop></trkpt>
233<trkpt lat="-27.41428454" lon="153.08658585"><ele>49.599998474121094</ele><time>2014-01-18T22:01:38Z</time><course>359.9</course><speed>23.5</speed><src>gps</src><sat>25</sat><hdop>0.6</hdop></trkpt>
234<trkpt lat="-27.41407679" lon="153.0865897"><ele>50.599998474121094</ele><time>2014-01-18T22:01:39Z</time><course>0.8</course><speed>23.25</speed><src>gps</src><sat>25</sat><hdop>0.6</hdop></trkpt>
235<trkpt lat="-27.41366228" lon="153.08661482"><ele>52.099998474121094</ele><time>2014-01-18T22:01:41Z</time><course>3.3</course><speed>22.75</speed><src>gps</src><sat>24</sat><hdop>0.6</hdop></trkpt>
236<trkpt lat="-27.4132559" lon="153.08665374"><ele>53.29999923706055</ele><time>2014-01-18T22:01:43Z</time><course>5.4</course><speed>22.5</speed><src>gps</src><sat>24</sat><hdop>0.6</hdop></trkpt>
237<trkpt lat="-27.41285883" lon="153.08670915"><ele>54.099998474121094</ele><time>2014-01-18T22:01:45Z</time><course>7.6</course><speed>22.25</speed><src>gps</src><sat>24</sat><hdop>0.6</hdop></trkpt>
238<trkpt lat="-27.41265794" lon="153.08674087"><ele>54.79999923706055</ele><time>2014-01-18T22:01:46Z</time><course>8.5</course><speed>22.25</speed><src>gps</src><sat>24</sat><hdop>0.6</hdop></trkpt>
239<trkpt lat="-27.41245849" lon="153.08677923"><ele>55.0</ele><time>2014-01-18T22:01:47Z</time><course>9.6</course><speed>22.5</speed><src>gps</src><sat>24</sat><hdop>0.6</hdop></trkpt>
240<trkpt lat="-27.41225741" lon="153.08682324"><ele>54.70000076293945</ele><time>2014-01-18T22:01:48Z</time><course>10.8</course><speed>22.5</speed><src>gps</src><sat>24</sat><hdop>0.6</hdop></trkpt>
241<trkpt lat="-27.41205943" lon="153.08687457"><ele>54.79999923706055</ele><time>2014-01-18T22:01:49Z</time><course>11.7</course><speed>22.75</speed><src>gps</src><sat>25</sat><hdop>0.6</hdop></trkpt>
242<trkpt lat="-27.41186256" lon="153.08692768"><ele>54.79999923706055</ele><time>2014-01-18T22:01:50Z</time><course>13.1</course><speed>22.5</speed><src>gps</src><sat>25</sat><hdop>0.6</hdop></trkpt>
243<trkpt lat="-27.41146444" lon="153.08704539"><ele>54.400001525878906</ele><time>2014-01-18T22:01:52Z</time><course>15.0</course><speed>22.75</speed><src>gps</src><sat>25</sat><hdop>0.6</hdop></trkpt>
244<trkpt lat="-27.41127046" lon="153.08710919"><ele>53.79999923706055</ele><time>2014-01-18T22:01:53Z</time><course>15.7</course><speed>22.75</speed><src>gps</src><sat>25</sat><hdop>0.6</hdop></trkpt>
245<trkpt lat="-27.41087988" lon="153.08723372"><ele>52.900001525878906</ele><time>2014-01-18T22:01:55Z</time><course>16.0</course><speed>22.5</speed><src>gps</src><sat>25</sat><hdop>0.6</hdop></trkpt>
246<trkpt lat="-27.41049988" lon="153.0873688"><ele>52.099998474121094</ele><time>2014-01-18T22:01:57Z</time><course>18.3</course><speed>21.75</speed><src>gps</src><sat>25</sat><hdop>0.6</hdop></trkpt>
247<trkpt lat="-27.41013812" lon="153.08751634"><ele>51.20000076293945</ele><time>2014-01-18T22:01:59Z</time><course>21.0</course><speed>21.0</speed><src>gps</src><sat>25</sat><hdop>0.6</hdop></trkpt>
248<trkpt lat="-27.40996767" lon="153.08759514"><ele>51.0</ele><time>2014-01-18T22:02:00Z</time><course>21.4</course><speed>20.5</speed><src>gps</src><sat>25</sat><hdop>0.6</hdop></trkpt>
249<trkpt lat="-27.40980054" lon="153.08767111"><ele>51.0</ele><time>2014-01-18T22:02:01Z</time><course>21.7</course><speed>20.25</speed><src>gps</src><sat>24</sat><hdop>0.6</hdop></trkpt>
250<trkpt lat="-27.40963318" lon="153.08774614"><ele>50.900001525878906</ele><time>2014-01-18T22:02:02Z</time><course>22.0</course><speed>20.0</speed><src>gps</src><sat>25</sat><hdop>0.6</hdop></trkpt>
251<trkpt lat="-27.40930539" lon="153.08790076"><ele>49.5</ele><time>2014-01-18T22:02:04Z</time><course>22.2</course><speed>19.75</speed><src>gps</src><sat>25</sat><hdop>0.6</hdop></trkpt>
252<trkpt lat="-27.40913605" lon="153.08797035999999"><ele>49.400001525878906</ele><time>2014-01-18T22:02:05Z</time><course>20.5</course><speed>20.0</speed><src>gps</src><sat>25</sat><hdop>0.6</hdop></trkpt>
253<trkpt lat="-27.4087874" lon="153.08808985"><ele>48.5</ele><time>2014-01-18T22:02:07Z</time><course>16.4</course><speed>20.75</speed><src>gps</src><sat>25</sat><hdop>0.6</hdop></trkpt>
254<trkpt lat="-27.40860565" lon="153.08813984"><ele>48.099998474121094</ele><time>2014-01-18T22:02:08Z</time><course>14.5</course><speed>20.75</speed><src>gps</src><sat>25</sat><hdop>0.6</hdop></trkpt>
255<trkpt lat="-27.40823746" lon="153.08822225"><ele>47.599998474121094</ele><time>2014-01-18T22:02:10Z</time><course>10.2</course><speed>21.0</speed><src>gps</src><sat>25</sat><hdop>0.6</hdop></trkpt>
256<trkpt lat="-27.40804813" lon="153.08824915"><ele>47.29999923706055</ele><time>2014-01-18T22:02:11Z</time><course>7.9</course><speed>21.0</speed><src>gps</src><sat>25</sat><hdop>0.6</hdop></trkpt>
257<trkpt lat="-27.40766529" lon="153.08828427"><ele>46.70000076293945</ele><time>2014-01-18T22:02:13Z</time><course>4.1</course><speed>21.25</speed><src>gps</src><sat>25</sat><hdop>0.6</hdop></trkpt>
258<trkpt lat="-27.40747234" lon="153.08829883"><ele>45.79999923706055</ele><time>2014-01-18T22:02:14Z</time><course>3.6</course><speed>21.25</speed><src>gps</src><sat>25</sat><hdop>0.6</hdop></trkpt>
259<trkpt lat="-27.40707894" lon="153.08835745"><ele>45.099998474121094</ele><time>2014-01-18T22:02:16Z</time><course>8.7</course><speed>22.25</speed><src>gps</src><sat>25</sat><hdop>0.6</hdop></trkpt>
260<trkpt lat="-27.40668166" lon="153.08847799"><ele>45.400001525878906</ele><time>2014-01-18T22:02:18Z</time><course>17.3</course><speed>23.25</speed><src>gps</src><sat>25</sat><hdop>0.6</hdop></trkpt>
261<trkpt lat="-27.40648265" lon="153.08856896"><ele>46.0</ele><time>2014-01-18T22:02:19Z</time><course>22.2</course><speed>23.25</speed><src>gps</src><sat>25</sat><hdop>0.6</hdop></trkpt>
262<trkpt lat="-27.4062978" lon="153.08868029"><ele>46.79999923706055</ele><time>2014-01-18T22:02:20Z</time><course>27.6</course><speed>23.25</speed><src>gps</src><sat>25</sat><hdop>0.6</hdop></trkpt>
263<trkpt lat="-27.40596175" lon="153.08895525"><ele>49.29999923706055</ele><time>2014-01-18T22:02:22Z</time><course>38.8</course><speed>23.0</speed><src>gps</src><sat>25</sat><hdop>0.6</hdop></trkpt>
264<trkpt lat="-27.40581559" lon="153.0891131"><ele>50.20000076293945</ele><time>2014-01-18T22:02:23Z</time><course>43.3</course><speed>22.5</speed><src>gps</src><sat>25</sat><hdop>0.6</hdop></trkpt>
265<trkpt lat="-27.40557654" lon="153.0894543"><ele>52.0</ele><time>2014-01-18T22:02:25Z</time><course>53.3</course><speed>21.25</speed><src>gps</src><sat>25</sat><hdop>0.6</hdop></trkpt>
266<trkpt lat="-27.40547706" lon="153.08963638"><ele>52.900001525878906</ele><time>2014-01-18T22:02:26Z</time><course>57.7</course><speed>21.0</speed><src>gps</src><sat>25</sat><hdop>0.6</hdop></trkpt>
267<trkpt lat="-27.40539314" lon="153.08981921"><ele>53.599998474121094</ele><time>2014-01-18T22:02:27Z</time><course>62.1</course><speed>20.5</speed><src>gps</src><sat>24</sat><hdop>0.6</hdop></trkpt>
268<trkpt lat="-27.40526572" lon="153.09019718"><ele>54.70000076293945</ele><time>2014-01-18T22:02:29Z</time><course>71.2</course><speed>19.75</speed><src>gps</src><sat>25</sat><hdop>0.6</hdop></trkpt>
269<trkpt lat="-27.40522485" lon="153.09038941"><ele>55.099998474121094</ele><time>2014-01-18T22:02:30Z</time><course>75.9</course><speed>19.5</speed><src>gps</src><sat>25</sat><hdop>0.6</hdop></trkpt>
270<trkpt lat="-27.40519466" lon="153.09058111"><ele>55.0</ele><time>2014-01-18T22:02:31Z</time><course>80.2</course><speed>19.25</speed><src>gps</src><sat>25</sat><hdop>0.6</hdop></trkpt>
271<trkpt lat="-27.40517836" lon="153.09077771"><ele>55.099998474121094</ele><time>2014-01-18T22:02:32Z</time><course>84.2</course><speed>19.5</speed><src>gps</src><sat>25</sat><hdop>0.6</hdop></trkpt>
272<trkpt lat="-27.40517882" lon="153.09118494"><ele>54.900001525878906</ele><time>2014-01-18T22:02:34Z</time><course>92.0</course><speed>20.0</speed><src>gps</src><sat>24</sat><hdop>0.6</hdop></trkpt>
273<trkpt lat="-27.40520256" lon="153.09139023"><ele>54.599998474121094</ele><time>2014-01-18T22:02:35Z</time><course>97.4</course><speed>20.5</speed><src>gps</src><sat>24</sat><hdop>0.6</hdop></trkpt>
274<trkpt lat="-27.40528786" lon="153.09181162"><ele>54.099998474121094</ele><time>2014-01-18T22:02:37Z</time><course>102.6</course><speed>21.5</speed><src>gps</src><sat>24</sat><hdop>0.6</hdop></trkpt>
275<trkpt lat="-27.40532782" lon="153.09203025"><ele>53.400001525878906</ele><time>2014-01-18T22:02:38Z</time><course>101.2</course><speed>22.0</speed><src>gps</src><sat>24</sat><hdop>0.6</hdop></trkpt>
276<trkpt lat="-27.40539816" lon="153.09248088"><ele>52.5</ele><time>2014-01-18T22:02:40Z</time><course>99.6</course><speed>22.5</speed><src>gps</src><sat>24</sat><hdop>0.6</hdop></trkpt>
277<trkpt lat="-27.40547308" lon="153.09293932"><ele>50.70000076293945</ele><time>2014-01-18T22:02:42Z</time><course>101.8</course><speed>23.25</speed><src>gps</src><sat>24</sat><hdop>0.8</hdop></trkpt>
278<trkpt lat="-27.40549" lon="153.09318171"><ele>49.5</ele><time>2014-01-18T22:02:43Z</time><course>97.8</course><speed>23.5</speed><src>gps</src><sat>24</sat><hdop>0.6</hdop></trkpt>
279<trkpt lat="-27.40551204" lon="153.09342328"><ele>48.20000076293945</ele><time>2014-01-18T22:02:44Z</time><course>96.5</course><speed>23.75</speed><src>gps</src><sat>24</sat><hdop>0.6</hdop></trkpt>
280<trkpt lat="-27.40554595" lon="153.09390716"><ele>46.5</ele><time>2014-01-18T22:02:46Z</time><course>94.5</course><speed>24.0</speed><src>gps</src><sat>25</sat><hdop>0.6</hdop></trkpt>
281<trkpt lat="-27.4055574" lon="153.09414701"><ele>46.099998474121094</ele><time>2014-01-18T22:02:47Z</time><course>93.2</course><speed>23.75</speed><src>gps</src><sat>25</sat><hdop>0.6</hdop></trkpt>
282<trkpt lat="-27.40556258" lon="153.09462267"><ele>45.29999923706055</ele><time>2014-01-18T22:02:49Z</time><course>89.1</course><speed>23.5</speed><src>gps</src><sat>25</sat><hdop>0.6</hdop></trkpt>
283<trkpt lat="-27.40554992" lon="153.09486269"><ele>45.099998474121094</ele><time>2014-01-18T22:02:50Z</time><course>86.7</course><speed>23.5</speed><src>gps</src><sat>25</sat><hdop>0.6</hdop></trkpt>
284<trkpt lat="-27.40548062" lon="153.09532532"><ele>44.70000076293945</ele><time>2014-01-18T22:02:52Z</time><course>78.4</course><speed>23.5</speed><src>gps</src><sat>24</sat><hdop>0.6</hdop></trkpt>
285<trkpt lat="-27.40541759" lon="153.09554983"><ele>44.599998474121094</ele><time>2014-01-18T22:02:53Z</time><course>73.3</course><speed>23.25</speed><src>gps</src><sat>24</sat><hdop>0.6</hdop></trkpt>
286<trkpt lat="-27.4053381" lon="153.09576958"><ele>44.29999923706055</ele><time>2014-01-18T22:02:54Z</time><course>68.2</course><speed>23.25</speed><src>gps</src><sat>24</sat><hdop>0.6</hdop></trkpt>
287<trkpt lat="-27.40513096" lon="153.09617661"><ele>44.29999923706055</ele><time>2014-01-18T22:02:56Z</time><course>58.3</course><speed>23.25</speed><src>gps</src><sat>24</sat><hdop>0.8</hdop></trkpt>
288<trkpt lat="-27.40486501" lon="153.09654276"><ele>44.099998474121094</ele><time>2014-01-18T22:02:58Z</time><course>49.3</course><speed>23.25</speed><src>gps</src><sat>24</sat><hdop>0.6</hdop></trkpt>
289<trkpt lat="-27.4045529" lon="153.0968698"><ele>44.900001525878906</ele><time>2014-01-18T22:03:00Z</time><course>42.8</course><speed>23.5</speed><src>gps</src><sat>25</sat><hdop>0.6</hdop></trkpt>
290<trkpt lat="-27.40423922" lon="153.09719057"><ele>45.79999923706055</ele><time>2014-01-18T22:03:02Z</time><course>43.0</course><speed>23.5</speed><src>gps</src><sat>25</sat><hdop>0.8</hdop></trkpt>
291<trkpt lat="-27.4040871" lon="153.09735246"><ele>45.5</ele><time>2014-01-18T22:03:03Z</time><course>42.4</course><speed>23.25</speed><src>gps</src><sat>24</sat><hdop>0.6</hdop></trkpt>
292<trkpt lat="-27.40379234" lon="153.09766182"><ele>46.900001525878906</ele><time>2014-01-18T22:03:05Z</time><course>43.7</course><speed>22.25</speed><src>gps</src><sat>25</sat><hdop>1.0</hdop></trkpt>
293<trkpt lat="-27.403474" lon="153.09799315"><ele>45.900001525878906</ele><time>2014-01-18T22:03:07Z</time><course>42.8</course><speed>23.25</speed><src>gps</src><sat>25</sat><hdop>0.6</hdop></trkpt>
294<trkpt lat="-27.40331943" lon="153.0981487"><ele>46.29999923706055</ele><time>2014-01-18T22:03:08Z</time><course>42.5</course><speed>23.25</speed><src>gps</src><sat>25</sat><hdop>0.6</hdop></trkpt>
295<trkpt lat="-27.40300965" lon="153.09846665"><ele>46.70000076293945</ele><time>2014-01-18T22:03:10Z</time><course>42.4</course><speed>23.25</speed><src>gps</src><sat>25</sat><hdop>0.6</hdop></trkpt>
296<trkpt lat="-27.40285753" lon="153.09862323"><ele>47.099998474121094</ele><time>2014-01-18T22:03:11Z</time><course>42.7</course><speed>23.0</speed><src>gps</src><sat>25</sat><hdop>0.6</hdop></trkpt>
297<trkpt lat="-27.40254854" lon="153.09894367"><ele>47.0</ele><time>2014-01-18T22:03:13Z</time><course>42.7</course><speed>23.0</speed><src>gps</src><sat>25</sat><hdop>0.6</hdop></trkpt>
298<trkpt lat="-27.4023944" lon="153.09910018"><ele>46.900001525878906</ele><time>2014-01-18T22:03:14Z</time><course>42.4</course><speed>23.0</speed><src>gps</src><sat>25</sat><hdop>0.6</hdop></trkpt>
299<trkpt lat="-27.4020911" lon="153.09941425"><ele>46.70000076293945</ele><time>2014-01-18T22:03:16Z</time><course>42.5</course><speed>23.25</speed><src>gps</src><sat>25</sat><hdop>0.6</hdop></trkpt>
300<trkpt lat="-27.4019351" lon="153.09956918"><ele>46.599998474121094</ele><time>2014-01-18T22:03:17Z</time><course>42.5</course><speed>23.25</speed><src>gps</src><sat>25</sat><hdop>0.6</hdop></trkpt>
301<trkpt lat="-27.40178232" lon="153.09972944"><ele>46.900001525878906</ele><time>2014-01-18T22:03:18Z</time><course>42.6</course><speed>23.0</speed><src>gps</src><sat>25</sat><hdop>0.6</hdop></trkpt>
302<trkpt lat="-27.40162958" lon="153.09988713"><ele>46.5</ele><time>2014-01-18T22:03:19Z</time><course>42.8</course><speed>22.75</speed><src>gps</src><sat>25</sat><hdop>0.6</hdop></trkpt>
303<trkpt lat="-27.4013194" lon="153.10020328"><ele>46.599998474121094</ele><time>2014-01-18T22:03:21Z</time><course>42.8</course><speed>23.0</speed><src>gps</src><sat>25</sat><hdop>0.6</hdop></trkpt>
304<trkpt lat="-27.40116746" lon="153.10036091999999"><ele>46.79999923706055</ele><time>2014-01-18T22:03:22Z</time><course>42.7</course><speed>23.0</speed><src>gps</src><sat>25</sat><hdop>0.6</hdop></trkpt>
305<trkpt lat="-27.40085868" lon="153.10067662"><ele>47.400001525878906</ele><time>2014-01-18T22:03:24Z</time><course>42.8</course><speed>23.0</speed><src>gps</src><sat>25</sat><hdop>0.6</hdop></trkpt>
306<trkpt lat="-27.40054959" lon="153.10099453"><ele>47.599998474121094</ele><time>2014-01-18T22:03:26Z</time><course>42.5</course><speed>23.25</speed><src>gps</src><sat>25</sat><hdop>0.6</hdop></trkpt>
307<trkpt lat="-27.40039519" lon="153.10115143"><ele>47.400001525878906</ele><time>2014-01-18T22:03:27Z</time><course>42.4</course><speed>23.25</speed><src>gps</src><sat>25</sat><hdop>0.6</hdop></trkpt>
308<trkpt lat="-27.40023976" lon="153.10131131"><ele>47.20000076293945</ele><time>2014-01-18T22:03:28Z</time><course>42.6</course><speed>23.25</speed><src>gps</src><sat>25</sat><hdop>0.6</hdop></trkpt>
309<trkpt lat="-27.39993146" lon="153.10162712"><ele>47.20000076293945</ele><time>2014-01-18T22:03:30Z</time><course>42.7</course><speed>23.25</speed><src>gps</src><sat>25</sat><hdop>0.6</hdop></trkpt>
310<trkpt lat="-27.39962529" lon="153.10194669"><ele>47.20000076293945</ele><time>2014-01-18T22:03:32Z</time><course>42.7</course><speed>23.5</speed><src>gps</src><sat>25</sat><hdop>0.6</hdop></trkpt>
311<trkpt lat="-27.39947225" lon="153.10210987"><ele>47.20000076293945</ele><time>2014-01-18T22:03:33Z</time><course>42.7</course><speed>23.5</speed><src>gps</src><sat>25</sat><hdop>0.6</hdop></trkpt>
312<trkpt lat="-27.39931445" lon="153.10226891"><ele>47.099998474121094</ele><time>2014-01-18T22:03:34Z</time><course>42.5</course><speed>23.5</speed><src>gps</src><sat>25</sat><hdop>0.6</hdop></trkpt>
313<trkpt lat="-27.39915673" lon="153.1024283"><ele>47.099998474121094</ele><time>2014-01-18T22:03:35Z</time><course>42.4</course><speed>23.5</speed><src>gps</src><sat>25</sat><hdop>0.6</hdop></trkpt>
314<trkpt lat="-27.3988426" lon="153.10274965"><ele>46.900001525878906</ele><time>2014-01-18T22:03:37Z</time><course>42.7</course><speed>23.75</speed><src>gps</src><sat>25</sat><hdop>0.6</hdop></trkpt>
315<trkpt lat="-27.39868722" lon="153.10291482"><ele>47.0</ele><time>2014-01-18T22:03:38Z</time><course>42.9</course><speed>23.75</speed><src>gps</src><sat>25</sat><hdop>0.6</hdop></trkpt>
316<trkpt lat="-27.3985292" lon="153.10307498"><ele>47.0</ele><time>2014-01-18T22:03:39Z</time><course>42.9</course><speed>24.0</speed><src>gps</src><sat>25</sat><hdop>0.6</hdop></trkpt>
317<trkpt lat="-27.39837531" lon="153.10324237"><ele>47.0</ele><time>2014-01-18T22:03:40Z</time><course>42.9</course><speed>24.0</speed><src>gps</src><sat>25</sat><hdop>0.6</hdop></trkpt>
318<trkpt lat="-27.39806787" lon="153.10358085"><ele>47.79999923706055</ele><time>2014-01-18T22:03:42Z</time><course>44.2</course><speed>24.0</speed><src>gps</src><sat>25</sat><hdop>0.6</hdop></trkpt>
319<trkpt lat="-27.39791391" lon="153.10375041"><ele>48.0</ele><time>2014-01-18T22:03:43Z</time><course>44.0</course><speed>24.0</speed><src>gps</src><sat>25</sat><hdop>0.6</hdop></trkpt>
320<trkpt lat="-27.39760657" lon="153.10407288"><ele>49.599998474121094</ele><time>2014-01-18T22:03:45Z</time><course>43.1</course><speed>23.25</speed><src>gps</src><sat>25</sat><hdop>0.6</hdop></trkpt>
321<trkpt lat="-27.39745513" lon="153.1042304"><ele>50.400001525878906</ele><time>2014-01-18T22:03:46Z</time><course>42.9</course><speed>22.75</speed><src>gps</src><sat>25</sat><hdop>0.6</hdop></trkpt>
322<trkpt lat="-27.39730706" lon="153.10438849"><ele>51.099998474121094</ele><time>2014-01-18T22:03:47Z</time><course>42.8</course><speed>22.75</speed><src>gps</src><sat>25</sat><hdop>0.6</hdop></trkpt>
323<trkpt lat="-27.39700402" lon="153.10470322"><ele>52.099998474121094</ele><time>2014-01-18T22:03:49Z</time><course>42.6</course><speed>23.0</speed><src>gps</src><sat>25</sat><hdop>0.6</hdop></trkpt>
324<trkpt lat="-27.39685456" lon="153.10486384"><ele>52.20000076293945</ele><time>2014-01-18T22:03:50Z</time><course>43.1</course><speed>23.0</speed><src>gps</src><sat>25</sat><hdop>0.6</hdop></trkpt>
325<trkpt lat="-27.39670205" lon="153.10501871"><ele>52.70000076293945</ele><time>2014-01-18T22:03:51Z</time><course>43.1</course><speed>23.0</speed><src>gps</src><sat>25</sat><hdop>0.6</hdop></trkpt>
326<trkpt lat="-27.39639709" lon="153.10533275"><ele>53.29999923706055</ele><time>2014-01-18T22:03:53Z</time><course>42.7</course><speed>23.0</speed><src>gps</src><sat>25</sat><hdop>0.6</hdop></trkpt>
327<trkpt lat="-27.39624109" lon="153.10549036"><ele>53.70000076293945</ele><time>2014-01-18T22:03:54Z</time><course>42.5</course><speed>23.25</speed><src>gps</src><sat>25</sat><hdop>0.6</hdop></trkpt>
328<trkpt lat="-27.39592802" lon="153.10580417"><ele>54.900001525878906</ele><time>2014-01-18T22:03:56Z</time><course>43.0</course><speed>23.5</speed><src>gps</src><sat>25</sat><hdop>0.6</hdop></trkpt>
329<trkpt lat="-27.39577054" lon="153.10596752"><ele>54.79999923706055</ele><time>2014-01-18T22:03:57Z</time><course>43.1</course><speed>23.75</speed><src>gps</src><sat>25</sat><hdop>0.6</hdop></trkpt>
330<trkpt lat="-27.39561264" lon="153.10613283"><ele>54.400001525878906</ele><time>2014-01-18T22:03:58Z</time><course>43.0</course><speed>23.75</speed><src>gps</src><sat>25</sat><hdop>0.6</hdop></trkpt>
331<trkpt lat="-27.39529551" lon="153.10645954"><ele>54.400001525878906</ele><time>2014-01-18T22:04:00Z</time><course>42.6</course><speed>24.0</speed><src>gps</src><sat>25</sat><hdop>0.6</hdop></trkpt>
332<trkpt lat="-27.39513446" lon="153.1066271"><ele>54.099998474121094</ele><time>2014-01-18T22:04:01Z</time><course>42.6</course><speed>24.25</speed><src>gps</src><sat>25</sat><hdop>0.6</hdop></trkpt>
333<trkpt lat="-27.39481353" lon="153.10696186"><ele>53.20000076293945</ele><time>2014-01-18T22:04:03Z</time><course>42.6</course><speed>24.25</speed><src>gps</src><sat>25</sat><hdop>0.6</hdop></trkpt>
334<trkpt lat="-27.39465267" lon="153.10712865"><ele>52.400001525878906</ele><time>2014-01-18T22:04:04Z</time><course>42.6</course><speed>24.25</speed><src>gps</src><sat>25</sat><hdop>0.6</hdop></trkpt>
335<trkpt lat="-27.39448943" lon="153.10729433"><ele>51.79999923706055</ele><time>2014-01-18T22:04:05Z</time><course>42.6</course><speed>24.25</speed><src>gps</src><sat>24</sat><hdop>0.6</hdop></trkpt>
336<trkpt lat="-27.39432441" lon="153.10746175"><ele>50.599998474121094</ele><time>2014-01-18T22:04:06Z</time><course>42.7</course><speed>24.25</speed><src>gps</src><sat>25</sat><hdop>0.6</hdop></trkpt>
337<trkpt lat="-27.39400334" lon="153.10778919"><ele>49.400001525878906</ele><time>2014-01-18T22:04:08Z</time><course>42.5</course><speed>24.5</speed><src>gps</src><sat>25</sat><hdop>0.6</hdop></trkpt>
338<trkpt lat="-27.39367569" lon="153.10812553"><ele>48.599998474121094</ele><time>2014-01-18T22:04:10Z</time><course>42.9</course><speed>24.25</speed><src>gps</src><sat>25</sat><hdop>0.6</hdop></trkpt>
339<trkpt lat="-27.39351575" lon="153.10829274"><ele>48.400001525878906</ele><time>2014-01-18T22:04:11Z</time><course>42.8</course><speed>24.25</speed><src>gps</src><sat>25</sat><hdop>0.6</hdop></trkpt>
340<trkpt lat="-27.3931907" lon="153.10862447"><ele>48.400001525878906</ele><time>2014-01-18T22:04:13Z</time><course>42.8</course><speed>24.25</speed><src>gps</src><sat>25</sat><hdop>0.6</hdop></trkpt>
341<trkpt lat="-27.39286628" lon="153.10895656"><ele>47.900001525878906</ele><time>2014-01-18T22:04:15Z</time><course>42.5</course><speed>24.25</speed><src>gps</src><sat>24</sat><hdop>0.6</hdop></trkpt>
342<trkpt lat="-27.39270656" lon="153.10912645"><ele>47.79999923706055</ele><time>2014-01-18T22:04:16Z</time><course>42.2</course><speed>24.25</speed><src>gps</src><sat>25</sat><hdop>0.6</hdop></trkpt>
343<trkpt lat="-27.39254379" lon="153.10928874"><ele>47.79999923706055</ele><time>2014-01-18T22:04:17Z</time><course>42.1</course><speed>24.25</speed><src>gps</src><sat>25</sat><hdop>0.6</hdop></trkpt>
344<trkpt lat="-27.392225" lon="153.10961611"><ele>47.20000076293945</ele><time>2014-01-18T22:04:19Z</time><course>42.6</course><speed>24.25</speed><src>gps</src><sat>25</sat><hdop>0.6</hdop></trkpt>
345<trkpt lat="-27.39206405" lon="153.10978603"><ele>47.29999923706055</ele><time>2014-01-18T22:04:20Z</time><course>42.6</course><speed>24.25</speed><src>gps</src><sat>25</sat><hdop>0.6</hdop></trkpt>
346<trkpt lat="-27.39174309" lon="153.11011923"><ele>47.599998474121094</ele><time>2014-01-18T22:04:22Z</time><course>42.6</course><speed>24.25</speed><src>gps</src><sat>25</sat><hdop>0.6</hdop></trkpt>
347<trkpt lat="-27.39142183" lon="153.1104514"><ele>47.20000076293945</ele><time>2014-01-18T22:04:24Z</time><course>42.5</course><speed>24.25</speed><src>gps</src><sat>24</sat><hdop>0.6</hdop></trkpt>
348<trkpt lat="-27.39109994" lon="153.11077321"><ele>47.099998474121094</ele><time>2014-01-18T22:04:26Z</time><course>41.8</course><speed>23.75</speed><src>gps</src><sat>25</sat><hdop>0.6</hdop></trkpt>
349<trkpt lat="-27.39093443" lon="153.11093217"><ele>46.400001525878906</ele><time>2014-01-18T22:04:27Z</time><course>40.5</course><speed>23.75</speed><src>gps</src><sat>25</sat><hdop>0.6</hdop></trkpt>
350<trkpt lat="-27.39061125" lon="153.11122597"><ele>46.79999923706055</ele><time>2014-01-18T22:04:29Z</time><course>38.4</course><speed>23.25</speed><src>gps</src><sat>25</sat><hdop>0.6</hdop></trkpt>
351<trkpt lat="-27.39044682" lon="153.11136449"><ele>46.79999923706055</ele><time>2014-01-18T22:04:30Z</time><course>37.3</course><speed>23.0</speed><src>gps</src><sat>24</sat><hdop>0.6</hdop></trkpt>
352<trkpt lat="-27.39011614" lon="153.11163385"><ele>46.599998474121094</ele><time>2014-01-18T22:04:32Z</time><course>35.3</course><speed>22.75</speed><src>gps</src><sat>25</sat><hdop>0.6</hdop></trkpt>
353<trkpt lat="-27.38994825" lon="153.11176207"><ele>46.29999923706055</ele><time>2014-01-18T22:04:33Z</time><course>34.3</course><speed>22.75</speed><src>gps</src><sat>25</sat><hdop>0.6</hdop></trkpt>
354<trkpt lat="-27.38960364" lon="153.11200672"><ele>46.29999923706055</ele><time>2014-01-18T22:04:35Z</time><course>31.8</course><speed>22.5</speed><src>gps</src><sat>25</sat><hdop>0.6</hdop></trkpt>
355<trkpt lat="-27.38942928" lon="153.11212222"><ele>46.0</ele><time>2014-01-18T22:04:36Z</time><course>30.6</course><speed>22.5</speed><src>gps</src><sat>24</sat><hdop>0.6</hdop></trkpt>
356<trkpt lat="-27.38925349" lon="153.11223332"><ele>45.900001525878906</ele><time>2014-01-18T22:04:37Z</time><course>29.5</course><speed>22.25</speed><src>gps</src><sat>24</sat><hdop>0.6</hdop></trkpt>
357<trkpt lat="-27.38890118" lon="153.11244815"><ele>45.400001525878906</ele><time>2014-01-18T22:04:39Z</time><course>28.1</course><speed>22.5</speed><src>gps</src><sat>24</sat><hdop>0.6</hdop></trkpt>
358<trkpt lat="-27.38872228" lon="153.11255202"><ele>45.400001525878906</ele><time>2014-01-18T22:04:40Z</time><course>27.5</course><speed>22.25</speed><src>gps</src><sat>24</sat><hdop>0.6</hdop></trkpt>
359<trkpt lat="-27.38854414" lon="153.11265445"><ele>45.099998474121094</ele><time>2014-01-18T22:04:41Z</time><course>26.9</course><speed>22.25</speed><src>gps</src><sat>25</sat><hdop>0.6</hdop></trkpt>
360<trkpt lat="-27.38818617" lon="153.11285455"><ele>45.0</ele><time>2014-01-18T22:04:43Z</time><course>26.8</course><speed>22.0</speed><src>gps</src><sat>25</sat><hdop>0.6</hdop></trkpt>
361<trkpt lat="-27.38800972" lon="153.1129538"><ele>44.70000076293945</ele><time>2014-01-18T22:04:44Z</time><course>26.8</course><speed>22.0</speed><src>gps</src><sat>25</sat><hdop>0.6</hdop></trkpt>
362<trkpt lat="-27.38765291" lon="153.1131592"><ele>44.599998474121094</ele><time>2014-01-18T22:04:46Z</time><course>27.2</course><speed>22.25</speed><src>gps</src><sat>15</sat><hdop>0.8</hdop></trkpt>
363<trkpt lat="-27.38746821" lon="153.11325645"><ele>44.0</ele><time>2014-01-18T22:04:47Z</time><course>27.1</course><speed>22.25</speed><src>gps</src><sat>15</sat><hdop>0.6</hdop></trkpt>
364<trkpt lat="-27.38730164" lon="153.11335528"><ele>44.5</ele><time>2014-01-18T22:04:48Z</time><course>26.8</course><speed>22.0</speed><src>gps</src><sat>25</sat><hdop>0.8</hdop></trkpt>
365<trkpt lat="-27.38712442" lon="153.11345394"><ele>44.5</ele><time>2014-01-18T22:04:49Z</time><course>26.7</course><speed>22.0</speed><src>gps</src><sat>25</sat><hdop>0.6</hdop></trkpt>
366<trkpt lat="-27.38677177" lon="153.11365545"><ele>44.0</ele><time>2014-01-18T22:04:51Z</time><course>26.3</course><speed>22.0</speed><src>gps</src><sat>14</sat><hdop>0.6</hdop></trkpt>
367<trkpt lat="-27.38659658" lon="153.11375417"><ele>43.70000076293945</ele><time>2014-01-18T22:04:52Z</time><course>26.4</course><speed>22.0</speed><src>gps</src><sat>14</sat><hdop>0.6</hdop></trkpt>
368<trkpt lat="-27.38623974" lon="153.11394584"><ele>43.400001525878906</ele><time>2014-01-18T22:04:54Z</time><course>26.9</course><speed>21.75</speed><src>gps</src><sat>14</sat><hdop>0.6</hdop></trkpt>
369<trkpt lat="-27.38589005" lon="153.11414882"><ele>43.099998474121094</ele><time>2014-01-18T22:04:56Z</time><course>27.3</course><speed>21.5</speed><src>gps</src><sat>13</sat><hdop>0.6</hdop></trkpt>
370<trkpt lat="-27.38572008" lon="153.11424066"><ele>43.20000076293945</ele><time>2014-01-18T22:04:57Z</time><course>26.8</course><speed>21.25</speed><src>gps</src><sat>15</sat><hdop>0.6</hdop></trkpt>
371<trkpt lat="-27.38554714" lon="153.11433609"><ele>43.599998474121094</ele><time>2014-01-18T22:04:58Z</time><course>26.7</course><speed>21.25</speed><src>gps</src><sat>15</sat><hdop>0.6</hdop></trkpt>
372<trkpt lat="-27.3852083" lon="153.11453211"><ele>44.0</ele><time>2014-01-18T22:05:00Z</time><course>27.1</course><speed>21.0</speed><src>gps</src><sat>15</sat><hdop>0.8</hdop></trkpt>
373<trkpt lat="-27.38504213" lon="153.1146215"><ele>44.20000076293945</ele><time>2014-01-18T22:05:01Z</time><course>26.1</course><speed>20.75</speed><src>gps</src><sat>15</sat><hdop>0.6</hdop></trkpt>
374<trkpt lat="-27.3847173" lon="153.11479704"><ele>44.20000076293945</ele><time>2014-01-18T22:05:03Z</time><course>24.9</course><speed>20.25</speed><src>gps</src><sat>25</sat><hdop>0.8</hdop></trkpt>
375<trkpt lat="-27.38455708" lon="153.11487612"><ele>44.20000076293945</ele><time>2014-01-18T22:05:04Z</time><course>24.4</course><speed>20.0</speed><src>gps</src><sat>15</sat><hdop>0.8</hdop></trkpt>
376<trkpt lat="-27.38424047" lon="153.11505205"><ele>43.599998474121094</ele><time>2014-01-18T22:05:06Z</time><course>26.5</course><speed>19.0</speed><src>gps</src><sat>14</sat><hdop>0.6</hdop></trkpt>
377<trkpt lat="-27.38393919" lon="153.11522331"><ele>42.79999923706055</ele><time>2014-01-18T22:05:08Z</time><course>26.5</course><speed>18.75</speed><src>gps</src><sat>14</sat><hdop>0.8</hdop></trkpt>
378<trkpt lat="-27.38379689" lon="153.11530067"><ele>42.29999923706055</ele><time>2014-01-18T22:05:09Z</time><course>26.5</course><speed>18.0</speed><src>gps</src><sat>25</sat><hdop>0.8</hdop></trkpt>
379<trkpt lat="-27.3835109" lon="153.11546346"><ele>42.5</ele><time>2014-01-18T22:05:11Z</time><course>26.5</course><speed>17.75</speed><src>gps</src><sat>25</sat><hdop>0.6</hdop></trkpt>
380<trkpt lat="-27.38336744" lon="153.11554327"><ele>42.5</ele><time>2014-01-18T22:05:12Z</time><course>26.4</course><speed>17.5</speed><src>gps</src><sat>25</sat><hdop>0.6</hdop></trkpt>
381<trkpt lat="-27.38322705" lon="153.11561997"><ele>42.70000076293945</ele><time>2014-01-18T22:05:13Z</time><course>26.6</course><speed>17.25</speed><src>gps</src><sat>25</sat><hdop>0.6</hdop></trkpt>
382<trkpt lat="-27.3830909" lon="153.11569714"><ele>42.79999923706055</ele><time>2014-01-18T22:05:14Z</time><course>27.0</course><speed>17.0</speed><src>gps</src><sat>25</sat><hdop>0.6</hdop></trkpt>
383<trkpt lat="-27.38283021" lon="153.1158499"><ele>43.0</ele><time>2014-01-18T22:05:16Z</time><course>27.1</course><speed>16.0</speed><src>gps</src><sat>25</sat><hdop>0.6</hdop></trkpt>
384<trkpt lat="-27.38270191" lon="153.11592632"><ele>42.900001525878906</ele><time>2014-01-18T22:05:17Z</time><course>27.1</course><speed>15.75</speed><src>gps</src><sat>25</sat><hdop>0.6</hdop></trkpt>
385<trkpt lat="-27.38245722" lon="153.1160726"><ele>43.0</ele><time>2014-01-18T22:05:19Z</time><course>28.1</course><speed>15.25</speed><src>gps</src><sat>25</sat><hdop>0.6</hdop></trkpt>
386<trkpt lat="-27.38234705" lon="153.11615923"><ele>42.79999923706055</ele><time>2014-01-18T22:05:20Z</time><course>33.1</course><speed>15.0</speed><src>gps</src><sat>25</sat><hdop>0.6</hdop></trkpt>
387<trkpt lat="-27.38224664" lon="153.11626029"><ele>43.20000076293945</ele><time>2014-01-18T22:05:21Z</time><course>42.1</course><speed>15.0</speed><src>gps</src><sat>25</sat><hdop>0.6</hdop></trkpt>
388<trkpt lat="-27.3820914" lon="153.11651709"><ele>43.5</ele><time>2014-01-18T22:05:23Z</time><course>59.9</course><speed>15.25</speed><src>gps</src><sat>25</sat><hdop>0.6</hdop></trkpt>
389<trkpt lat="-27.38204549" lon="153.11666203"><ele>43.900001525878906</ele><time>2014-01-18T22:05:24Z</time><course>68.5</course><speed>15.25</speed><src>gps</src><sat>25</sat><hdop>0.6</hdop></trkpt>
390<trkpt lat="-27.38200296" lon="153.11695786"><ele>43.70000076293945</ele><time>2014-01-18T22:05:26Z</time><course>83.9</course><speed>14.75</speed><src>gps</src><sat>25</sat><hdop>0.6</hdop></trkpt>
391<trkpt lat="-27.38200793" lon="153.11710495"><ele>43.5</ele><time>2014-01-18T22:05:27Z</time><course>92.1</course><speed>14.5</speed><src>gps</src><sat>25</sat><hdop>0.6</hdop></trkpt>
392<trkpt lat="-27.38202294" lon="153.11725706"><ele>42.79999923706055</ele><time>2014-01-18T22:05:28Z</time><course>94.9</course><speed>15.25</speed><src>gps</src><sat>25</sat><hdop>0.8</hdop></trkpt>
393<trkpt lat="-27.38208905" lon="153.11744132"><ele>42.79999923706055</ele><time>2014-01-18T22:05:30Z</time><course>112.5</course><speed>10.25</speed><src>gps</src><sat>24</sat><hdop>0.6</hdop></trkpt>
394<trkpt lat="-27.38212183" lon="153.11751201"><ele>43.0</ele><time>2014-01-18T22:05:31Z</time><course>115.4</course><speed>8.0</speed><src>gps</src><sat>25</sat><hdop>0.6</hdop></trkpt>
395<trkpt lat="-27.38214308" lon="153.11755287"><ele>43.29999923706055</ele><time>2014-01-18T22:05:32Z</time><course>116.7</course><speed>5.25</speed><src>gps</src><sat>25</sat><hdop>0.6</hdop></trkpt>
396<trkpt lat="-27.38216213" lon="153.11759015"><ele>43.70000076293945</ele><time>2014-01-18T22:05:34Z</time><course>116.9</course><speed>1.5</speed><src>gps</src><sat>25</sat><hdop>0.6</hdop></trkpt>
397<trkpt lat="-27.38216153" lon="153.117596"><ele>43.900001525878906</ele><time>2014-01-18T22:05:35Z</time><course>116.9</course><speed>0.5</speed><src>gps</src><sat>25</sat><hdop>0.6</hdop></trkpt>
398<trkpt lat="-27.38216214" lon="153.11759468"><ele>44.0</ele><time>2014-01-18T22:05:36Z</time><speed>0.0</speed><src>gps</src><sat>25</sat><hdop>0.6</hdop></trkpt>
399<trkpt lat="-27.38215875" lon="153.11760154"><ele>44.20000076293945</ele><time>2014-01-18T22:05:38Z</time><speed>0.0</speed><src>gps</src><sat>25</sat><hdop>0.6</hdop></trkpt>
400<trkpt lat="-27.38216013" lon="153.11759889"><ele>44.29999923706055</ele><time>2014-01-18T22:05:39Z</time><speed>0.0</speed><src>gps</src><sat>25</sat><hdop>0.6</hdop></trkpt>
401<trkpt lat="-27.38216014" lon="153.11759785"><ele>44.099998474121094</ele><time>2014-01-18T22:05:40Z</time><speed>0.0</speed><src>gps</src><sat>24</sat><hdop>0.6</hdop></trkpt>
402<trkpt lat="-27.38216169" lon="153.11760017"><ele>44.29999923706055</ele><time>2014-01-18T22:05:42Z</time><speed>0.0</speed><src>gps</src><sat>25</sat><hdop>0.6</hdop></trkpt>
403<trkpt lat="-27.38216138" lon="153.1176004"><ele>44.20000076293945</ele><time>2014-01-18T22:05:43Z</time><speed>0.0</speed><src>gps</src><sat>25</sat><hdop>0.6</hdop></trkpt>
404<trkpt lat="-27.38216076" lon="153.11759945"><ele>44.29999923706055</ele><time>2014-01-18T22:05:44Z</time><speed>0.0</speed><src>gps</src><sat>25</sat><hdop>0.6</hdop></trkpt>
405<trkpt lat="-27.38216254" lon="153.11760383"><ele>44.20000076293945</ele><time>2014-01-18T22:05:46Z</time><course>116.9</course><speed>0.5</speed><src>gps</src><sat>25</sat><hdop>0.6</hdop></trkpt>
406<trkpt lat="-27.38218435" lon="153.11764629"><ele>43.900001525878906</ele><time>2014-01-18T22:05:48Z</time><course>117.4</course><speed>3.25</speed><src>gps</src><sat>24</sat><hdop>0.6</hdop></trkpt>
407<trkpt lat="-27.38220326" lon="153.11768632"><ele>43.900001525878906</ele><time>2014-01-18T22:05:49Z</time><course>117.7</course><speed>4.25</speed><src>gps</src><sat>25</sat><hdop>0.6</hdop></trkpt>
408<trkpt lat="-27.38226719" lon="153.11782955"><ele>44.0</ele><time>2014-01-18T22:05:51Z</time><course>116.9</course><speed>7.75</speed><src>gps</src><sat>25</sat><hdop>0.6</hdop></trkpt>
409<trkpt lat="-27.38234329" lon="153.1179896"><ele>43.70000076293945</ele><time>2014-01-18T22:05:53Z</time><course>116.9</course><speed>9.25</speed><src>gps</src><sat>24</sat><hdop>0.6</hdop></trkpt>
410<trkpt lat="-27.38238364" lon="153.11807963"><ele>43.599998474121094</ele><time>2014-01-18T22:05:54Z</time><course>117.3</course><speed>9.5</speed><src>gps</src><sat>24</sat><hdop>0.6</hdop></trkpt>
411<trkpt lat="-27.38247352" lon="153.11825463"><ele>43.599998474121094</ele><time>2014-01-18T22:05:56Z</time><course>121.6</course><speed>10.0</speed><src>gps</src><sat>25</sat><hdop>0.6</hdop></trkpt>
412<trkpt lat="-27.38252903" lon="153.11834222"><ele>43.20000076293945</ele><time>2014-01-18T22:05:57Z</time><course>124.9</course><speed>10.25</speed><src>gps</src><sat>25</sat><hdop>0.6</hdop></trkpt>
413<trkpt lat="-27.38265471" lon="153.11850411"><ele>42.900001525878906</ele><time>2014-01-18T22:05:59Z</time><course>132.1</course><speed>10.25</speed><src>gps</src><sat>25</sat><hdop>0.6</hdop></trkpt>
414<trkpt lat="-27.38272373" lon="153.11858005"><ele>42.79999923706055</ele><time>2014-01-18T22:06:00Z</time><course>135.0</course><speed>10.25</speed><src>gps</src><sat>25</sat><hdop>0.6</hdop></trkpt>
415<trkpt lat="-27.38286072" lon="153.11870894"><ele>42.70000076293945</ele><time>2014-01-18T22:06:02Z</time><course>139.7</course><speed>10.0</speed><src>gps</src><sat>25</sat><hdop>0.6</hdop></trkpt>
416<trkpt lat="-27.38292994" lon="153.11877201"><ele>42.5</ele><time>2014-01-18T22:06:03Z</time><course>140.4</course><speed>9.75</speed><src>gps</src><sat>25</sat><hdop>0.6</hdop></trkpt>
417<trkpt lat="-27.38306525" lon="153.11888351"><ele>42.5</ele><time>2014-01-18T22:06:05Z</time><course>145.0</course><speed>9.0</speed><src>gps</src><sat>25</sat><hdop>0.6</hdop></trkpt>
418<trkpt lat="-27.38320227" lon="153.1189778"><ele>42.0</ele><time>2014-01-18T22:06:07Z</time><course>149.5</course><speed>8.75</speed><src>gps</src><sat>25</sat><hdop>0.6</hdop></trkpt>
419<trkpt lat="-27.38327437" lon="153.11902158"><ele>42.099998474121094</ele><time>2014-01-18T22:06:08Z</time><course>150.2</course><speed>8.75</speed><src>gps</src><sat>25</sat><hdop>0.6</hdop></trkpt>
420<trkpt lat="-27.38333713" lon="153.11906887"><ele>42.20000076293945</ele><time>2014-01-18T22:06:09Z</time><course>150.3</course><speed>8.5</speed><src>gps</src><sat>25</sat><hdop>0.6</hdop></trkpt>
421<trkpt lat="-27.38346514" lon="153.11915574"><ele>42.20000076293945</ele><time>2014-01-18T22:06:11Z</time><course>149.0</course><speed>8.25</speed><src>gps</src><sat>25</sat><hdop>0.6</hdop></trkpt>
422<trkpt lat="-27.38352811" lon="153.1191963"><ele>42.20000076293945</ele><time>2014-01-18T22:06:12Z</time><course>149.3</course><speed>8.0</speed><src>gps</src><sat>25</sat><hdop>0.6</hdop></trkpt>
423<trkpt lat="-27.38358597" lon="153.11923273"><ele>42.20000076293945</ele><time>2014-01-18T22:06:13Z</time><course>149.9</course><speed>8.0</speed><src>gps</src><sat>25</sat><hdop>0.6</hdop></trkpt>
424<trkpt lat="-27.38371106" lon="153.11930556"><ele>41.79999923706055</ele><time>2014-01-18T22:06:15Z</time><course>152.4</course><speed>7.5</speed><src>gps</src><sat>25</sat><hdop>0.8</hdop></trkpt>
425<trkpt lat="-27.38376966" lon="153.11933652"><ele>42.29999923706055</ele><time>2014-01-18T22:06:16Z</time><course>155.2</course><speed>7.5</speed><src>gps</src><sat>25</sat><hdop>0.6</hdop></trkpt>
426<trkpt lat="-27.3838888" lon="153.11938711"><ele>43.0</ele><time>2014-01-18T22:06:18Z</time><course>161.0</course><speed>7.0</speed><src>gps</src><sat>25</sat><hdop>0.6</hdop></trkpt>
427<trkpt lat="-27.38394864" lon="153.11940817"><ele>42.79999923706055</ele><time>2014-01-18T22:06:19Z</time><course>164.6</course><speed>7.0</speed><src>gps</src><sat>25</sat><hdop>0.6</hdop></trkpt>
428<trkpt lat="-27.38407587" lon="153.11943162"><ele>43.099998474121094</ele><time>2014-01-18T22:06:21Z</time><course>169.5</course><speed>7.25</speed><src>gps</src><sat>24</sat><hdop>0.6</hdop></trkpt>
429<trkpt lat="-27.38413756" lon="153.11944296"><ele>43.20000076293945</ele><time>2014-01-18T22:06:22Z</time><course>170.7</course><speed>7.0</speed><src>gps</src><sat>25</sat><hdop>0.6</hdop></trkpt>
430<trkpt lat="-27.38426503" lon="153.11945555"><ele>43.29999923706055</ele><time>2014-01-18T22:06:24Z</time><course>175.9</course><speed>7.0</speed><src>gps</src><sat>25</sat><hdop>0.6</hdop></trkpt>
431<trkpt lat="-27.38432761" lon="153.11945633"><ele>43.79999923706055</ele><time>2014-01-18T22:06:25Z</time><course>179.4</course><speed>7.25</speed><src>gps</src><sat>25</sat><hdop>0.6</hdop></trkpt>
432<trkpt lat="-27.38445247" lon="153.11945033"><ele>43.599998474121094</ele><time>2014-01-18T22:06:27Z</time><course>184.2</course><speed>7.25</speed><src>gps</src><sat>25</sat><hdop>0.6</hdop></trkpt>
433<trkpt lat="-27.38451695" lon="153.11944196"><ele>43.79999923706055</ele><time>2014-01-18T22:06:28Z</time><course>187.6</course><speed>7.25</speed><src>gps</src><sat>25</sat><hdop>0.8</hdop></trkpt>
434<trkpt lat="-27.38457633" lon="153.11942864"><ele>43.79999923706055</ele><time>2014-01-18T22:06:29Z</time><course>189.0</course><speed>7.0</speed><src>gps</src><sat>25</sat><hdop>0.6</hdop></trkpt>
435<trkpt lat="-27.38469524" lon="153.11939857"><ele>43.900001525878906</ele><time>2014-01-18T22:06:31Z</time><course>193.3</course><speed>6.75</speed><src>gps</src><sat>25</sat><hdop>0.6</hdop></trkpt>
436<trkpt lat="-27.38478791" lon="153.11937142"><ele>43.70000076293945</ele><time>2014-01-18T22:06:33Z</time><course>196.8</course><speed>5.0</speed><src>gps</src><sat>11</sat><hdop>0.8</hdop></trkpt>
437<trkpt lat="-27.38488822" lon="153.11916418"><ele>47.70000076293945</ele><time>2014-01-18T22:06:39Z</time><course>221.5</course><speed>3.25</speed><src>gps</src><sat>25</sat><hdop>1.0</hdop></trkpt>
438<trkpt lat="-27.38497963" lon="153.11915303"><ele>47.5</ele><time>2014-01-18T22:06:41Z</time><course>215.1</course><speed>3.5</speed><src>gps</src><sat>25</sat><hdop>0.8</hdop></trkpt>
439<trkpt lat="-27.38501378" lon="153.11915039"><ele>46.20000076293945</ele><time>2014-01-18T22:06:42Z</time><course>212.2</course><speed>3.25</speed><src>gps</src><sat>24</sat><hdop>0.8</hdop></trkpt>
440<trkpt lat="-27.38509361" lon="153.11912974"><ele>44.900001525878906</ele><time>2014-01-18T22:06:44Z</time><course>214.7</course><speed>3.0</speed><src>gps</src><sat>25</sat><hdop>0.8</hdop></trkpt>
441<trkpt lat="-27.38512758" lon="153.1191165"><ele>44.099998474121094</ele><time>2014-01-18T22:06:45Z</time><course>215.6</course><speed>3.0</speed><src>gps</src><sat>25</sat><hdop>0.6</hdop></trkpt>
442<trkpt lat="-27.38516022" lon="153.11909783"><ele>43.400001525878906</ele><time>2014-01-18T22:06:46Z</time><course>215.4</course><speed>3.0</speed><src>gps</src><sat>25</sat><hdop>0.6</hdop></trkpt>
443<trkpt lat="-27.38521326" lon="153.11905583"><ele>43.29999923706055</ele><time>2014-01-18T22:06:48Z</time><course>217.7</course><speed>3.25</speed><src>gps</src><sat>24</sat><hdop>0.6</hdop></trkpt>
444<trkpt lat="-27.38523843" lon="153.11903466"><ele>43.20000076293945</ele><time>2014-01-18T22:06:49Z</time><course>219.1</course><speed>3.25</speed><src>gps</src><sat>24</sat><hdop>0.6</hdop></trkpt>
445<trkpt lat="-27.38528944" lon="153.11899894"><ele>42.79999923706055</ele><time>2014-01-18T22:06:51Z</time><course>213.8</course><speed>3.0</speed><src>gps</src><sat>24</sat><hdop>0.6</hdop></trkpt>
446<trkpt lat="-27.38533167" lon="153.11898315"><ele>43.0</ele><time>2014-01-18T22:06:53Z</time><course>201.1</course><speed>2.5</speed><src>gps</src><sat>25</sat><hdop>0.8</hdop></trkpt>
447<trkpt lat="-27.38534109" lon="153.11898375"><ele>43.20000076293945</ele><time>2014-01-18T22:06:54Z</time><course>194.2</course><speed>1.5</speed><src>gps</src><sat>25</sat><hdop>0.6</hdop></trkpt>
448<trkpt lat="-27.38535093" lon="153.11898346"><ele>43.599998474121094</ele><time>2014-01-18T22:06:55Z</time><course>193.3</course><speed>1.5</speed><src>gps</src><sat>25</sat><hdop>0.6</hdop></trkpt>
449<trkpt lat="-27.38536061" lon="153.11898235"><ele>43.900001525878906</ele><time>2014-01-18T22:06:56Z</time><course>196.4</course><speed>1.5</speed><src>gps</src><sat>25</sat><hdop>0.6</hdop></trkpt>
450<trkpt lat="-27.3853779" lon="153.11896927"><ele>43.900001525878906</ele><time>2014-01-18T22:06:58Z</time><course>216.5</course><speed>1.5</speed><src>gps</src><sat>25</sat><hdop>0.6</hdop></trkpt>
451<trkpt lat="-27.38538443" lon="153.11896078"><ele>44.5</ele><time>2014-01-18T22:06:59Z</time><course>221.3</course><speed>1.25</speed><src>gps</src><sat>25</sat><hdop>0.6</hdop></trkpt>
452<trkpt lat="-27.38538082" lon="153.11896074"><ele>45.79999923706055</ele><time>2014-01-18T22:07:01Z</time><speed>0.0</speed><src>gps</src><sat>25</sat><hdop>0.6</hdop></trkpt>
453<trkpt lat="-27.38537528" lon="153.11896217"><ele>46.5</ele><time>2014-01-18T22:07:03Z</time><speed>0.0</speed><src>gps</src><sat>25</sat><hdop>0.6</hdop></trkpt>
454<trkpt lat="-27.38537535" lon="153.11896166"><ele>47.0</ele><time>2014-01-18T22:07:04Z</time><speed>0.0</speed><src>gps</src><sat>25</sat><hdop>0.6</hdop></trkpt>
455<trkpt lat="-27.38537619" lon="153.11896076"><ele>47.29999923706055</ele><time>2014-01-18T22:07:05Z</time><speed>0.0</speed><src>gps</src><sat>25</sat><hdop>0.6</hdop></trkpt>
456<trkpt lat="-27.38537863" lon="153.11896095"><ele>47.5</ele><time>2014-01-18T22:07:07Z</time><speed>0.0</speed><src>gps</src><sat>25</sat><hdop>0.6</hdop></trkpt>
457<trkpt lat="-27.38537952" lon="153.11896159"><ele>47.70000076293945</ele><time>2014-01-18T22:07:08Z</time><speed>0.0</speed><src>gps</src><sat>26</sat><hdop>0.6</hdop></trkpt>
458<trkpt lat="-27.38538183" lon="153.11896299"><ele>48.29999923706055</ele><time>2014-01-18T22:07:10Z</time><speed>0.0</speed><src>gps</src><sat>26</sat><hdop>0.6</hdop></trkpt>
459<trkpt lat="-27.38538234" lon="153.11896333"><ele>48.400001525878906</ele><time>2014-01-18T22:07:11Z</time><speed>0.0</speed><src>gps</src><sat>26</sat><hdop>0.6</hdop></trkpt>
460<trkpt lat="-27.38538232" lon="153.11896352"><ele>48.5</ele><time>2014-01-18T22:07:12Z</time><speed>0.0</speed><src>gps</src><sat>26</sat><hdop>0.6</hdop></trkpt>
461<trkpt lat="-27.38538204" lon="153.11896358"><ele>48.599998474121094</ele><time>2014-01-18T22:07:14Z</time><speed>0.0</speed><src>gps</src><sat>24</sat><hdop>0.6</hdop></trkpt>
462<trkpt lat="-27.38538195" lon="153.11896358"><ele>48.599998474121094</ele><time>2014-01-18T22:07:15Z</time><speed>0.0</speed><src>gps</src><sat>24</sat><hdop>0.6</hdop></trkpt>
463<trkpt lat="-27.38538184" lon="153.1189636"><ele>48.599998474121094</ele><time>2014-01-18T22:07:17Z</time><speed>0.0</speed><src>gps</src><sat>25</sat><hdop>0.6</hdop></trkpt>
464<trkpt lat="-27.38538175" lon="153.11896359"><ele>48.599998474121094</ele><time>2014-01-18T22:07:19Z</time><speed>0.0</speed><src>gps</src><sat>25</sat><hdop>0.6</hdop></trkpt>
465<trkpt lat="-27.3853817" lon="153.11896358"><ele>48.599998474121094</ele><time>2014-01-18T22:07:20Z</time><speed>0.0</speed><src>gps</src><sat>25</sat><hdop>0.6</hdop></trkpt>
466<trkpt lat="-27.38538165" lon="153.11896358"><ele>48.599998474121094</ele><time>2014-01-18T22:07:21Z</time><speed>0.0</speed><src>gps</src><sat>25</sat><hdop>0.6</hdop></trkpt>
467<trkpt lat="-27.38538158" lon="153.11896358"><ele>48.599998474121094</ele><time>2014-01-18T22:07:23Z</time><speed>0.0</speed><src>gps</src><sat>26</sat><hdop>0.6</hdop></trkpt>
468<trkpt lat="-27.38538155" lon="153.11896358"><ele>48.599998474121094</ele><time>2014-01-18T22:07:24Z</time><speed>0.0</speed><src>gps</src><sat>25</sat><hdop>0.6</hdop></trkpt>
469<trkpt lat="-27.38538151" lon="153.11896359"><ele>48.599998474121094</ele><time>2014-01-18T22:07:25Z</time><speed>0.0</speed><src>gps</src><sat>24</sat><hdop>0.6</hdop></trkpt>
470<trkpt lat="-27.38538144" lon="153.11896361"><ele>48.599998474121094</ele><time>2014-01-18T22:07:27Z</time><speed>0.0</speed><src>gps</src><sat>24</sat><hdop>0.6</hdop></trkpt>
471<trkpt lat="-27.38538323" lon="153.11896193"><ele>48.5</ele><time>2014-01-18T22:07:29Z</time><course>223.6</course><speed>0.25</speed><src>gps</src><sat>24</sat><hdop>0.6</hdop></trkpt>
472<trkpt lat="-27.38539907" lon="153.11894728"><ele>48.29999923706055</ele><time>2014-01-18T22:07:31Z</time><course>220.3</course><speed>1.0</speed><src>gps</src><sat>26</sat><hdop>0.8</hdop></trkpt>
473<trkpt lat="-27.3854566" lon="153.11887989"><ele>48.29999923706055</ele><time>2014-01-18T22:07:33Z</time><course>228.7</course><speed>4.75</speed><src>gps</src><sat>26</sat><hdop>0.8</hdop></trkpt>
474<trkpt lat="-27.38549435" lon="153.11883425"><ele>47.900001525878906</ele><time>2014-01-18T22:07:34Z</time><course>229.7</course><speed>5.5</speed><src>gps</src><sat>25</sat><hdop>0.6</hdop></trkpt>
475<trkpt lat="-27.38555697" lon="153.11877708"><ele>47.5</ele><time>2014-01-18T22:07:35Z</time><course>224.8</course><speed>6.25</speed><src>gps</src><sat>25</sat><hdop>0.6</hdop></trkpt>
476<trkpt lat="-27.38565457" lon="153.11868183"><ele>47.5</ele><time>2014-01-18T22:07:37Z</time><course>224.7</course><speed>7.25</speed><src>gps</src><sat>26</sat><hdop>0.6</hdop></trkpt>
477<trkpt lat="-27.38570737" lon="153.11863098"><ele>47.900001525878906</ele><time>2014-01-18T22:07:38Z</time><course>223.0</course><speed>7.5</speed><src>gps</src><sat>26</sat><hdop>0.6</hdop></trkpt>
478<trkpt lat="-27.38576467" lon="153.118585"><ele>47.5</ele><time>2014-01-18T22:07:39Z</time><course>216.5</course><speed>7.75</speed><src>gps</src><sat>26</sat><hdop>0.6</hdop></trkpt>
479<trkpt lat="-27.3858942" lon="153.118501"><ele>47.900001525878906</ele><time>2014-01-18T22:07:41Z</time><course>209.2</course><speed>8.25</speed><src>gps</src><sat>24</sat><hdop>0.6</hdop></trkpt>
480<trkpt lat="-27.38595985" lon="153.11846332"><ele>46.70000076293945</ele><time>2014-01-18T22:07:42Z</time><course>206.6</course><speed>8.5</speed><src>gps</src><sat>24</sat><hdop>0.6</hdop></trkpt>
481<trkpt lat="-27.38607242" lon="153.11836993"><ele>46.099998474121094</ele><time>2014-01-18T22:07:44Z</time><course>213.0</course><speed>7.75</speed><src>gps</src><sat>25</sat><hdop>0.6</hdop></trkpt>
482<trkpt lat="-27.38613763" lon="153.11832974"><ele>46.599998474121094</ele><time>2014-01-18T22:07:45Z</time><course>212.4</course><speed>8.0</speed><src>gps</src><sat>26</sat><hdop>0.6</hdop></trkpt>
483<trkpt lat="-27.38620315" lon="153.11828253"><ele>46.5</ele><time>2014-01-18T22:07:46Z</time><course>214.7</course><speed>8.5</speed><src>gps</src><sat>26</sat><hdop>0.6</hdop></trkpt>
484<trkpt lat="-27.38633659" lon="153.11815565"><ele>46.29999923706055</ele><time>2014-01-18T22:07:48Z</time><course>222.8</course><speed>9.75</speed><src>gps</src><sat>26</sat><hdop>0.6</hdop></trkpt>
485<trkpt lat="-27.38640613" lon="153.11808568"><ele>45.400001525878906</ele><time>2014-01-18T22:07:49Z</time><course>224.0</course><speed>10.25</speed><src>gps</src><sat>26</sat><hdop>0.6</hdop></trkpt>
486<trkpt lat="-27.38647469" lon="153.118006"><ele>45.400001525878906</ele><time>2014-01-18T22:07:50Z</time><course>225.5</course><speed>10.75</speed><src>gps</src><sat>26</sat><hdop>0.6</hdop></trkpt>
487<trkpt lat="-27.386611" lon="153.11783787"><ele>44.400001525878906</ele><time>2014-01-18T22:07:52Z</time><course>227.3</course><speed>11.5</speed><src>gps</src><sat>26</sat><hdop>0.6</hdop></trkpt>
488<trkpt lat="-27.38668992" lon="153.11775685"><ele>43.900001525878906</ele><time>2014-01-18T22:07:53Z</time><course>223.1</course><speed>11.75</speed><src>gps</src><sat>25</sat><hdop>0.6</hdop></trkpt>
489<trkpt lat="-27.38688419" lon="153.1176414"><ele>44.20000076293945</ele><time>2014-01-18T22:07:55Z</time><course>206.9</course><speed>12.25</speed><src>gps</src><sat>25</sat><hdop>0.6</hdop></trkpt>
490<trkpt lat="-27.38698968" lon="153.11759538"><ele>44.20000076293945</ele><time>2014-01-18T22:07:56Z</time><course>202.9</course><speed>12.75</speed><src>gps</src><sat>26</sat><hdop>0.6</hdop></trkpt>
491<trkpt lat="-27.38709629" lon="153.11754311"><ele>44.599998474121094</ele><time>2014-01-18T22:07:57Z</time><course>203.7</course><speed>12.75</speed><src>gps</src><sat>26</sat><hdop>0.6</hdop></trkpt>
492<trkpt lat="-27.38720273" lon="153.11749047"><ele>44.400001525878906</ele><time>2014-01-18T22:07:58Z</time><course>206.9</course><speed>12.5</speed><src>gps</src><sat>26</sat><hdop>0.6</hdop></trkpt>
493<trkpt lat="-27.38738033" lon="153.11735639"><ele>44.5</ele><time>2014-01-18T22:08:00Z</time><course>217.6</course><speed>11.5</speed><src>gps</src><sat>26</sat><hdop>0.6</hdop></trkpt>
494<trkpt lat="-27.38744912" lon="153.11727415"><ele>44.599998474121094</ele><time>2014-01-18T22:08:01Z</time><course>226.5</course><speed>11.25</speed><src>gps</src><sat>26</sat><hdop>0.6</hdop></trkpt>
495<trkpt lat="-27.38755287" lon="153.11707565"><ele>44.70000076293945</ele><time>2014-01-18T22:08:03Z</time><course>241.6</course><speed>11.25</speed><src>gps</src><sat>25</sat><hdop>0.6</hdop></trkpt>
496<trkpt lat="-27.38759651" lon="153.11697647"><ele>45.20000076293945</ele><time>2014-01-18T22:08:04Z</time><course>245.3</course><speed>11.25</speed><src>gps</src><sat>26</sat><hdop>0.8</hdop></trkpt>
497<trkpt lat="-27.38769069" lon="153.11676073"><ele>43.20000076293945</ele><time>2014-01-18T22:08:06Z</time><course>243.4</course><speed>12.0</speed><src>gps</src><sat>26</sat><hdop>0.8</hdop></trkpt>
498<trkpt lat="-27.38775019" lon="153.11665059"><ele>43.79999923706055</ele><time>2014-01-18T22:08:07Z</time><course>237.7</course><speed>12.5</speed><src>gps</src><sat>25</sat><hdop>0.6</hdop></trkpt>
499<trkpt lat="-27.38793106" lon="153.11647876"><ele>43.599998474121094</ele><time>2014-01-18T22:08:09Z</time><course>216.6</course><speed>13.25</speed><src>gps</src><sat>26</sat><hdop>0.8</hdop></trkpt>
500<trkpt lat="-27.38804503" lon="153.11640348"><ele>43.599998474121094</ele><time>2014-01-18T22:08:10Z</time><course>210.7</course><speed>14.0</speed><src>gps</src><sat>24</sat><hdop>0.6</hdop></trkpt>
501<trkpt lat="-27.38827651" lon="153.11623974"><ele>43.599998474121094</ele><time>2014-01-18T22:08:12Z</time><course>212.5</course><speed>15.5</speed><src>gps</src><sat>25</sat><hdop>0.6</hdop></trkpt>
502<trkpt lat="-27.38839924" lon="153.11615078"><ele>44.0</ele><time>2014-01-18T22:08:13Z</time><course>212.6</course><speed>16.0</speed><src>gps</src><sat>25</sat><hdop>0.6</hdop></trkpt>
503<trkpt lat="-27.38852965" lon="153.11606339"><ele>43.79999923706055</ele><time>2014-01-18T22:08:14Z</time><course>211.2</course><speed>16.5</speed><src>gps</src><sat>26</sat><hdop>0.6</hdop></trkpt>
504<trkpt lat="-27.38879562" lon="153.11588284"><ele>44.70000076293945</ele><time>2014-01-18T22:08:16Z</time><course>210.8</course><speed>17.5</speed><src>gps</src><sat>26</sat><hdop>0.6</hdop></trkpt>
505<trkpt lat="-27.38893642" lon="153.11578997"><ele>44.5</ele><time>2014-01-18T22:08:17Z</time><course>210.8</course><speed>18.0</speed><src>gps</src><sat>25</sat><hdop>0.6</hdop></trkpt>
506<trkpt lat="-27.38923088" lon="153.11560588"><ele>44.400001525878906</ele><time>2014-01-18T22:08:19Z</time><course>208.9</course><speed>18.75</speed><src>gps</src><sat>25</sat><hdop>0.6</hdop></trkpt>
507<trkpt lat="-27.38953261" lon="153.1154226"><ele>44.70000076293945</ele><time>2014-01-18T22:08:21Z</time><course>207.7</course><speed>19.25</speed><src>gps</src><sat>26</sat><hdop>0.6</hdop></trkpt>
508<trkpt lat="-27.38968836" lon="153.11533248"><ele>44.400001525878906</ele><time>2014-01-18T22:08:22Z</time><course>207.3</course><speed>19.25</speed><src>gps</src><sat>26</sat><hdop>0.6</hdop></trkpt>
509<trkpt lat="-27.390009" lon="153.11515129"><ele>44.70000076293945</ele><time>2014-01-18T22:08:24Z</time><course>207.1</course><speed>19.75</speed><src>gps</src><sat>26</sat><hdop>0.6</hdop></trkpt>
510<trkpt lat="-27.39032936" lon="153.11496524"><ele>46.099998474121094</ele><time>2014-01-18T22:08:26Z</time><course>207.2</course><speed>19.75</speed><src>gps</src><sat>26</sat><hdop>0.6</hdop></trkpt>
511<trkpt lat="-27.39048787" lon="153.11486979"><ele>47.0</ele><time>2014-01-18T22:08:27Z</time><course>207.3</course><speed>19.75</speed><src>gps</src><sat>26</sat><hdop>0.6</hdop></trkpt>
512<trkpt lat="-27.39064621" lon="153.11477974"><ele>47.900001525878906</ele><time>2014-01-18T22:08:28Z</time><course>207.4</course><speed>19.75</speed><src>gps</src><sat>26</sat><hdop>0.6</hdop></trkpt>
513<trkpt lat="-27.39094524" lon="153.11457914"><ele>50.79999923706055</ele><time>2014-01-18T22:08:30Z</time><course>212.6</course><speed>19.25</speed><src>gps</src><sat>26</sat><hdop>0.6</hdop></trkpt>
514<trkpt lat="-27.39107572" lon="153.11445848"><ele>51.79999923706055</ele><time>2014-01-18T22:08:31Z</time><course>219.2</course><speed>18.75</speed><src>gps</src><sat>26</sat><hdop>0.6</hdop></trkpt>
515<trkpt lat="-27.39118937" lon="153.11431743"><ele>52.400001525878906</ele><time>2014-01-18T22:08:32Z</time><course>226.7</course><speed>19.0</speed><src>gps</src><sat>26</sat><hdop>0.6</hdop></trkpt>
516<trkpt lat="-27.39128749" lon="153.11416499"><ele>52.599998474121094</ele><time>2014-01-18T22:08:33Z</time><course>234.2</course><speed>18.75</speed><src>gps</src><sat>26</sat><hdop>0.6</hdop></trkpt>
517<trkpt lat="-27.39141904" lon="153.11381556"><ele>52.20000076293945</ele><time>2014-01-18T22:08:35Z</time><course>249.6</course><speed>18.75</speed><src>gps</src><sat>26</sat><hdop>0.6</hdop></trkpt>
518<trkpt lat="-27.39148511" lon="153.11342458"><ele>49.0</ele><time>2014-01-18T22:08:37Z</time><course>261.2</course><speed>20.0</speed><src>gps</src><sat>26</sat><hdop>0.6</hdop></trkpt>
519<trkpt lat="-27.39150315" lon="153.11321323"><ele>47.20000076293945</ele><time>2014-01-18T22:08:38Z</time><course>263.0</course><speed>20.75</speed><src>gps</src><sat>25</sat><hdop>0.6</hdop></trkpt>
520<trkpt lat="-27.39155726" lon="153.11277103"><ele>43.5</ele><time>2014-01-18T22:08:40Z</time><course>261.1</course><speed>22.25</speed><src>gps</src><sat>24</sat><hdop>0.6</hdop></trkpt>
521<trkpt lat="-27.391587350000002" lon="153.1125446"><ele>42.400001525878906</ele><time>2014-01-18T22:08:41Z</time><course>261.3</course><speed>22.75</speed><src>gps</src><sat>24</sat><hdop>0.6</hdop></trkpt>
522<trkpt lat="-27.39166877" lon="153.11208329"><ele>42.5</ele><time>2014-01-18T22:08:43Z</time><course>258.6</course><speed>23.0</speed><src>gps</src><sat>23</sat><hdop>0.8</hdop></trkpt>
523<trkpt lat="-27.39178672" lon="153.11161829"><ele>42.5</ele><time>2014-01-18T22:08:45Z</time><course>254.0</course><speed>23.5</speed><src>gps</src><sat>24</sat><hdop>0.6</hdop></trkpt>
524<trkpt lat="-27.39185521" lon="153.11138818"><ele>42.20000076293945</ele><time>2014-01-18T22:08:46Z</time><course>252.0</course><speed>23.75</speed><src>gps</src><sat>25</sat><hdop>0.6</hdop></trkpt>
525<trkpt lat="-27.39193171" lon="153.11116295"><ele>42.5</ele><time>2014-01-18T22:08:47Z</time><course>249.7</course><speed>24.0</speed><src>gps</src><sat>25</sat><hdop>0.6</hdop></trkpt>
526<trkpt lat="-27.39210313" lon="153.11072099"><ele>41.79999923706055</ele><time>2014-01-18T22:08:49Z</time><course>245.5</course><speed>24.0</speed><src>gps</src><sat>25</sat><hdop>0.6</hdop></trkpt>
527<trkpt lat="-27.39220255" lon="153.1105046"><ele>42.70000076293945</ele><time>2014-01-18T22:08:50Z</time><course>243.4</course><speed>24.0</speed><src>gps</src><sat>25</sat><hdop>0.8</hdop></trkpt>
528<trkpt lat="-27.39241936" lon="153.11008988"><ele>43.400001525878906</ele><time>2014-01-18T22:08:52Z</time><course>239.2</course><speed>23.75</speed><src>gps</src><sat>25</sat><hdop>0.6</hdop></trkpt>
529<trkpt lat="-27.39253638" lon="153.10988966"><ele>43.70000076293945</ele><time>2014-01-18T22:08:53Z</time><course>237.0</course><speed>23.5</speed><src>gps</src><sat>26</sat><hdop>0.8</hdop></trkpt>
530<trkpt lat="-27.39266168" lon="153.10969533"><ele>44.0</ele><time>2014-01-18T22:08:54Z</time><course>235.1</course><speed>23.75</speed><src>gps</src><sat>26</sat><hdop>0.6</hdop></trkpt>
531<trkpt lat="-27.3927965" lon="153.10950656"><ele>44.099998474121094</ele><time>2014-01-18T22:08:55Z</time><course>232.6</course><speed>23.75</speed><src>gps</src><sat>26</sat><hdop>0.8</hdop></trkpt>
532<trkpt lat="-27.39306575" lon="153.10914135"><ele>43.29999923706055</ele><time>2014-01-18T22:08:57Z</time><course>228.2</course><speed>23.75</speed><src>gps</src><sat>26</sat><hdop>0.6</hdop></trkpt>
533<trkpt lat="-27.39337159" lon="153.10880336"><ele>43.0</ele><time>2014-01-18T22:08:59Z</time><course>224.3</course><speed>24.0</speed><src>gps</src><sat>24</sat><hdop>0.8</hdop></trkpt>
534<trkpt lat="-27.39352857" lon="153.10863926"><ele>43.5</ele><time>2014-01-18T22:09:00Z</time><course>223.3</course><speed>23.75</speed><src>gps</src><sat>25</sat><hdop>0.6</hdop></trkpt>
535<trkpt lat="-27.39384794" lon="153.10831017"><ele>43.5</ele><time>2014-01-18T22:09:02Z</time><course>222.4</course><speed>24.0</speed><src>gps</src><sat>25</sat><hdop>0.6</hdop></trkpt>
536<trkpt lat="-27.39400611" lon="153.10814709"><ele>43.900001525878906</ele><time>2014-01-18T22:09:03Z</time><course>222.4</course><speed>23.75</speed><src>gps</src><sat>25</sat><hdop>0.6</hdop></trkpt>
537<trkpt lat="-27.39416616" lon="153.10798556"><ele>44.29999923706055</ele><time>2014-01-18T22:09:04Z</time><course>222.7</course><speed>23.75</speed><src>gps</src><sat>26</sat><hdop>0.6</hdop></trkpt>
538<trkpt lat="-27.39448284" lon="153.10766828"><ele>45.79999923706055</ele><time>2014-01-18T22:09:06Z</time><course>222.9</course><speed>23.25</speed><src>gps</src><sat>26</sat><hdop>0.6</hdop></trkpt>
539<trkpt lat="-27.39463952" lon="153.10750947"><ele>46.900001525878906</ele><time>2014-01-18T22:09:07Z</time><course>222.8</course><speed>23.25</speed><src>gps</src><sat>26</sat><hdop>0.6</hdop></trkpt>
540<trkpt lat="-27.39479338" lon="153.10734753"><ele>47.79999923706055</ele><time>2014-01-18T22:09:08Z</time><course>222.5</course><speed>23.25</speed><src>gps</src><sat>26</sat><hdop>0.6</hdop></trkpt>
541<trkpt lat="-27.3949494" lon="153.10718629"><ele>48.400001525878906</ele><time>2014-01-18T22:09:09Z</time><course>222.4</course><speed>23.25</speed><src>gps</src><sat>26</sat><hdop>0.6</hdop></trkpt>
542<trkpt lat="-27.39526427" lon="153.10686262"><ele>49.099998474121094</ele><time>2014-01-18T22:09:11Z</time><course>222.9</course><speed>23.5</speed><src>gps</src><sat>26</sat><hdop>0.6</hdop></trkpt>
543<trkpt lat="-27.39558395" lon="153.10653365"><ele>49.5</ele><time>2014-01-18T22:09:13Z</time><course>222.6</course><speed>24.0</speed><src>gps</src><sat>26</sat><hdop>0.6</hdop></trkpt>
544<trkpt lat="-27.3957436" lon="153.10636955"><ele>49.79999923706055</ele><time>2014-01-18T22:09:14Z</time><course>222.5</course><speed>24.0</speed><src>gps</src><sat>26</sat><hdop>0.6</hdop></trkpt>
545<trkpt lat="-27.39606278" lon="153.10604198"><ele>50.20000076293945</ele><time>2014-01-18T22:09:16Z</time><course>222.3</course><speed>24.0</speed><src>gps</src><sat>26</sat><hdop>0.6</hdop></trkpt>
546<trkpt lat="-27.39621914" lon="153.10587865"><ele>50.29999923706055</ele><time>2014-01-18T22:09:17Z</time><course>222.8</course><speed>24.0</speed><src>gps</src><sat>26</sat><hdop>0.6</hdop></trkpt>
547<trkpt lat="-27.39653701" lon="153.10555513"><ele>49.79999923706055</ele><time>2014-01-18T22:09:19Z</time><course>222.7</course><speed>24.0</speed><src>gps</src><sat>26</sat><hdop>0.6</hdop></trkpt>
548<trkpt lat="-27.39669781" lon="153.1053885"><ele>49.400001525878906</ele><time>2014-01-18T22:09:20Z</time><course>222.7</course><speed>24.25</speed><src>gps</src><sat>26</sat><hdop>0.6</hdop></trkpt>
549<trkpt lat="-27.39702104" lon="153.10505558"><ele>49.29999923706055</ele><time>2014-01-18T22:09:22Z</time><course>222.5</course><speed>24.25</speed><src>gps</src><sat>26</sat><hdop>0.6</hdop></trkpt>
550<trkpt lat="-27.39718183" lon="153.10488766"><ele>48.70000076293945</ele><time>2014-01-18T22:09:23Z</time><course>222.7</course><speed>24.25</speed><src>gps</src><sat>26</sat><hdop>0.6</hdop></trkpt>
551<trkpt lat="-27.39733921" lon="153.10472174"><ele>48.400001525878906</ele><time>2014-01-18T22:09:24Z</time><course>222.6</course><speed>24.25</speed><src>gps</src><sat>26</sat><hdop>0.6</hdop></trkpt>
552<trkpt lat="-27.39765697" lon="153.10439057"><ele>47.599998474121094</ele><time>2014-01-18T22:09:26Z</time><course>222.7</course><speed>24.0</speed><src>gps</src><sat>26</sat><hdop>0.6</hdop></trkpt>
553<trkpt lat="-27.39781477" lon="153.10422632"><ele>46.70000076293945</ele><time>2014-01-18T22:09:27Z</time><course>222.7</course><speed>24.0</speed><src>gps</src><sat>26</sat><hdop>0.6</hdop></trkpt>
554<trkpt lat="-27.39797589" lon="153.10405945"><ele>46.0</ele><time>2014-01-18T22:09:28Z</time><course>222.8</course><speed>24.25</speed><src>gps</src><sat>26</sat><hdop>0.6</hdop></trkpt>
555<trkpt lat="-27.39829479" lon="153.1037278"><ele>44.79999923706055</ele><time>2014-01-18T22:09:30Z</time><course>222.7</course><speed>24.0</speed><src>gps</src><sat>26</sat><hdop>0.6</hdop></trkpt>
556<trkpt lat="-27.39861426" lon="153.10340754"><ele>44.400001525878906</ele><time>2014-01-18T22:09:32Z</time><course>222.4</course><speed>23.75</speed><src>gps</src><sat>26</sat><hdop>0.6</hdop></trkpt>
557<trkpt lat="-27.39877005" lon="153.10324919"><ele>45.099998474121094</ele><time>2014-01-18T22:09:33Z</time><course>222.5</course><speed>23.5</speed><src>gps</src><sat>25</sat><hdop>0.6</hdop></trkpt>
558<trkpt lat="-27.39908349" lon="153.1029292"><ele>44.79999923706055</ele><time>2014-01-18T22:09:35Z</time><course>222.8</course><speed>23.5</speed><src>gps</src><sat>25</sat><hdop>0.6</hdop></trkpt>
559<trkpt lat="-27.39924474" lon="153.10276564"><ele>45.400001525878906</ele><time>2014-01-18T22:09:36Z</time><course>222.7</course><speed>23.75</speed><src>gps</src><sat>25</sat><hdop>0.6</hdop></trkpt>
560<trkpt lat="-27.39956215" lon="153.10244042"><ele>45.5</ele><time>2014-01-18T22:09:38Z</time><course>222.0</course><speed>23.75</speed><src>gps</src><sat>25</sat><hdop>0.6</hdop></trkpt>
561<trkpt lat="-27.39972494" lon="153.10228281"><ele>45.5</ele><time>2014-01-18T22:09:39Z</time><course>220.8</course><speed>23.75</speed><src>gps</src><sat>25</sat><hdop>0.6</hdop></trkpt>
562<trkpt lat="-27.40005109" lon="153.10197022"><ele>45.79999923706055</ele><time>2014-01-18T22:09:41Z</time><course>220.7</course><speed>23.75</speed><src>gps</src><sat>25</sat><hdop>0.6</hdop></trkpt>
563<trkpt lat="-27.4002161" lon="153.10181199"><ele>45.79999923706055</ele><time>2014-01-18T22:09:42Z</time><course>221.3</course><speed>23.75</speed><src>gps</src><sat>25</sat><hdop>0.6</hdop></trkpt>
564<trkpt lat="-27.40054207" lon="153.10149542"><ele>46.400001525878906</ele><time>2014-01-18T22:09:44Z</time><course>220.5</course><speed>23.75</speed><src>gps</src><sat>25</sat><hdop>0.6</hdop></trkpt>
565<trkpt lat="-27.40070567" lon="153.10133453"><ele>46.20000076293945</ele><time>2014-01-18T22:09:45Z</time><course>220.7</course><speed>24.0</speed><src>gps</src><sat>25</sat><hdop>0.6</hdop></trkpt>
566<trkpt lat="-27.40086751" lon="153.10117885"><ele>46.20000076293945</ele><time>2014-01-18T22:09:46Z</time><course>221.0</course><speed>24.0</speed><src>gps</src><sat>25</sat><hdop>0.6</hdop></trkpt>
567<trkpt lat="-27.40118699" lon="153.10086158"><ele>46.0</ele><time>2014-01-18T22:09:48Z</time><course>222.2</course><speed>24.0</speed><src>gps</src><sat>25</sat><hdop>0.6</hdop></trkpt>
568<trkpt lat="-27.40134675" lon="153.1006976"><ele>46.5</ele><time>2014-01-18T22:09:49Z</time><course>222.6</course><speed>24.0</speed><src>gps</src><sat>25</sat><hdop>0.6</hdop></trkpt>
569<trkpt lat="-27.40150514" lon="153.10053289"><ele>47.099998474121094</ele><time>2014-01-18T22:09:50Z</time><course>222.7</course><speed>23.75</speed><src>gps</src><sat>25</sat><hdop>0.6</hdop></trkpt>
570<trkpt lat="-27.40181776" lon="153.1002025"><ele>47.900001525878906</ele><time>2014-01-18T22:09:52Z</time><course>222.7</course><speed>24.0</speed><src>gps</src><sat>25</sat><hdop>0.6</hdop></trkpt>
571<trkpt lat="-27.40213789" lon="153.09988056"><ele>48.20000076293945</ele><time>2014-01-18T22:09:54Z</time><course>221.5</course><speed>24.0</speed><src>gps</src><sat>25</sat><hdop>0.6</hdop></trkpt>
572<trkpt lat="-27.40230531" lon="153.09972275"><ele>48.29999923706055</ele><time>2014-01-18T22:09:55Z</time><course>220.3</course><speed>24.0</speed><src>gps</src><sat>25</sat><hdop>0.6</hdop></trkpt>
573<trkpt lat="-27.4026414" lon="153.09941724"><ele>48.099998474121094</ele><time>2014-01-18T22:09:57Z</time><course>219.0</course><speed>24.0</speed><src>gps</src><sat>26</sat><hdop>0.6</hdop></trkpt>
574<trkpt lat="-27.40298409" lon="153.09911725"><ele>47.70000076293945</ele><time>2014-01-18T22:09:59Z</time><course>217.4</course><speed>24.0</speed><src>gps</src><sat>26</sat><hdop>0.6</hdop></trkpt>
575<trkpt lat="-27.40333778" lon="153.09884422"><ele>47.79999923706055</ele><time>2014-01-18T22:10:01Z</time><course>213.1</course><speed>23.75</speed><src>gps</src><sat>26</sat><hdop>0.6</hdop></trkpt>
576<trkpt lat="-27.40370317" lon="153.09861297"><ele>47.900001525878906</ele><time>2014-01-18T22:10:03Z</time><course>209.2</course><speed>23.0</speed><src>gps</src><sat>26</sat><hdop>0.6</hdop></trkpt>
577<trkpt lat="-27.40388474" lon="153.09850718"><ele>48.099998474121094</ele><time>2014-01-18T22:10:04Z</time><course>207.9</course><speed>22.5</speed><src>gps</src><sat>26</sat><hdop>0.6</hdop></trkpt>
578<trkpt lat="-27.40406022" lon="153.09840231"><ele>48.70000076293945</ele><time>2014-01-18T22:10:05Z</time><course>207.8</course><speed>22.5</speed><src>gps</src><sat>26</sat><hdop>0.6</hdop></trkpt>
579<trkpt lat="-27.40423059" lon="153.09829551"><ele>49.099998474121094</ele><time>2014-01-18T22:10:06Z</time><course>208.8</course><speed>22.25</speed><src>gps</src><sat>26</sat><hdop>0.6</hdop></trkpt>
580<trkpt lat="-27.40455909" lon="153.0980634"><ele>51.0</ele><time>2014-01-18T22:10:08Z</time><course>213.5</course><speed>21.5</speed><src>gps</src><sat>26</sat><hdop>0.6</hdop></trkpt>
581<trkpt lat="-27.40471036" lon="153.09793006"><ele>51.79999923706055</ele><time>2014-01-18T22:10:09Z</time><course>217.2</course><speed>21.25</speed><src>gps</src><sat>26</sat><hdop>0.6</hdop></trkpt>
582<trkpt lat="-27.40485578" lon="153.09778517"><ele>52.79999923706055</ele><time>2014-01-18T22:10:10Z</time><course>221.4</course><speed>21.25</speed><src>gps</src><sat>26</sat><hdop>0.6</hdop></trkpt>
583<trkpt lat="-27.40511158" lon="153.09746237"><ele>53.900001525878906</ele><time>2014-01-18T22:10:12Z</time><course>229.9</course><speed>21.25</speed><src>gps</src><sat>26</sat><hdop>0.6</hdop></trkpt>
584<trkpt lat="-27.40522295" lon="153.09728424"><ele>54.5</ele><time>2014-01-18T22:10:13Z</time><course>233.8</course><speed>21.5</speed><src>gps</src><sat>26</sat><hdop>0.6</hdop></trkpt>
585<trkpt lat="-27.40532381" lon="153.09709926"><ele>55.099998474121094</ele><time>2014-01-18T22:10:14Z</time><course>237.6</course><speed>21.5</speed><src>gps</src><sat>26</sat><hdop>0.6</hdop></trkpt>
586<trkpt lat="-27.4054161" lon="153.09690798"><ele>55.400001525878906</ele><time>2014-01-18T22:10:15Z</time><course>241.6</course><speed>21.75</speed><src>gps</src><sat>26</sat><hdop>0.6</hdop></trkpt>
587<trkpt lat="-27.40556509" lon="153.09650071"><ele>55.20000076293945</ele><time>2014-01-18T22:10:17Z</time><course>249.3</course><speed>21.75</speed><src>gps</src><sat>26</sat><hdop>0.8</hdop></trkpt>
588<trkpt lat="-27.40560741" lon="153.09628321"><ele>54.20000076293945</ele><time>2014-01-18T22:10:18Z</time><course>256.3</course><speed>21.5</speed><src>gps</src><sat>12</sat><hdop>0.6</hdop></trkpt>
589<trkpt lat="-27.40567142" lon="153.09584946"><ele>53.400001525878906</ele><time>2014-01-18T22:10:20Z</time><course>262.4</course><speed>21.75</speed><src>gps</src><sat>25</sat><hdop>0.6</hdop></trkpt>
590<trkpt lat="-27.40568544" lon="153.09562555"><ele>52.400001525878906</ele><time>2014-01-18T22:10:21Z</time><course>265.6</course><speed>22.0</speed><src>gps</src><sat>25</sat><hdop>0.6</hdop></trkpt>
591<trkpt lat="-27.40569219" lon="153.09539669"><ele>50.29999923706055</ele><time>2014-01-18T22:10:22Z</time><course>268.1</course><speed>22.25</speed><src>gps</src><sat>25</sat><hdop>0.6</hdop></trkpt>
592<trkpt lat="-27.40569533" lon="153.09516575"><ele>48.5</ele><time>2014-01-18T22:10:23Z</time><course>269.2</course><speed>22.75</speed><src>gps</src><sat>25</sat><hdop>0.6</hdop></trkpt>
593<trkpt lat="-27.40570042" lon="153.09468999"><ele>46.0</ele><time>2014-01-18T22:10:25Z</time><course>268.4</course><speed>23.75</speed><src>gps</src><sat>25</sat><hdop>0.6</hdop></trkpt>
594<trkpt lat="-27.40571768" lon="153.09420653"><ele>44.70000076293945</ele><time>2014-01-18T22:10:27Z</time><course>266.9</course><speed>24.0</speed><src>gps</src><sat>25</sat><hdop>0.6</hdop></trkpt>
595<trkpt lat="-27.40574458" lon="153.09372715"><ele>45.5</ele><time>2014-01-18T22:10:29Z</time><course>265.7</course><speed>23.25</speed><src>gps</src><sat>25</sat><hdop>0.8</hdop></trkpt>
596<trkpt lat="-27.40576671" lon="153.09348909"><ele>45.20000076293945</ele><time>2014-01-18T22:10:30Z</time><course>264.6</course><speed>23.5</speed><src>gps</src><sat>25</sat><hdop>0.8</hdop></trkpt>
597<trkpt lat="-27.40581874" lon="153.09302231"><ele>44.900001525878906</ele><time>2014-01-18T22:10:32Z</time><course>262.4</course><speed>23.5</speed><src>gps</src><sat>27</sat><hdop>0.6</hdop></trkpt>
598<trkpt lat="-27.40584958" lon="153.09278686"><ele>44.5</ele><time>2014-01-18T22:10:33Z</time><course>260.8</course><speed>23.5</speed><src>gps</src><sat>27</sat><hdop>0.6</hdop></trkpt>
599<trkpt lat="-27.40595176" lon="153.09231801"><ele>44.70000076293945</ele><time>2014-01-18T22:10:35Z</time><course>255.4</course><speed>23.75</speed><src>gps</src><sat>27</sat><hdop>0.6</hdop></trkpt>
600<trkpt lat="-27.40609584" lon="153.09186563"><ele>44.099998474121094</ele><time>2014-01-18T22:10:37Z</time><course>249.5</course><speed>23.75</speed><src>gps</src><sat>26</sat><hdop>0.6</hdop></trkpt>
601<trkpt lat="-27.40628463" lon="153.09143226"><ele>43.5</ele><time>2014-01-18T22:10:39Z</time><course>244.3</course><speed>23.75</speed><src>gps</src><sat>26</sat><hdop>0.6</hdop></trkpt>
602<trkpt lat="-27.40638867" lon="153.09122147"><ele>43.099998474121094</ele><time>2014-01-18T22:10:40Z</time><course>241.6</course><speed>23.75</speed><src>gps</src><sat>26</sat><hdop>0.6</hdop></trkpt>
603<trkpt lat="-27.40662243" lon="153.0908189"><ele>41.900001525878906</ele><time>2014-01-18T22:10:42Z</time><course>235.9</course><speed>24.0</speed><src>gps</src><sat>26</sat><hdop>0.6</hdop></trkpt>
604<trkpt lat="-27.40675217" lon="153.09062122"><ele>41.5</ele><time>2014-01-18T22:10:43Z</time><course>233.4</course><speed>24.25</speed><src>gps</src><sat>26</sat><hdop>0.6</hdop></trkpt>
605<trkpt lat="-27.40704249" lon="153.09025095"><ele>41.70000076293945</ele><time>2014-01-18T22:10:45Z</time><course>227.9</course><speed>24.25</speed><src>gps</src><sat>26</sat><hdop>0.6</hdop></trkpt>
606<trkpt lat="-27.40735888" lon="153.08990818"><ele>42.20000076293945</ele><time>2014-01-18T22:10:47Z</time><course>223.8</course><speed>24.25</speed><src>gps</src><sat>27</sat><hdop>0.6</hdop></trkpt>
607<trkpt lat="-27.40752518" lon="153.08974159"><ele>42.900001525878906</ele><time>2014-01-18T22:10:48Z</time><course>222.2</course><speed>24.25</speed><src>gps</src><sat>27</sat><hdop>0.6</hdop></trkpt>
608<trkpt lat="-27.40769366" lon="153.08958035"><ele>43.0</ele><time>2014-01-18T22:10:49Z</time><course>221.2</course><speed>24.75</speed><src>gps</src><sat>27</sat><hdop>0.6</hdop></trkpt>
609<trkpt lat="-27.40804465" lon="153.08925884"><ele>44.400001525878906</ele><time>2014-01-18T22:10:51Z</time><course>218.7</course><speed>25.0</speed><src>gps</src><sat>27</sat><hdop>0.6</hdop></trkpt>
610<trkpt lat="-27.40840313" lon="153.08896351"><ele>45.900001525878906</ele><time>2014-01-18T22:10:53Z</time><course>216.5</course><speed>24.75</speed><src>gps</src><sat>27</sat><hdop>0.6</hdop></trkpt>
611<trkpt lat="-27.40859182" lon="153.08881081"><ele>46.29999923706055</ele><time>2014-01-18T22:10:54Z</time><course>216.1</course><speed>25.5</speed><src>gps</src><sat>27</sat><hdop>0.8</hdop></trkpt>
612<trkpt lat="-27.40878208" lon="153.0886813"><ele>47.099998474121094</ele><time>2014-01-18T22:10:55Z</time><course>212.8</course><speed>25.0</speed><src>gps</src><sat>27</sat><hdop>0.6</hdop></trkpt>
613<trkpt lat="-27.40897954" lon="153.08854535"><ele>47.0</ele><time>2014-01-18T22:10:56Z</time><course>211.3</course><speed>25.25</speed><src>gps</src><sat>27</sat><hdop>0.6</hdop></trkpt>
614<trkpt lat="-27.40938745" lon="153.08829151"><ele>48.400001525878906</ele><time>2014-01-18T22:10:58Z</time><course>209.0</course><speed>26.0</speed><src>gps</src><sat>27</sat><hdop>0.6</hdop></trkpt>
615<trkpt lat="-27.40959573" lon="153.08816589"><ele>48.900001525878906</ele><time>2014-01-18T22:10:59Z</time><course>208.3</course><speed>26.25</speed><src>gps</src><sat>27</sat><hdop>0.6</hdop></trkpt>
616<trkpt lat="-27.41001517" lon="153.08792366"><ele>49.29999923706055</ele><time>2014-01-18T22:11:01Z</time><course>207.2</course><speed>26.25</speed><src>gps</src><sat>27</sat><hdop>0.6</hdop></trkpt>
617<trkpt lat="-27.41022635" lon="153.08780715"><ele>49.70000076293945</ele><time>2014-01-18T22:11:02Z</time><course>205.8</course><speed>26.0</speed><src>gps</src><sat>27</sat><hdop>0.6</hdop></trkpt>
618<trkpt lat="-27.41043901" lon="153.08770249"><ele>49.900001525878906</ele><time>2014-01-18T22:11:03Z</time><course>204.0</course><speed>26.0</speed><src>gps</src><sat>27</sat><hdop>0.6</hdop></trkpt>
619<trkpt lat="-27.41086742" lon="153.08751887"><ele>49.79999923706055</ele><time>2014-01-18T22:11:05Z</time><course>200.3</course><speed>26.0</speed><src>gps</src><sat>27</sat><hdop>0.6</hdop></trkpt>
620<trkpt lat="-27.4113118" lon="153.08735984"><ele>50.0</ele><time>2014-01-18T22:11:07Z</time><course>197.7</course><speed>26.25</speed><src>gps</src><sat>26</sat><hdop>0.6</hdop></trkpt>
621<trkpt lat="-27.41153566" lon="153.08728464"><ele>49.900001525878906</ele><time>2014-01-18T22:11:08Z</time><course>196.4</course><speed>26.25</speed><src>gps</src><sat>26</sat><hdop>0.6</hdop></trkpt>
622<trkpt lat="-27.41199434" lon="153.08715401"><ele>49.70000076293945</ele><time>2014-01-18T22:11:10Z</time><course>193.9</course><speed>26.5</speed><src>gps</src><sat>27</sat><hdop>0.6</hdop></trkpt>
623<trkpt lat="-27.41222718" lon="153.08709314"><ele>49.70000076293945</ele><time>2014-01-18T22:11:11Z</time><course>192.6</course><speed>26.5</speed><src>gps</src><sat>27</sat><hdop>0.6</hdop></trkpt>
624<trkpt lat="-27.4124608" lon="153.08703978"><ele>49.599998474121094</ele><time>2014-01-18T22:11:12Z</time><course>191.2</course><speed>26.5</speed><src>gps</src><sat>27</sat><hdop>0.6</hdop></trkpt>
625<trkpt lat="-27.41269991" lon="153.08698924"><ele>49.70000076293945</ele><time>2014-01-18T22:11:13Z</time><course>189.9</course><speed>26.5</speed><src>gps</src><sat>27</sat><hdop>0.6</hdop></trkpt>
626<trkpt lat="-27.4131747" lon="153.08692082"><ele>49.70000076293945</ele><time>2014-01-18T22:11:15Z</time><course>186.5</course><speed>26.5</speed><src>gps</src><sat>27</sat><hdop>0.6</hdop></trkpt>
627<trkpt lat="-27.41365666" lon="153.08688119"><ele>47.79999923706055</ele><time>2014-01-18T22:11:17Z</time><course>183.7</course><speed>26.5</speed><src>gps</src><sat>27</sat><hdop>0.6</hdop></trkpt>
628<trkpt lat="-27.41413053" lon="153.08686551"><ele>45.5</ele><time>2014-01-18T22:11:19Z</time><course>181.5</course><speed>26.5</speed><src>gps</src><sat>27</sat><hdop>0.6</hdop></trkpt>
629<trkpt lat="-27.41460806" lon="153.08686957"><ele>43.099998474121094</ele><time>2014-01-18T22:11:21Z</time><course>179.2</course><speed>26.5</speed><src>gps</src><sat>27</sat><hdop>0.6</hdop></trkpt>
630<trkpt lat="-27.41508828" lon="153.08689508"><ele>41.20000076293945</ele><time>2014-01-18T22:11:23Z</time><course>177.2</course><speed>26.5</speed><src>gps</src><sat>27</sat><hdop>0.6</hdop></trkpt>
631<trkpt lat="-27.41532488" lon="153.08691458"><ele>40.79999923706055</ele><time>2014-01-18T22:11:24Z</time><course>175.8</course><speed>26.25</speed><src>gps</src><sat>27</sat><hdop>0.6</hdop></trkpt>
632<trkpt lat="-27.4157986" lon="153.08697273"><ele>41.5</ele><time>2014-01-18T22:11:26Z</time><course>172.8</course><speed>26.75</speed><src>gps</src><sat>27</sat><hdop>0.8</hdop></trkpt>
633<trkpt lat="-27.41603522" lon="153.08703578"><ele>42.599998474121094</ele><time>2014-01-18T22:11:27Z</time><course>169.6</course><speed>27.0</speed><src>gps</src><sat>27</sat><hdop>1.0</hdop></trkpt>
634<trkpt lat="-27.41648009" lon="153.08711227"><ele>43.0</ele><time>2014-01-18T22:11:29Z</time><course>169.5</course><speed>25.75</speed><src>gps</src><sat>27</sat><hdop>0.6</hdop></trkpt>
635<trkpt lat="-27.41691893" lon="153.08721173"><ele>42.79999923706055</ele><time>2014-01-18T22:11:31Z</time><course>168.2</course><speed>24.5</speed><src>gps</src><sat>27</sat><hdop>0.8</hdop></trkpt>
636<trkpt lat="-27.41714913" lon="153.08728052"><ele>42.5</ele><time>2014-01-18T22:11:32Z</time><course>166.7</course><speed>25.25</speed><src>gps</src><sat>27</sat><hdop>1.0</hdop></trkpt>
637<trkpt lat="-27.41762861" lon="153.08743759"><ele>45.5</ele><time>2014-01-18T22:11:34Z</time><course>162.9</course><speed>26.25</speed><src>gps</src><sat>27</sat><hdop>0.6</hdop></trkpt>
638<trkpt lat="-27.41808104" lon="153.08760807"><ele>46.599998474121094</ele><time>2014-01-18T22:11:36Z</time><course>161.2</course><speed>26.5</speed><src>gps</src><sat>27</sat><hdop>0.6</hdop></trkpt>
639<trkpt lat="-27.41853219" lon="153.08780323"><ele>46.20000076293945</ele><time>2014-01-18T22:11:38Z</time><course>157.9</course><speed>26.5</speed><src>gps</src><sat>27</sat><hdop>0.6</hdop></trkpt>
640<trkpt lat="-27.41875121" lon="153.08791412"><ele>46.5</ele><time>2014-01-18T22:11:39Z</time><course>156.5</course><speed>26.5</speed><src>gps</src><sat>27</sat><hdop>0.6</hdop></trkpt>
641<trkpt lat="-27.41919001" lon="153.08814029"><ele>46.0</ele><time>2014-01-18T22:11:41Z</time><course>154.4</course><speed>26.5</speed><src>gps</src><sat>26</sat><hdop>0.6</hdop></trkpt>
642<trkpt lat="-27.41940546" lon="153.08825843"><ele>45.900001525878906</ele><time>2014-01-18T22:11:42Z</time><course>154.0</course><speed>26.5</speed><src>gps</src><sat>27</sat><hdop>0.6</hdop></trkpt>
643<trkpt lat="-27.41983102" lon="153.08849662"><ele>46.0</ele><time>2014-01-18T22:11:44Z</time><course>153.5</course><speed>26.5</speed><src>gps</src><sat>27</sat><hdop>0.6</hdop></trkpt>
644<trkpt lat="-27.42004342" lon="153.08861718"><ele>45.900001525878906</ele><time>2014-01-18T22:11:45Z</time><course>153.5</course><speed>26.25</speed><src>gps</src><sat>27</sat><hdop>0.6</hdop></trkpt>
645<trkpt lat="-27.42025759" lon="153.08873628"><ele>46.099998474121094</ele><time>2014-01-18T22:11:46Z</time><course>153.8</course><speed>26.25</speed><src>gps</src><sat>27</sat><hdop>0.6</hdop></trkpt>
646<trkpt lat="-27.42068206" lon="153.0889669"><ele>45.29999923706055</ele><time>2014-01-18T22:11:48Z</time><course>153.8</course><speed>26.25</speed><src>gps</src><sat>27</sat><hdop>0.6</hdop></trkpt>
647<trkpt lat="-27.42089127" lon="153.08908187"><ele>45.29999923706055</ele><time>2014-01-18T22:11:49Z</time><course>153.8</course><speed>26.25</speed><src>gps</src><sat>27</sat><hdop>0.6</hdop></trkpt>
648<trkpt lat="-27.4213117" lon="153.08931216"><ele>45.79999923706055</ele><time>2014-01-18T22:11:51Z</time><course>153.6</course><speed>25.75</speed><src>gps</src><sat>27</sat><hdop>0.8</hdop></trkpt>
649<trkpt lat="-27.42173851" lon="153.08954024"><ele>45.099998474121094</ele><time>2014-01-18T22:11:53Z</time><course>154.1</course><speed>26.25</speed><src>gps</src><sat>27</sat><hdop>0.6</hdop></trkpt>
650<trkpt lat="-27.4219532" lon="153.08965586"><ele>45.099998474121094</ele><time>2014-01-18T22:11:54Z</time><course>154.5</course><speed>26.25</speed><src>gps</src><sat>27</sat><hdop>0.6</hdop></trkpt>
651<trkpt lat="-27.42238422" lon="153.08988347"><ele>45.599998474121094</ele><time>2014-01-18T22:11:56Z</time><course>155.0</course><speed>26.5</speed><src>gps</src><sat>27</sat><hdop>0.6</hdop></trkpt>
652<trkpt lat="-27.4225985" lon="153.08999614"><ele>45.79999923706055</ele><time>2014-01-18T22:11:57Z</time><course>154.8</course><speed>26.5</speed><src>gps</src><sat>27</sat><hdop>0.6</hdop></trkpt>
653<trkpt lat="-27.42303265" lon="153.09022888"><ele>45.400001525878906</ele><time>2014-01-18T22:11:59Z</time><course>154.7</course><speed>26.5</speed><src>gps</src><sat>27</sat><hdop>0.6</hdop></trkpt>
654<trkpt lat="-27.42324946" lon="153.09034391"><ele>45.400001525878906</ele><time>2014-01-18T22:12:00Z</time><course>155.0</course><speed>26.5</speed><src>gps</src><sat>27</sat><hdop>0.6</hdop></trkpt>
655<trkpt lat="-27.42368717" lon="153.09056515"><ele>45.20000076293945</ele><time>2014-01-18T22:12:02Z</time><course>155.5</course><speed>26.5</speed><src>gps</src><sat>27</sat><hdop>0.6</hdop></trkpt>
656<trkpt lat="-27.42411849" lon="153.09077996"><ele>44.900001525878906</ele><time>2014-01-18T22:12:04Z</time><course>155.7</course><speed>26.25</speed><src>gps</src><sat>27</sat><hdop>0.6</hdop></trkpt>
657<trkpt lat="-27.42455454" lon="153.09099591"><ele>44.20000076293945</ele><time>2014-01-18T22:12:06Z</time><course>156.2</course><speed>26.25</speed><src>gps</src><sat>27</sat><hdop>0.6</hdop></trkpt>
658<trkpt lat="-27.42499148" lon="153.09122247"><ele>44.29999923706055</ele><time>2014-01-18T22:12:08Z</time><course>156.5</course><speed>26.5</speed><src>gps</src><sat>27</sat><hdop>0.6</hdop></trkpt>
659<trkpt lat="-27.42521237" lon="153.09132678"><ele>44.599998474121094</ele><time>2014-01-18T22:12:09Z</time><course>157.0</course><speed>26.25</speed><src>gps</src><sat>27</sat><hdop>0.6</hdop></trkpt>
660<trkpt lat="-27.42564753" lon="153.09152656"><ele>45.400001525878906</ele><time>2014-01-18T22:12:11Z</time><course>157.5</course><speed>26.25</speed><src>gps</src><sat>27</sat><hdop>0.6</hdop></trkpt>
661<trkpt lat="-27.42586552" lon="153.0916255"><ele>45.79999923706055</ele><time>2014-01-18T22:12:12Z</time><course>157.9</course><speed>26.0</speed><src>gps</src><sat>27</sat><hdop>0.6</hdop></trkpt>
662<trkpt lat="-27.42629636" lon="153.09181802"><ele>46.70000076293945</ele><time>2014-01-18T22:12:14Z</time><course>158.4</course><speed>25.75</speed><src>gps</src><sat>26</sat><hdop>0.6</hdop></trkpt>
663<trkpt lat="-27.42673306" lon="153.09200447999999"><ele>48.70000076293945</ele><time>2014-01-18T22:12:16Z</time><course>158.7</course><speed>26.0</speed><src>gps</src><sat>27</sat><hdop>0.6</hdop></trkpt>
664<trkpt lat="-27.42716566" lon="153.09219008"><ele>49.70000076293945</ele><time>2014-01-18T22:12:18Z</time><course>159.4</course><speed>26.0</speed><src>gps</src><sat>27</sat><hdop>0.6</hdop></trkpt>
665<trkpt lat="-27.42738335" lon="153.09227965"><ele>50.400001525878906</ele><time>2014-01-18T22:12:19Z</time><course>159.6</course><speed>26.0</speed><src>gps</src><sat>27</sat><hdop>0.6</hdop></trkpt>
666<trkpt lat="-27.42782779" lon="153.09246441"><ele>51.20000076293945</ele><time>2014-01-18T22:12:21Z</time><course>160.0</course><speed>26.25</speed><src>gps</src><sat>27</sat><hdop>0.6</hdop></trkpt>
667<trkpt lat="-27.42804925" lon="153.09255288"><ele>51.5</ele><time>2014-01-18T22:12:22Z</time><course>160.3</course><speed>26.25</speed><src>gps</src><sat>27</sat><hdop>0.6</hdop></trkpt>
668<trkpt lat="-27.42849809" lon="153.09272951"><ele>52.599998474121094</ele><time>2014-01-18T22:12:24Z</time><course>160.9</course><speed>26.5</speed><src>gps</src><sat>27</sat><hdop>0.6</hdop></trkpt>
669<trkpt lat="-27.42895328" lon="153.09290475"><ele>53.900001525878906</ele><time>2014-01-18T22:12:26Z</time><course>161.8</course><speed>26.75</speed><src>gps</src><sat>27</sat><hdop>0.6</hdop></trkpt>
670<trkpt lat="-27.42941119" lon="153.09306927"><ele>54.20000076293945</ele><time>2014-01-18T22:12:28Z</time><course>161.8</course><speed>26.5</speed><src>gps</src><sat>15</sat><hdop>0.8</hdop></trkpt>
671<trkpt lat="-27.42963194" lon="153.09315106"><ele>54.20000076293945</ele><time>2014-01-18T22:12:29Z</time><course>161.8</course><speed>26.5</speed><src>gps</src><sat>15</sat><hdop>0.6</hdop></trkpt>
672<trkpt lat="-27.42985307" lon="153.09324047"><ele>54.5</ele><time>2014-01-18T22:12:30Z</time><course>161.5</course><speed>26.25</speed><src>gps</src><sat>14</sat><hdop>0.6</hdop></trkpt>
673<trkpt lat="-27.43008198" lon="153.09332432"><ele>54.70000076293945</ele><time>2014-01-18T22:12:31Z</time><course>161.9</course><speed>26.5</speed><src>gps</src><sat>15</sat><hdop>0.6</hdop></trkpt>
674<trkpt lat="-27.43052566" lon="153.09349267"><ele>54.400001525878906</ele><time>2014-01-18T22:12:33Z</time><course>161.9</course><speed>26.25</speed><src>gps</src><sat>25</sat><hdop>0.8</hdop></trkpt>
675<trkpt lat="-27.43074747" lon="153.09357264"><ele>53.599998474121094</ele><time>2014-01-18T22:12:34Z</time><course>161.6</course><speed>25.75</speed><src>gps</src><sat>26</sat><hdop>0.6</hdop></trkpt>
676<trkpt lat="-27.43117665" lon="153.09372986"><ele>53.599998474121094</ele><time>2014-01-18T22:12:36Z</time><course>161.4</course><speed>25.0</speed><src>gps</src><sat>27</sat><hdop>0.8</hdop></trkpt>
677<trkpt lat="-27.4313897" lon="153.09380883"><ele>53.29999923706055</ele><time>2014-01-18T22:12:37Z</time><course>161.2</course><speed>24.5</speed><src>gps</src><sat>27</sat><hdop>0.6</hdop></trkpt>
678<trkpt lat="-27.43159432" lon="153.09388334"><ele>53.70000076293945</ele><time>2014-01-18T22:12:38Z</time><course>160.1</course><speed>23.75</speed><src>gps</src><sat>15</sat><hdop>0.6</hdop></trkpt>
679<trkpt lat="-27.43179282" lon="153.09396756"><ele>53.099998474121094</ele><time>2014-01-18T22:12:39Z</time><course>159.3</course><speed>23.25</speed><src>gps</src><sat>15</sat><hdop>0.6</hdop></trkpt>
680<trkpt lat="-27.43218343" lon="153.09412641"><ele>53.099998474121094</ele><time>2014-01-18T22:12:41Z</time><course>158.9</course><speed>22.75</speed><src>gps</src><sat>14</sat><hdop>0.8</hdop></trkpt>
681<trkpt lat="-27.43236743" lon="153.09420522"><ele>53.70000076293945</ele><time>2014-01-18T22:12:42Z</time><course>158.4</course><speed>21.75</speed><src>gps</src><sat>15</sat><hdop>0.6</hdop></trkpt>
682<trkpt lat="-27.4327276" lon="153.09437106"><ele>54.0</ele><time>2014-01-18T22:12:44Z</time><course>158.0</course><speed>21.5</speed><src>gps</src><sat>24</sat><hdop>0.8</hdop></trkpt>
683<trkpt lat="-27.43290692" lon="153.09445332"><ele>53.29999923706055</ele><time>2014-01-18T22:12:45Z</time><course>157.7</course><speed>21.25</speed><src>gps</src><sat>25</sat><hdop>0.6</hdop></trkpt>
684<trkpt lat="-27.43326231" lon="153.09462165"><ele>52.5</ele><time>2014-01-18T22:12:47Z</time><course>156.5</course><speed>21.25</speed><src>gps</src><sat>26</sat><hdop>0.6</hdop></trkpt>
685<trkpt lat="-27.43361778" lon="153.09480213"><ele>52.70000076293945</ele><time>2014-01-18T22:12:49Z</time><course>155.6</course><speed>21.5</speed><src>gps</src><sat>26</sat><hdop>0.6</hdop></trkpt>
686<trkpt lat="-27.43379852" lon="153.09489456"><ele>52.79999923706055</ele><time>2014-01-18T22:12:50Z</time><course>155.1</course><speed>21.5</speed><src>gps</src><sat>26</sat><hdop>0.6</hdop></trkpt>
687<trkpt lat="-27.43415168" lon="153.09508788"><ele>52.20000076293945</ele><time>2014-01-18T22:12:52Z</time><course>154.3</course><speed>21.75</speed><src>gps</src><sat>26</sat><hdop>0.6</hdop></trkpt>
688<trkpt lat="-27.43450562" lon="153.09528494"><ele>51.5</ele><time>2014-01-18T22:12:54Z</time><course>153.5</course><speed>21.75</speed><src>gps</src><sat>26</sat><hdop>0.6</hdop></trkpt>
689<trkpt lat="-27.43485215" lon="153.09548321"><ele>50.79999923706055</ele><time>2014-01-18T22:12:56Z</time><course>152.9</course><speed>21.75</speed><src>gps</src><sat>26</sat><hdop>0.6</hdop></trkpt>
690<trkpt lat="-27.43520109" lon="153.09568611"><ele>50.29999923706055</ele><time>2014-01-18T22:12:58Z</time><course>151.7</course><speed>21.75</speed><src>gps</src><sat>26</sat><hdop>0.6</hdop></trkpt>
691<trkpt lat="-27.43553935" lon="153.09589956"><ele>49.900001525878906</ele><time>2014-01-18T22:13:00Z</time><course>150.7</course><speed>21.5</speed><src>gps</src><sat>26</sat><hdop>0.6</hdop></trkpt>
692<trkpt lat="-27.43587792" lon="153.09611384"><ele>49.400001525878906</ele><time>2014-01-18T22:13:02Z</time><course>150.2</course><speed>21.5</speed><src>gps</src><sat>26</sat><hdop>0.8</hdop></trkpt>
693<trkpt lat="-27.43604516" lon="153.09622314"><ele>49.5</ele><time>2014-01-18T22:13:03Z</time><course>149.8</course><speed>21.5</speed><src>gps</src><sat>15</sat><hdop>0.6</hdop></trkpt>
694<trkpt lat="-27.43637742" lon="153.0964396"><ele>50.70000076293945</ele><time>2014-01-18T22:13:05Z</time><course>150.2</course><speed>21.0</speed><src>gps</src><sat>14</sat><hdop>0.6</hdop></trkpt>
695<trkpt lat="-27.43670721" lon="153.09664988"><ele>52.20000076293945</ele><time>2014-01-18T22:13:07Z</time><course>151.9</course><speed>21.0</speed><src>gps</src><sat>14</sat><hdop>0.6</hdop></trkpt>
696<trkpt lat="-27.43687904" lon="153.09675257"><ele>53.20000076293945</ele><time>2014-01-18T22:13:08Z</time><course>153.0</course><speed>21.0</speed><src>gps</src><sat>14</sat><hdop>0.6</hdop></trkpt>
697<trkpt lat="-27.43705484" lon="153.0968505"><ele>54.29999923706055</ele><time>2014-01-18T22:13:09Z</time><course>153.1</course><speed>21.0</speed><src>gps</src><sat>15</sat><hdop>0.6</hdop></trkpt>
698<trkpt lat="-27.43739236" lon="153.09704277"><ele>57.400001525878906</ele><time>2014-01-18T22:13:11Z</time><course>153.3</course><speed>21.0</speed><src>gps</src><sat>14</sat><hdop>0.6</hdop></trkpt>
699<trkpt lat="-27.43756663" lon="153.09714226"><ele>58.79999923706055</ele><time>2014-01-18T22:13:12Z</time><course>153.7</course><speed>21.25</speed><src>gps</src><sat>15</sat><hdop>0.6</hdop></trkpt>
700<trkpt lat="-27.43792532" lon="153.09733248"><ele>60.599998474121094</ele><time>2014-01-18T22:13:14Z</time><course>153.4</course><speed>21.5</speed><src>gps</src><sat>15</sat><hdop>0.6</hdop></trkpt>
701<trkpt lat="-27.43827002" lon="153.09751938"><ele>62.599998474121094</ele><time>2014-01-18T22:13:16Z</time><course>153.5</course><speed>21.5</speed><src>gps</src><sat>15</sat><hdop>0.6</hdop></trkpt>
702<trkpt lat="-27.43861834" lon="153.09771598"><ele>64.30000305175781</ele><time>2014-01-18T22:13:18Z</time><course>153.6</course><speed>21.75</speed><src>gps</src><sat>15</sat><hdop>0.6</hdop></trkpt>
703<trkpt lat="-27.43879618" lon="153.09781763"><ele>65.5999984741211</ele><time>2014-01-18T22:13:19Z</time><course>153.5</course><speed>21.75</speed><src>gps</src><sat>15</sat><hdop>0.6</hdop></trkpt>
704<trkpt lat="-27.43896503" lon="153.09791571"><ele>66.4000015258789</ele><time>2014-01-18T22:13:20Z</time><course>153.6</course><speed>21.75</speed><src>gps</src><sat>14</sat><hdop>0.6</hdop></trkpt>
705<trkpt lat="-27.43913353" lon="153.09801237"><ele>67.69999694824219</ele><time>2014-01-18T22:13:21Z</time><course>153.6</course><speed>21.5</speed><src>gps</src><sat>13</sat><hdop>0.6</hdop></trkpt>
706<trkpt lat="-27.43930507" lon="153.09810746"><ele>69.0</ele><time>2014-01-18T22:13:22Z</time><course>153.1</course><speed>21.25</speed><src>gps</src><sat>15</sat><hdop>0.6</hdop></trkpt>
707<trkpt lat="-27.43964839" lon="153.09829292"><ele>71.69999694824219</ele><time>2014-01-18T22:13:24Z</time><course>153.1</course><speed>21.5</speed><src>gps</src><sat>15</sat><hdop>0.6</hdop></trkpt>
708<trkpt lat="-27.43999486" lon="153.09848974"><ele>74.0999984741211</ele><time>2014-01-18T22:13:26Z</time><course>153.7</course><speed>21.25</speed><src>gps</src><sat>15</sat><hdop>0.6</hdop></trkpt>
709<trkpt lat="-27.44017025" lon="153.0985886"><ele>75.19999694824219</ele><time>2014-01-18T22:13:27Z</time><course>153.8</course><speed>21.25</speed><src>gps</src><sat>14</sat><hdop>0.6</hdop></trkpt>
710<trkpt lat="-27.44052323" lon="153.09877291"><ele>77.5999984741211</ele><time>2014-01-18T22:13:29Z</time><course>153.5</course><speed>21.25</speed><src>gps</src><sat>15</sat><hdop>0.6</hdop></trkpt>
711<trkpt lat="-27.44069325" lon="153.09887162"><ele>77.5999984741211</ele><time>2014-01-18T22:13:30Z</time><course>153.5</course><speed>21.5</speed><src>gps</src><sat>15</sat><hdop>0.6</hdop></trkpt>
712<trkpt lat="-27.4410315" lon="153.09907252"><ele>80.19999694824219</ele><time>2014-01-18T22:13:32Z</time><course>153.8</course><speed>21.5</speed><src>gps</src><sat>14</sat><hdop>0.6</hdop></trkpt>
713<trkpt lat="-27.4413778" lon="153.09926814"><ele>82.69999694824219</ele><time>2014-01-18T22:13:34Z</time><course>153.4</course><speed>21.5</speed><src>gps</src><sat>14</sat><hdop>0.6</hdop></trkpt>
714<trkpt lat="-27.44173202" lon="153.09946608"><ele>84.9000015258789</ele><time>2014-01-18T22:13:36Z</time><course>153.0</course><speed>21.5</speed><src>gps</src><sat>15</sat><hdop>0.6</hdop></trkpt>
715<trkpt lat="-27.44190714" lon="153.09955988"><ele>86.80000305175781</ele><time>2014-01-18T22:13:37Z</time><course>153.2</course><speed>21.5</speed><src>gps</src><sat>14</sat><hdop>0.6</hdop></trkpt>
716<trkpt lat="-27.4422517" lon="153.09975931"><ele>89.0</ele><time>2014-01-18T22:13:39Z</time><course>153.8</course><speed>21.5</speed><src>gps</src><sat>14</sat><hdop>0.6</hdop></trkpt>
717<trkpt lat="-27.44259865" lon="153.09994923"><ele>92.19999694824219</ele><time>2014-01-18T22:13:41Z</time><course>153.4</course><speed>21.5</speed><src>gps</src><sat>13</sat><hdop>0.6</hdop></trkpt>
718<trkpt lat="-27.44277445" lon="153.10004553"><ele>94.69999694824219</ele><time>2014-01-18T22:13:42Z</time><course>153.4</course><speed>21.5</speed><src>gps</src><sat>15</sat><hdop>0.6</hdop></trkpt>
719<trkpt lat="-27.44311819" lon="153.10024502"><ele>97.0</ele><time>2014-01-18T22:13:44Z</time><course>153.5</course><speed>21.5</speed><src>gps</src><sat>15</sat><hdop>0.6</hdop></trkpt>
720<trkpt lat="-27.44345994" lon="153.10044421"><ele>100.0999984741211</ele><time>2014-01-18T22:13:46Z</time><course>153.0</course><speed>21.25</speed><src>gps</src><sat>14</sat><hdop>0.6</hdop></trkpt>
721<trkpt lat="-27.44363137" lon="153.10054119"><ele>100.80000305175781</ele><time>2014-01-18T22:13:47Z</time><course>153.2</course><speed>21.25</speed><src>gps</src><sat>15</sat><hdop>0.6</hdop></trkpt>
722<trkpt lat="-27.44380753" lon="153.10064297"><ele>102.0</ele><time>2014-01-18T22:13:48Z</time><course>153.3</course><speed>21.5</speed><src>gps</src><sat>15</sat><hdop>0.6</hdop></trkpt>
723<trkpt lat="-27.44415069" lon="153.10083392"><ele>104.80000305175781</ele><time>2014-01-18T22:13:50Z</time><course>153.4</course><speed>21.25</speed><src>gps</src><sat>14</sat><hdop>0.6</hdop></trkpt>
724<trkpt lat="-27.44432222" lon="153.10093297"><ele>105.5</ele><time>2014-01-18T22:13:51Z</time><course>153.8</course><speed>21.25</speed><src>gps</src><sat>15</sat><hdop>0.6</hdop></trkpt>
725<trkpt lat="-27.44466147" lon="153.1011164"><ele>107.19999694824219</ele><time>2014-01-18T22:13:53Z</time><course>153.8</course><speed>21.5</speed><src>gps</src><sat>15</sat><hdop>0.6</hdop></trkpt>
726<trkpt lat="-27.4450248" lon="153.10130974"><ele>107.9000015258789</ele><time>2014-01-18T22:13:55Z</time><course>153.2</course><speed>22.0</speed><src>gps</src><sat>14</sat><hdop>0.6</hdop></trkpt>
727<trkpt lat="-27.44538373" lon="153.10150924"><ele>108.30000305175781</ele><time>2014-01-18T22:13:57Z</time><course>153.3</course><speed>22.0</speed><src>gps</src><sat>15</sat><hdop>0.6</hdop></trkpt>
728<trkpt lat="-27.44572962" lon="153.10169823"><ele>106.5999984741211</ele><time>2014-01-18T22:13:59Z</time><course>153.5</course><speed>22.0</speed><src>gps</src><sat>15</sat><hdop>0.6</hdop></trkpt>
729<trkpt lat="-27.44590507" lon="153.10179549"><ele>105.80000305175781</ele><time>2014-01-18T22:14:00Z</time><course>153.5</course><speed>22.0</speed><src>gps</src><sat>15</sat><hdop>0.6</hdop></trkpt>
730<trkpt lat="-27.44626141" lon="153.1019974"><ele>104.0999984741211</ele><time>2014-01-18T22:14:02Z</time><course>153.4</course><speed>22.0</speed><src>gps</src><sat>15</sat><hdop>0.6</hdop></trkpt>
731<trkpt lat="-27.44644477" lon="153.10210365"><ele>102.69999694824219</ele><time>2014-01-18T22:14:03Z</time><course>153.5</course><speed>22.25</speed><src>gps</src><sat>15</sat><hdop>0.6</hdop></trkpt>
732<trkpt lat="-27.44680719" lon="153.10231276"><ele>101.30000305175781</ele><time>2014-01-18T22:14:05Z</time><course>153.4</course><speed>22.5</speed><src>gps</src><sat>15</sat><hdop>0.6</hdop></trkpt>
733<trkpt lat="-27.44716585" lon="153.10251335"><ele>99.80000305175781</ele><time>2014-01-18T22:14:07Z</time><course>154.1</course><speed>22.75</speed><src>gps</src><sat>13</sat><hdop>0.6</hdop></trkpt>
734<trkpt lat="-27.4473353" lon="153.10261784"><ele>98.80000305175781</ele><time>2014-01-18T22:14:08Z</time><course>153.4</course><speed>22.5</speed><src>gps</src><sat>15</sat><hdop>0.6</hdop></trkpt>
735<trkpt lat="-27.44770547" lon="153.10282494"><ele>95.80000305175781</ele><time>2014-01-18T22:14:10Z</time><course>153.5</course><speed>22.5</speed><src>gps</src><sat>15</sat><hdop>0.6</hdop></trkpt>
736<trkpt lat="-27.44807581" lon="153.10303127"><ele>92.9000015258789</ele><time>2014-01-18T22:14:12Z</time><course>153.5</course><speed>22.75</speed><src>gps</src><sat>15</sat><hdop>0.6</hdop></trkpt>
737<trkpt lat="-27.44843752" lon="153.10323345"><ele>88.9000015258789</ele><time>2014-01-18T22:14:14Z</time><course>153.8</course><speed>22.75</speed><src>gps</src><sat>15</sat><hdop>0.6</hdop></trkpt>
738<trkpt lat="-27.44862151" lon="153.10332849"><ele>86.80000305175781</ele><time>2014-01-18T22:14:15Z</time><course>154.0</course><speed>22.75</speed><src>gps</src><sat>15</sat><hdop>0.6</hdop></trkpt>
739<trkpt lat="-27.44899774" lon="153.10352936"><ele>84.19999694824219</ele><time>2014-01-18T22:14:17Z</time><course>153.2</course><speed>22.75</speed><src>gps</src><sat>15</sat><hdop>0.6</hdop></trkpt>
740<trkpt lat="-27.44936922" lon="153.10374459"><ele>80.80000305175781</ele><time>2014-01-18T22:14:19Z</time><course>153.0</course><speed>23.0</speed><src>gps</src><sat>15</sat><hdop>0.6</hdop></trkpt>
741<trkpt lat="-27.44956068" lon="153.10385359"><ele>79.19999694824219</ele><time>2014-01-18T22:14:20Z</time><course>153.2</course><speed>23.0</speed><src>gps</src><sat>15</sat><hdop>0.6</hdop></trkpt>
742<trkpt lat="-27.44993073" lon="153.1040631"><ele>77.69999694824219</ele><time>2014-01-18T22:14:22Z</time><course>153.4</course><speed>23.0</speed><src>gps</src><sat>15</sat><hdop>0.6</hdop></trkpt>
743<trkpt lat="-27.45012095" lon="153.10417405"><ele>76.4000015258789</ele><time>2014-01-18T22:14:23Z</time><course>153.8</course><speed>23.0</speed><src>gps</src><sat>15</sat><hdop>0.6</hdop></trkpt>
744<trkpt lat="-27.45030997" lon="153.10427285"><ele>75.80000305175781</ele><time>2014-01-18T22:14:24Z</time><course>153.6</course><speed>23.25</speed><src>gps</src><sat>15</sat><hdop>0.6</hdop></trkpt>
745<trkpt lat="-27.45069146" lon="153.10447127"><ele>74.5999984741211</ele><time>2014-01-18T22:14:26Z</time><course>154.5</course><speed>23.0</speed><src>gps</src><sat>15</sat><hdop>0.6</hdop></trkpt>
746<trkpt lat="-27.45106759" lon="153.10467438"><ele>71.80000305175781</ele><time>2014-01-18T22:14:28Z</time><course>155.4</course><speed>23.25</speed><src>gps</src><sat>15</sat><hdop>0.6</hdop></trkpt>
747<trkpt lat="-27.45145026" lon="153.10485739"><ele>69.69999694824219</ele><time>2014-01-18T22:14:30Z</time><course>157.5</course><speed>23.0</speed><src>gps</src><sat>13</sat><hdop>0.6</hdop></trkpt>
748<trkpt lat="-27.45184875" lon="153.10501584"><ele>68.69999694824219</ele><time>2014-01-18T22:14:32Z</time><course>159.6</course><speed>23.25</speed><src>gps</src><sat>15</sat><hdop>0.6</hdop></trkpt>
749<trkpt lat="-27.45223276" lon="153.10516702"><ele>67.9000015258789</ele><time>2014-01-18T22:14:34Z</time><course>160.6</course><speed>22.75</speed><src>gps</src><sat>14</sat><hdop>0.6</hdop></trkpt>
750<trkpt lat="-27.45242204" lon="153.10524067"><ele>67.9000015258789</ele><time>2014-01-18T22:14:35Z</time><course>161.8</course><speed>22.5</speed><src>gps</src><sat>15</sat><hdop>0.6</hdop></trkpt>
751<trkpt lat="-27.45279962" lon="153.10538724"><ele>68.0</ele><time>2014-01-18T22:14:37Z</time><course>162.8</course><speed>21.75</speed><src>gps</src><sat>15</sat><hdop>0.6</hdop></trkpt>
752<trkpt lat="-27.45298809" lon="153.1054508"><ele>68.69999694824219</ele><time>2014-01-18T22:14:38Z</time><course>162.9</course><speed>21.25</speed><src>gps</src><sat>14</sat><hdop>0.6</hdop></trkpt>
753<trkpt lat="-27.45316791" lon="153.10551747"><ele>68.19999694824219</ele><time>2014-01-18T22:14:39Z</time><course>161.4</course><speed>21.0</speed><src>gps</src><sat>15</sat><hdop>0.6</hdop></trkpt>
754<trkpt lat="-27.45334418" lon="153.10558352"><ele>67.69999694824219</ele><time>2014-01-18T22:14:40Z</time><course>161.0</course><speed>21.5</speed><src>gps</src><sat>14</sat><hdop>0.6</hdop></trkpt>
755<trkpt lat="-27.45371847" lon="153.10573371"><ele>67.19999694824219</ele><time>2014-01-18T22:14:42Z</time><course>158.4</course><speed>21.5</speed><src>gps</src><sat>14</sat><hdop>0.6</hdop></trkpt>
756<trkpt lat="-27.45409269" lon="153.10589365"><ele>66.0</ele><time>2014-01-18T22:14:44Z</time><course>156.7</course><speed>21.75</speed><src>gps</src><sat>15</sat><hdop>0.6</hdop></trkpt>
757<trkpt lat="-27.45426869" lon="153.10598895"><ele>65.4000015258789</ele><time>2014-01-18T22:14:45Z</time><course>155.1</course><speed>21.75</speed><src>gps</src><sat>14</sat><hdop>0.6</hdop></trkpt>
758<trkpt lat="-27.45462125" lon="153.10617912"><ele>64.30000305175781</ele><time>2014-01-18T22:14:47Z</time><course>153.3</course><speed>21.75</speed><src>gps</src><sat>15</sat><hdop>0.6</hdop></trkpt>
759<trkpt lat="-27.45479058" lon="153.10628504"><ele>63.29999923706055</ele><time>2014-01-18T22:14:48Z</time><course>152.2</course><speed>21.75</speed><src>gps</src><sat>15</sat><hdop>0.6</hdop></trkpt>
760<trkpt lat="-27.45512647" lon="153.10649985"><ele>62.20000076293945</ele><time>2014-01-18T22:14:50Z</time><course>149.7</course><speed>21.5</speed><src>gps</src><sat>10</sat><hdop>0.6</hdop></trkpt>
761<trkpt lat="-27.45545962" lon="153.10673352"><ele>60.70000076293945</ele><time>2014-01-18T22:14:52Z</time><course>147.6</course><speed>21.5</speed><src>gps</src><sat>15</sat><hdop>0.6</hdop></trkpt>
762<trkpt lat="-27.45593628" lon="153.10709073"><ele>60.900001525878906</ele><time>2014-01-18T22:14:55Z</time><course>146.5</course><speed>21.5</speed><src>gps</src><sat>26</sat><hdop>0.8</hdop></trkpt>
763<trkpt lat="-27.45626139" lon="153.10732282"><ele>59.79999923706055</ele><time>2014-01-18T22:14:57Z</time><course>146.9</course><speed>21.5</speed><src>gps</src><sat>15</sat><hdop>0.6</hdop></trkpt>
764<trkpt lat="-27.45658832" lon="153.10755493"><ele>58.400001525878906</ele><time>2014-01-18T22:14:59Z</time><course>147.8</course><speed>21.5</speed><src>gps</src><sat>14</sat><hdop>0.6</hdop></trkpt>
765<trkpt lat="-27.45691875" lon="153.10779306"><ele>58.20000076293945</ele><time>2014-01-18T22:15:01Z</time><course>148.7</course><speed>21.5</speed><src>gps</src><sat>14</sat><hdop>0.6</hdop></trkpt>
766<trkpt lat="-27.45725261" lon="153.10802207"><ele>57.900001525878906</ele><time>2014-01-18T22:15:03Z</time><course>148.9</course><speed>21.5</speed><src>gps</src><sat>13</sat><hdop>0.6</hdop></trkpt>
767<trkpt lat="-27.45758533" lon="153.10824356"><ele>56.79999923706055</ele><time>2014-01-18T22:15:05Z</time><course>149.9</course><speed>21.5</speed><src>gps</src><sat>11</sat><hdop>0.6</hdop></trkpt>
768<trkpt lat="-27.45776107" lon="153.10835554"><ele>57.20000076293945</ele><time>2014-01-18T22:15:06Z</time><course>150.4</course><speed>21.75</speed><src>gps</src><sat>14</sat><hdop>0.6</hdop></trkpt>
769<trkpt lat="-27.45792602" lon="153.10846269"><ele>56.900001525878906</ele><time>2014-01-18T22:15:07Z</time><course>150.0</course><speed>21.75</speed><src>gps</src><sat>13</sat><hdop>0.6</hdop></trkpt>
770<trkpt lat="-27.45825757" lon="153.108688"><ele>56.20000076293945</ele><time>2014-01-18T22:15:09Z</time><course>149.6</course><speed>22.25</speed><src>gps</src><sat>12</sat><hdop>0.6</hdop></trkpt>
771<trkpt lat="-27.45843418" lon="153.10880224"><ele>56.5</ele><time>2014-01-18T22:15:10Z</time><course>149.2</course><speed>23.0</speed><src>gps</src><sat>14</sat><hdop>0.6</hdop></trkpt>
772<trkpt lat="-27.4588115" lon="153.10904758"><ele>57.70000076293945</ele><time>2014-01-18T22:15:12Z</time><course>149.7</course><speed>24.25</speed><src>gps</src><sat>15</sat><hdop>0.6</hdop></trkpt>
773<trkpt lat="-27.45919498" lon="153.10929894"><ele>59.29999923706055</ele><time>2014-01-18T22:15:14Z</time><course>149.5</course><speed>25.0</speed><src>gps</src><sat>13</sat><hdop>0.6</hdop></trkpt>
774<trkpt lat="-27.45939765" lon="153.10942691"><ele>60.20000076293945</ele><time>2014-01-18T22:15:15Z</time><course>149.7</course><speed>25.5</speed><src>gps</src><sat>15</sat><hdop>0.6</hdop></trkpt>
775<trkpt lat="-27.45980188" lon="153.10969546"><ele>61.900001525878906</ele><time>2014-01-18T22:15:17Z</time><course>148.8</course><speed>26.5</speed><src>gps</src><sat>15</sat><hdop>0.6</hdop></trkpt>
776<trkpt lat="-27.46000802" lon="153.10982682"><ele>62.20000076293945</ele><time>2014-01-18T22:15:18Z</time><course>148.8</course><speed>27.0</speed><src>gps</src><sat>15</sat><hdop>0.6</hdop></trkpt>
777<trkpt lat="-27.4602128" lon="153.10997074"><ele>61.70000076293945</ele><time>2014-01-18T22:15:19Z</time><course>148.7</course><speed>27.0</speed><src>gps</src><sat>14</sat><hdop>0.6</hdop></trkpt>
778<trkpt lat="-27.46062943" lon="153.11024857"><ele>61.5</ele><time>2014-01-18T22:15:21Z</time><course>148.4</course><speed>26.75</speed><src>gps</src><sat>15</sat><hdop>0.6</hdop></trkpt>
779<trkpt lat="-27.46083844" lon="153.11039152"><ele>60.900001525878906</ele><time>2014-01-18T22:15:22Z</time><course>147.7</course><speed>26.75</speed><src>gps</src><sat>15</sat><hdop>0.6</hdop></trkpt>
780<trkpt lat="-27.46123875" lon="153.11067764"><ele>59.5</ele><time>2014-01-18T22:15:24Z</time><course>146.7</course><speed>26.75</speed><src>gps</src><sat>14</sat><hdop>0.6</hdop></trkpt>
781<trkpt lat="-27.46144241" lon="153.11083469"><ele>59.20000076293945</ele><time>2014-01-18T22:15:25Z</time><course>145.9</course><speed>27.0</speed><src>gps</src><sat>15</sat><hdop>0.6</hdop></trkpt>
782<trkpt lat="-27.46183435" lon="153.11114509"><ele>58.900001525878906</ele><time>2014-01-18T22:15:27Z</time><course>145.2</course><speed>27.0</speed><src>gps</src><sat>12</sat><hdop>0.6</hdop></trkpt>
783<trkpt lat="-27.46203329" lon="153.11130634"><ele>58.0</ele><time>2014-01-18T22:15:28Z</time><course>144.7</course><speed>27.25</speed><src>gps</src><sat>15</sat><hdop>0.6</hdop></trkpt>
784<trkpt lat="-27.46222535" lon="153.11146598"><ele>57.5</ele><time>2014-01-18T22:15:29Z</time><course>144.1</course><speed>27.25</speed><src>gps</src><sat>15</sat><hdop>0.6</hdop></trkpt>
785<trkpt lat="-27.46262262" lon="153.11179228"><ele>56.400001525878906</ele><time>2014-01-18T22:15:31Z</time><course>143.0</course><speed>27.0</speed><src>gps</src><sat>14</sat><hdop>0.6</hdop></trkpt>
786<trkpt lat="-27.46281607" lon="153.11195812"><ele>56.20000076293945</ele><time>2014-01-18T22:15:32Z</time><course>142.6</course><speed>27.0</speed><src>gps</src><sat>14</sat><hdop>0.6</hdop></trkpt>
787<trkpt lat="-27.46321159" lon="153.11230263"><ele>55.599998474121094</ele><time>2014-01-18T22:15:34Z</time><course>141.7</course><speed>27.0</speed><src>gps</src><sat>15</sat><hdop>0.6</hdop></trkpt>
788<trkpt lat="-27.46340327" lon="153.11247736"><ele>54.599998474121094</ele><time>2014-01-18T22:15:35Z</time><course>140.9</course><speed>27.0</speed><src>gps</src><sat>15</sat><hdop>0.6</hdop></trkpt>
789<trkpt lat="-27.46377836" lon="153.11282404"><ele>52.79999923706055</ele><time>2014-01-18T22:15:37Z</time><course>140.1</course><speed>27.0</speed><src>gps</src><sat>15</sat><hdop>0.8</hdop></trkpt>
790<trkpt lat="-27.46396287" lon="153.11300352"><ele>51.79999923706055</ele><time>2014-01-18T22:15:38Z</time><course>139.1</course><speed>27.0</speed><src>gps</src><sat>15</sat><hdop>0.6</hdop></trkpt>
791<trkpt lat="-27.46433085" lon="153.11337224"><ele>48.20000076293945</ele><time>2014-01-18T22:15:40Z</time><course>138.3</course><speed>27.0</speed><src>gps</src><sat>14</sat><hdop>0.6</hdop></trkpt>
792<trkpt lat="-27.46469084" lon="153.11373417"><ele>46.79999923706055</ele><time>2014-01-18T22:15:42Z</time><course>137.8</course><speed>26.75</speed><src>gps</src><sat>15</sat><hdop>0.6</hdop></trkpt>
793<trkpt lat="-27.46504956" lon="153.1140996"><ele>45.5</ele><time>2014-01-18T22:15:44Z</time><course>137.1</course><speed>26.75</speed><src>gps</src><sat>14</sat><hdop>0.6</hdop></trkpt>
794<trkpt lat="-27.46540694" lon="153.1144548"><ele>46.099998474121094</ele><time>2014-01-18T22:15:46Z</time><course>137.3</course><speed>26.5</speed><src>gps</src><sat>13</sat><hdop>0.6</hdop></trkpt>
795<trkpt lat="-27.4655875" lon="153.11463666"><ele>45.70000076293945</ele><time>2014-01-18T22:15:47Z</time><course>137.1</course><speed>26.5</speed><src>gps</src><sat>15</sat><hdop>0.6</hdop></trkpt>
796<trkpt lat="-27.46593294" lon="153.11500757"><ele>45.400001525878906</ele><time>2014-01-18T22:15:49Z</time><course>137.3</course><speed>26.5</speed><src>gps</src><sat>14</sat><hdop>0.6</hdop></trkpt>
797<trkpt lat="-27.46610844" lon="153.11518746"><ele>45.29999923706055</ele><time>2014-01-18T22:15:50Z</time><course>137.6</course><speed>26.5</speed><src>gps</src><sat>15</sat><hdop>0.6</hdop></trkpt>
798<trkpt lat="-27.46646588" lon="153.11554899"><ele>45.79999923706055</ele><time>2014-01-18T22:15:52Z</time><course>138.1</course><speed>26.75</speed><src>gps</src><sat>14</sat><hdop>0.6</hdop></trkpt>
799<trkpt lat="-27.46664642" lon="153.11572163"><ele>45.70000076293945</ele><time>2014-01-18T22:15:53Z</time><course>139.4</course><speed>26.75</speed><src>gps</src><sat>14</sat><hdop>0.6</hdop></trkpt>
800<trkpt lat="-27.46702697" lon="153.11605617"><ele>45.70000076293945</ele><time>2014-01-18T22:15:55Z</time><course>144.0</course><speed>27.0</speed><src>gps</src><sat>15</sat><hdop>0.6</hdop></trkpt>
801<trkpt lat="-27.46723148" lon="153.11621552"><ele>45.0</ele><time>2014-01-18T22:15:56Z</time><course>146.8</course><speed>27.0</speed><src>gps</src><sat>15</sat><hdop>0.6</hdop></trkpt>
802<trkpt lat="-27.46743629" lon="153.11636683"><ele>45.29999923706055</ele><time>2014-01-18T22:15:57Z</time><course>148.9</course><speed>27.25</speed><src>gps</src><sat>13</sat><hdop>0.6</hdop></trkpt>
803<trkpt lat="-27.46787526" lon="153.11663745"><ele>45.400001525878906</ele><time>2014-01-18T22:15:59Z</time><course>153.4</course><speed>27.0</speed><src>gps</src><sat>15</sat><hdop>0.6</hdop></trkpt>
804<trkpt lat="-27.46809484" lon="153.11675371"><ele>45.5</ele><time>2014-01-18T22:16:00Z</time><course>155.6</course><speed>27.0</speed><src>gps</src><sat>13</sat><hdop>0.6</hdop></trkpt>
805<trkpt lat="-27.46854146" lon="153.1169557"><ele>44.79999923706055</ele><time>2014-01-18T22:16:02Z</time><course>160.4</course><speed>27.0</speed><src>gps</src><sat>15</sat><hdop>0.6</hdop></trkpt>
806<trkpt lat="-27.46900284" lon="153.11711528"><ele>45.29999923706055</ele><time>2014-01-18T22:16:04Z</time><course>164.5</course><speed>26.75</speed><src>gps</src><sat>13</sat><hdop>0.6</hdop></trkpt>
807<trkpt lat="-27.46924173" lon="153.11717628"><ele>45.29999923706055</ele><time>2014-01-18T22:16:05Z</time><course>167.0</course><speed>26.5</speed><src>gps</src><sat>12</sat><hdop>0.6</hdop></trkpt>
808<trkpt lat="-27.46947634" lon="153.1172255"><ele>45.5</ele><time>2014-01-18T22:16:06Z</time><course>169.8</course><speed>26.75</speed><src>gps</src><sat>15</sat><hdop>0.6</hdop></trkpt>
809<trkpt lat="-27.46995482" lon="153.11729895"><ele>44.70000076293945</ele><time>2014-01-18T22:16:08Z</time><course>173.9</course><speed>26.75</speed><src>gps</src><sat>13</sat><hdop>0.6</hdop></trkpt>
810<trkpt lat="-27.47019527" lon="153.11732083"><ele>44.099998474121094</ele><time>2014-01-18T22:16:09Z</time><course>175.9</course><speed>26.5</speed><src>gps</src><sat>15</sat><hdop>0.6</hdop></trkpt>
811<trkpt lat="-27.47066976" lon="153.11733428"><ele>44.70000076293945</ele><time>2014-01-18T22:16:11Z</time><course>180.9</course><speed>26.5</speed><src>gps</src><sat>15</sat><hdop>0.6</hdop></trkpt>
812<trkpt lat="-27.47089936" lon="153.11732431"><ele>44.599998474121094</ele><time>2014-01-18T22:16:12Z</time><course>182.9</course><speed>26.5</speed><src>gps</src><sat>14</sat><hdop>0.6</hdop></trkpt>
813<trkpt lat="-27.47138104" lon="153.11728352"><ele>46.79999923706055</ele><time>2014-01-18T22:16:14Z</time><course>184.7</course><speed>26.5</speed><src>gps</src><sat>15</sat><hdop>0.6</hdop></trkpt>
814<trkpt lat="-27.47162095" lon="153.11725701"><ele>47.79999923706055</ele><time>2014-01-18T22:16:15Z</time><course>185.0</course><speed>26.5</speed><src>gps</src><sat>14</sat><hdop>0.6</hdop></trkpt>
815<trkpt lat="-27.47186373" lon="153.11723473"><ele>49.400001525878906</ele><time>2014-01-18T22:16:16Z</time><course>185.0</course><speed>26.5</speed><src>gps</src><sat>15</sat><hdop>0.6</hdop></trkpt>
816<trkpt lat="-27.47234524" lon="153.1171834"><ele>50.400001525878906</ele><time>2014-01-18T22:16:18Z</time><course>184.9</course><speed>26.5</speed><src>gps</src><sat>14</sat><hdop>0.6</hdop></trkpt>
817<trkpt lat="-27.47258688" lon="153.11715816"><ele>50.5</ele><time>2014-01-18T22:16:19Z</time><course>184.8</course><speed>26.75</speed><src>gps</src><sat>15</sat><hdop>0.6</hdop></trkpt>
818<trkpt lat="-27.47307081" lon="153.11711233"><ele>51.79999923706055</ele><time>2014-01-18T22:16:21Z</time><course>185.3</course><speed>27.0</speed><src>gps</src><sat>15</sat><hdop>0.6</hdop></trkpt>
819<trkpt lat="-27.47355935" lon="153.11706668"><ele>52.29999923706055</ele><time>2014-01-18T22:16:23Z</time><course>185.2</course><speed>27.25</speed><src>gps</src><sat>15</sat><hdop>0.6</hdop></trkpt>
820<trkpt lat="-27.4740514" lon="153.11702049"><ele>53.29999923706055</ele><time>2014-01-18T22:16:25Z</time><course>184.8</course><speed>27.0</speed><src>gps</src><sat>15</sat><hdop>0.6</hdop></trkpt>
821<trkpt lat="-27.47429413" lon="153.11700419"><ele>53.0</ele><time>2014-01-18T22:16:26Z</time><course>184.6</course><speed>27.25</speed><src>gps</src><sat>15</sat><hdop>0.6</hdop></trkpt>
822<trkpt lat="-27.4747819" lon="153.11696145"><ele>52.79999923706055</ele><time>2014-01-18T22:16:28Z</time><course>184.1</course><speed>27.25</speed><src>gps</src><sat>15</sat><hdop>0.6</hdop></trkpt>
823<trkpt lat="-27.47502061" lon="153.1169421"><ele>53.29999923706055</ele><time>2014-01-18T22:16:29Z</time><course>183.9</course><speed>27.25</speed><src>gps</src><sat>15</sat><hdop>0.6</hdop></trkpt>
824<trkpt lat="-27.47551488" lon="153.11691018"><ele>52.599998474121094</ele><time>2014-01-18T22:16:31Z</time><course>183.2</course><speed>27.25</speed><src>gps</src><sat>15</sat><hdop>0.6</hdop></trkpt>
825<trkpt lat="-27.4757562" lon="153.11689757"><ele>52.79999923706055</ele><time>2014-01-18T22:16:32Z</time><course>182.6</course><speed>27.0</speed><src>gps</src><sat>15</sat><hdop>0.6</hdop></trkpt>
826<trkpt lat="-27.47625421" lon="153.11688381"><ele>51.400001525878906</ele><time>2014-01-18T22:16:34Z</time><course>180.2</course><speed>27.25</speed><src>gps</src><sat>14</sat><hdop>0.6</hdop></trkpt>
827<trkpt lat="-27.47649947" lon="153.11688267"><ele>50.400001525878906</ele><time>2014-01-18T22:16:35Z</time><course>180.2</course><speed>27.25</speed><src>gps</src><sat>14</sat><hdop>0.8</hdop></trkpt>
828<trkpt lat="-27.47675414" lon="153.11688429"><ele>49.400001525878906</ele><time>2014-01-18T22:16:36Z</time><course>176.6</course><speed>27.0</speed><src>gps</src><sat>14</sat><hdop>0.6</hdop></trkpt>
829<trkpt lat="-27.47699702" lon="153.11690969"><ele>48.5</ele><time>2014-01-18T22:16:37Z</time><course>175.4</course><speed>27.0</speed><src>gps</src><sat>15</sat><hdop>0.6</hdop></trkpt>
830<trkpt lat="-27.47723781" lon="153.11693555"><ele>47.79999923706055</ele><time>2014-01-18T22:16:38Z</time><course>174.1</course><speed>26.75</speed><src>gps</src><sat>14</sat><hdop>0.6</hdop></trkpt>
831<trkpt lat="-27.47771402" lon="153.11701621"><ele>47.0</ele><time>2014-01-18T22:16:40Z</time><course>170.8</course><speed>26.5</speed><src>gps</src><sat>14</sat><hdop>0.6</hdop></trkpt>
832<trkpt lat="-27.47817719" lon="153.1171235"><ele>48.5</ele><time>2014-01-18T22:16:42Z</time><course>167.0</course><speed>26.75</speed><src>gps</src><sat>14</sat><hdop>0.6</hdop></trkpt>
833<trkpt lat="-27.47863658" lon="153.11727346"><ele>49.20000076293945</ele><time>2014-01-18T22:16:44Z</time><course>163.8</course><speed>26.5</speed><src>gps</src><sat>15</sat><hdop>0.6</hdop></trkpt>
834<trkpt lat="-27.47887142" lon="153.11735516"><ele>50.0</ele><time>2014-01-18T22:16:45Z</time><course>162.3</course><speed>26.75</speed><src>gps</src><sat>13</sat><hdop>0.6</hdop></trkpt>
835<trkpt lat="-27.47932137" lon="153.11752911"><ele>49.79999923706055</ele><time>2014-01-18T22:16:47Z</time><course>159.4</course><speed>27.25</speed><src>gps</src><sat>14</sat><hdop>0.6</hdop></trkpt>
836<trkpt lat="-27.47953668" lon="153.11762508"><ele>49.099998474121094</ele><time>2014-01-18T22:16:48Z</time><course>157.5</course><speed>26.5</speed><src>gps</src><sat>14</sat><hdop>0.6</hdop></trkpt>
837<trkpt lat="-27.47997668" lon="153.11784889"><ele>48.79999923706055</ele><time>2014-01-18T22:16:50Z</time><course>153.8</course><speed>26.75</speed><src>gps</src><sat>15</sat><hdop>0.6</hdop></trkpt>
838<trkpt lat="-27.4804111" lon="153.11810225"><ele>48.5</ele><time>2014-01-18T22:16:52Z</time><course>151.6</course><speed>27.0</speed><src>gps</src><sat>15</sat><hdop>0.6</hdop></trkpt>
839<trkpt lat="-27.48062578" lon="153.11823526"><ele>48.5</ele><time>2014-01-18T22:16:53Z</time><course>150.8</course><speed>27.0</speed><src>gps</src><sat>14</sat><hdop>0.6</hdop></trkpt>
840<trkpt lat="-27.48103877" lon="153.11850535"><ele>47.29999923706055</ele><time>2014-01-18T22:16:55Z</time><course>149.0</course><speed>27.0</speed><src>gps</src><sat>12</sat><hdop>0.6</hdop></trkpt>
841<trkpt lat="-27.48125313" lon="153.11864189"><ele>47.70000076293945</ele><time>2014-01-18T22:16:56Z</time><course>148.3</course><speed>27.0</speed><src>gps</src><sat>15</sat><hdop>0.6</hdop></trkpt>
842<trkpt lat="-27.48166088" lon="153.11892871"><ele>46.70000076293945</ele><time>2014-01-18T22:16:58Z</time><course>148.4</course><speed>27.0</speed><src>gps</src><sat>15</sat><hdop>0.6</hdop></trkpt>
843<trkpt lat="-27.48187075" lon="153.11907634"><ele>46.79999923706055</ele><time>2014-01-18T22:16:59Z</time><course>148.5</course><speed>27.0</speed><src>gps</src><sat>14</sat><hdop>0.6</hdop></trkpt>
844<trkpt lat="-27.48227838" lon="153.11935341"><ele>47.599998474121094</ele><time>2014-01-18T22:17:01Z</time><course>149.1</course><speed>26.75</speed><src>gps</src><sat>14</sat><hdop>0.6</hdop></trkpt>
845<trkpt lat="-27.48249156" lon="153.11949779"><ele>47.400001525878906</ele><time>2014-01-18T22:17:02Z</time><course>149.9</course><speed>26.75</speed><src>gps</src><sat>15</sat><hdop>0.6</hdop></trkpt>
846<trkpt lat="-27.48289677" lon="153.11976527"><ele>47.70000076293945</ele><time>2014-01-18T22:17:04Z</time><course>150.6</course><speed>26.5</speed><src>gps</src><sat>14</sat><hdop>0.6</hdop></trkpt>
847<trkpt lat="-27.48331798" lon="153.12002835"><ele>48.900001525878906</ele><time>2014-01-18T22:17:06Z</time><course>152.0</course><speed>26.5</speed><src>gps</src><sat>14</sat><hdop>0.6</hdop></trkpt>
848<trkpt lat="-27.48353147" lon="153.12015161"><ele>50.099998474121094</ele><time>2014-01-18T22:17:07Z</time><course>152.6</course><speed>26.75</speed><src>gps</src><sat>15</sat><hdop>0.6</hdop></trkpt>
849<trkpt lat="-27.48395931" lon="153.12040367"><ele>50.599998474121094</ele><time>2014-01-18T22:17:09Z</time><course>153.5</course><speed>26.5</speed><src>gps</src><sat>15</sat><hdop>0.6</hdop></trkpt>
850<trkpt lat="-27.48417486" lon="153.12052157"><ele>50.70000076293945</ele><time>2014-01-18T22:17:10Z</time><course>154.0</course><speed>26.5</speed><src>gps</src><sat>15</sat><hdop>0.6</hdop></trkpt>
851<trkpt lat="-27.48461687" lon="153.12075036"><ele>52.099998474121094</ele><time>2014-01-18T22:17:12Z</time><course>155.8</course><speed>26.75</speed><src>gps</src><sat>15</sat><hdop>0.6</hdop></trkpt>
852<trkpt lat="-27.4848368" lon="153.12086928"><ele>52.599998474121094</ele><time>2014-01-18T22:17:13Z</time><course>156.6</course><speed>26.75</speed><src>gps</src><sat>15</sat><hdop>0.6</hdop></trkpt>
853<trkpt lat="-27.48506472" lon="153.12097631"><ele>53.20000076293945</ele><time>2014-01-18T22:17:14Z</time><course>157.0</course><speed>26.75</speed><src>gps</src><sat>15</sat><hdop>0.6</hdop></trkpt>
854<trkpt lat="-27.48528729" lon="153.12107577"><ele>53.900001525878906</ele><time>2014-01-18T22:17:15Z</time><course>157.8</course><speed>26.75</speed><src>gps</src><sat>14</sat><hdop>0.6</hdop></trkpt>
855<trkpt lat="-27.48573269" lon="153.12127329"><ele>55.099998474121094</ele><time>2014-01-18T22:17:17Z</time><course>159.1</course><speed>27.0</speed><src>gps</src><sat>15</sat><hdop>0.6</hdop></trkpt>
856<trkpt lat="-27.48619432" lon="153.1214628"><ele>55.900001525878906</ele><time>2014-01-18T22:17:19Z</time><course>160.5</course><speed>27.25</speed><src>gps</src><sat>15</sat><hdop>0.6</hdop></trkpt>
857<trkpt lat="-27.48665999" lon="153.12164006"><ele>57.5</ele><time>2014-01-18T22:17:21Z</time><course>161.0</course><speed>27.25</speed><src>gps</src><sat>15</sat><hdop>0.6</hdop></trkpt>
858<trkpt lat="-27.4868893" lon="153.12173287"><ele>56.900001525878906</ele><time>2014-01-18T22:17:22Z</time><course>160.4</course><speed>27.25</speed><src>gps</src><sat>15</sat><hdop>0.6</hdop></trkpt>
859<trkpt lat="-27.48735327" lon="153.12191549"><ele>56.599998474121094</ele><time>2014-01-18T22:17:24Z</time><course>159.2</course><speed>27.25</speed><src>gps</src><sat>15</sat><hdop>0.6</hdop></trkpt>
860<trkpt lat="-27.4875881" lon="153.12201391"><ele>55.20000076293945</ele><time>2014-01-18T22:17:25Z</time><course>158.5</course><speed>27.25</speed><src>gps</src><sat>15</sat><hdop>0.6</hdop></trkpt>
861<trkpt lat="-27.48804292" lon="153.1222196"><ele>53.5</ele><time>2014-01-18T22:17:27Z</time><course>157.3</course><speed>27.25</speed><src>gps</src><sat>15</sat><hdop>0.6</hdop></trkpt>
862<trkpt lat="-27.48849376" lon="153.12243474"><ele>52.0</ele><time>2014-01-18T22:17:29Z</time><course>156.4</course><speed>27.0</speed><src>gps</src><sat>15</sat><hdop>0.6</hdop></trkpt>
863<trkpt lat="-27.48871513" lon="153.12254795"><ele>51.400001525878906</ele><time>2014-01-18T22:17:30Z</time><course>156.0</course><speed>27.0</speed><src>gps</src><sat>15</sat><hdop>0.6</hdop></trkpt>
864<trkpt lat="-27.48916007" lon="153.12277945"><ele>50.099998474121094</ele><time>2014-01-18T22:17:32Z</time><course>155.3</course><speed>27.0</speed><src>gps</src><sat>14</sat><hdop>0.6</hdop></trkpt>
865<trkpt lat="-27.4893822" lon="153.12288806"><ele>49.400001525878906</ele><time>2014-01-18T22:17:33Z</time><course>154.8</course><speed>27.0</speed><src>gps</src><sat>15</sat><hdop>0.6</hdop></trkpt>
866<trkpt lat="-27.48959936" lon="153.12301123"><ele>49.099998474121094</ele><time>2014-01-18T22:17:34Z</time><course>154.3</course><speed>26.75</speed><src>gps</src><sat>15</sat><hdop>0.6</hdop></trkpt>
867<trkpt lat="-27.490031" lon="153.12325098"><ele>49.400001525878906</ele><time>2014-01-18T22:17:36Z</time><course>153.2</course><speed>26.75</speed><src>gps</src><sat>13</sat><hdop>0.8</hdop></trkpt>
868<trkpt lat="-27.49024567" lon="153.12337231"><ele>49.400001525878906</ele><time>2014-01-18T22:17:37Z</time><course>152.3</course><speed>26.5</speed><src>gps</src><sat>11</sat><hdop>0.6</hdop></trkpt>
869<trkpt lat="-27.49066953" lon="153.12362121"><ele>48.79999923706055</ele><time>2014-01-18T22:17:39Z</time><course>151.0</course><speed>26.75</speed><src>gps</src><sat>15</sat><hdop>0.6</hdop></trkpt>
870<trkpt lat="-27.49108889" lon="153.1238943"><ele>48.400001525878906</ele><time>2014-01-18T22:17:41Z</time><course>149.9</course><speed>26.5</speed><src>gps</src><sat>11</sat><hdop>0.6</hdop></trkpt>
871<trkpt lat="-27.49129637" lon="153.1240252"><ele>47.400001525878906</ele><time>2014-01-18T22:17:42Z</time><course>150.5</course><speed>26.25</speed><src>gps</src><sat>14</sat><hdop>0.6</hdop></trkpt>
872<trkpt lat="-27.49170212" lon="153.12429632"><ele>47.400001525878906</ele><time>2014-01-18T22:17:44Z</time><course>149.1</course><speed>25.75</speed><src>gps</src><sat>13</sat><hdop>0.6</hdop></trkpt>
873</trkseg></trk></gpx>